<?xml version="1.0" encoding="UTF-8" standalone="no" ?>
<gpx xmlns="http://www.topografix.com/GPX/1/1" xmlns:xsi="http://www.w3.org/2001/XMLSchema-instance" xsi:schemaLocation="http://www.topografix.com/GPX/1/1 http://www.topografix.com/GPX/1/1/gpx.xsd" version="1.1" creator="VisuGPX - https://www.visugpx.com">
  <metadata>
    <name>Balade au hasard avec Ténébra et Limpio !</name>
    <desc><![CDATA[Nous partons sur des chemins \"inconnus\"... un peu caillouteux pour ma jument mais en respectant les allures, pas de souci !]]></desc>
  </metadata>
  <trk>
    <name><![CDATA[Untitled]]></name>
    <trkseg>
      <trkpt lat="48.70642" lon="1.75573">
        <ele>176.80000305176</ele>
        <time>2014-03-07T08:59:57.000Z</time>
      </trkpt>
      <trkpt lat="48.70641" lon="1.75586">
        <ele>177.39999389648</ele>
        <time>2014-03-07T09:00:03.000Z</time>
      </trkpt>
      <trkpt lat="48.70647" lon="1.75594">
        <ele>177</ele>
        <time>2014-03-07T09:00:06.000Z</time>
      </trkpt>
      <trkpt lat="48.70647" lon="1.75601">
        <ele>177</ele>
        <time>2014-03-07T09:00:10.000Z</time>
      </trkpt>
      <trkpt lat="48.70642" lon="1.75611">
        <ele>177.60000610352</ele>
        <time>2014-03-07T09:00:18.000Z</time>
      </trkpt>
      <trkpt lat="48.70641" lon="1.75621">
        <ele>177.80000305176</ele>
        <time>2014-03-07T09:00:23.000Z</time>
      </trkpt>
      <trkpt lat="48.70642" lon="1.75635">
        <ele>177.80000305176</ele>
        <time>2014-03-07T09:00:30.000Z</time>
      </trkpt>
      <trkpt lat="48.70641" lon="1.75644">
        <ele>178</ele>
        <time>2014-03-07T09:00:35.000Z</time>
      </trkpt>
      <trkpt lat="48.7064" lon="1.75654">
        <ele>178.19999694824</ele>
        <time>2014-03-07T09:00:40.000Z</time>
      </trkpt>
      <trkpt lat="48.70638" lon="1.75657">
        <ele>178.39999389648</ele>
        <time>2014-03-07T09:00:43.000Z</time>
      </trkpt>
      <trkpt lat="48.70638" lon="1.75659">
        <ele>178.39999389648</ele>
        <time>2014-03-07T09:00:51.000Z</time>
      </trkpt>
      <trkpt lat="48.7064" lon="1.75654">
        <ele>178</ele>
        <time>2014-03-07T09:01:28.000Z</time>
      </trkpt>
      <trkpt lat="48.70639" lon="1.75662">
        <ele>178.39999389648</ele>
        <time>2014-03-07T09:01:40.000Z</time>
      </trkpt>
      <trkpt lat="48.70639" lon="1.75663">
        <ele>178.19999694824</ele>
        <time>2014-03-07T09:01:42.000Z</time>
      </trkpt>
      <trkpt lat="48.70636" lon="1.7566">
        <ele>178.60000610352</ele>
        <time>2014-03-07T09:02:21.000Z</time>
      </trkpt>
      <trkpt lat="48.70634" lon="1.75657">
        <ele>178.80000305176</ele>
        <time>2014-03-07T09:02:23.000Z</time>
      </trkpt>
      <trkpt lat="48.70633" lon="1.75656">
        <ele>178.80000305176</ele>
        <time>2014-03-07T09:02:26.000Z</time>
      </trkpt>
      <trkpt lat="48.70637" lon="1.75655">
        <ele>178.39999389648</ele>
        <time>2014-03-07T09:07:38.000Z</time>
      </trkpt>
      <trkpt lat="48.70633" lon="1.75652">
        <ele>178.80000305176</ele>
        <time>2014-03-07T09:07:41.000Z</time>
      </trkpt>
      <trkpt lat="48.70626" lon="1.75644">
        <ele>179.60000610352</ele>
        <time>2014-03-07T09:07:51.000Z</time>
      </trkpt>
      <trkpt lat="48.70622" lon="1.75638">
        <ele>180</ele>
        <time>2014-03-07T09:07:56.000Z</time>
      </trkpt>
      <trkpt lat="48.70622" lon="1.75636">
        <ele>180</ele>
        <time>2014-03-07T09:07:58.000Z</time>
      </trkpt>
      <trkpt lat="48.70618" lon="1.75633">
        <ele>180.39999389648</ele>
        <time>2014-03-07T09:08:01.000Z</time>
      </trkpt>
      <trkpt lat="48.7061" lon="1.75628">
        <ele>181.19999694824</ele>
        <time>2014-03-07T09:08:06.000Z</time>
      </trkpt>
      <trkpt lat="48.70603" lon="1.75624">
        <ele>181.80000305176</ele>
        <time>2014-03-07T09:08:09.000Z</time>
      </trkpt>
      <trkpt lat="48.70593" lon="1.75616">
        <ele>182.80000305176</ele>
        <time>2014-03-07T09:08:14.000Z</time>
      </trkpt>
      <trkpt lat="48.70589" lon="1.75609">
        <ele>183</ele>
        <time>2014-03-07T09:08:19.000Z</time>
      </trkpt>
      <trkpt lat="48.70584" lon="1.75602">
        <ele>183.39999389648</ele>
        <time>2014-03-07T09:08:24.000Z</time>
      </trkpt>
      <trkpt lat="48.7058" lon="1.75599">
        <ele>183.39999389648</ele>
        <time>2014-03-07T09:08:27.000Z</time>
      </trkpt>
      <trkpt lat="48.70579" lon="1.75595">
        <ele>183.39999389648</ele>
        <time>2014-03-07T09:08:30.000Z</time>
      </trkpt>
      <trkpt lat="48.70569" lon="1.75584">
        <ele>183.39999389648</ele>
        <time>2014-03-07T09:08:39.000Z</time>
      </trkpt>
      <trkpt lat="48.70566" lon="1.75577">
        <ele>182.80000305176</ele>
        <time>2014-03-07T09:08:46.000Z</time>
      </trkpt>
      <trkpt lat="48.70556" lon="1.75568">
        <ele>182.39999389648</ele>
        <time>2014-03-07T09:08:55.000Z</time>
      </trkpt>
      <trkpt lat="48.70553" lon="1.75563">
        <ele>182</ele>
        <time>2014-03-07T09:09:01.000Z</time>
      </trkpt>
      <trkpt lat="48.70548" lon="1.75558">
        <ele>181.80000305176</ele>
        <time>2014-03-07T09:09:07.000Z</time>
      </trkpt>
      <trkpt lat="48.70542" lon="1.75555">
        <ele>181.80000305176</ele>
        <time>2014-03-07T09:09:10.000Z</time>
      </trkpt>
      <trkpt lat="48.70532" lon="1.75551">
        <ele>182</ele>
        <time>2014-03-07T09:09:14.000Z</time>
      </trkpt>
      <trkpt lat="48.70526" lon="1.75541">
        <ele>181.60000610352</ele>
        <time>2014-03-07T09:09:20.000Z</time>
      </trkpt>
      <trkpt lat="48.7052" lon="1.75535">
        <ele>181.39999389648</ele>
        <time>2014-03-07T09:09:26.000Z</time>
      </trkpt>
      <trkpt lat="48.7051" lon="1.75526">
        <ele>181.60000610352</ele>
        <time>2014-03-07T09:09:32.000Z</time>
      </trkpt>
      <trkpt lat="48.70508" lon="1.75525">
        <ele>181.60000610352</ele>
        <time>2014-03-07T09:09:33.000Z</time>
      </trkpt>
      <trkpt lat="48.70506" lon="1.7552">
        <ele>181.60000610352</ele>
        <time>2014-03-07T09:09:37.000Z</time>
      </trkpt>
      <trkpt lat="48.70502" lon="1.75512">
        <ele>181.39999389648</ele>
        <time>2014-03-07T09:09:45.000Z</time>
      </trkpt>
      <trkpt lat="48.70495" lon="1.75507">
        <ele>181.39999389648</ele>
        <time>2014-03-07T09:09:52.000Z</time>
      </trkpt>
      <trkpt lat="48.70488" lon="1.75501">
        <ele>181.39999389648</ele>
        <time>2014-03-07T09:09:59.000Z</time>
      </trkpt>
      <trkpt lat="48.70485" lon="1.75497">
        <ele>181.39999389648</ele>
        <time>2014-03-07T09:10:04.000Z</time>
      </trkpt>
      <trkpt lat="48.70481" lon="1.75491">
        <ele>181.19999694824</ele>
        <time>2014-03-07T09:10:10.000Z</time>
      </trkpt>
      <trkpt lat="48.70478" lon="1.75488">
        <ele>181.19999694824</ele>
        <time>2014-03-07T09:10:14.000Z</time>
      </trkpt>
      <trkpt lat="48.70473" lon="1.75481">
        <ele>181</ele>
        <time>2014-03-07T09:10:20.000Z</time>
      </trkpt>
      <trkpt lat="48.70469" lon="1.75476">
        <ele>181</ele>
        <time>2014-03-07T09:10:27.000Z</time>
      </trkpt>
      <trkpt lat="48.70468" lon="1.75471">
        <ele>180.80000305176</ele>
        <time>2014-03-07T09:10:33.000Z</time>
      </trkpt>
      <trkpt lat="48.70466" lon="1.75467">
        <ele>180.80000305176</ele>
        <time>2014-03-07T09:10:36.000Z</time>
      </trkpt>
      <trkpt lat="48.70464" lon="1.75465">
        <ele>180.80000305176</ele>
        <time>2014-03-07T09:10:38.000Z</time>
      </trkpt>
      <trkpt lat="48.70459" lon="1.75461">
        <ele>180.80000305176</ele>
        <time>2014-03-07T09:10:41.000Z</time>
      </trkpt>
      <trkpt lat="48.70451" lon="1.75456">
        <ele>181</ele>
        <time>2014-03-07T09:10:47.000Z</time>
      </trkpt>
      <trkpt lat="48.70444" lon="1.7545">
        <ele>181.19999694824</ele>
        <time>2014-03-07T09:10:53.000Z</time>
      </trkpt>
      <trkpt lat="48.7043" lon="1.75442">
        <ele>181.80000305176</ele>
        <time>2014-03-07T09:11:05.000Z</time>
      </trkpt>
      <trkpt lat="48.70422" lon="1.75438">
        <ele>182.19999694824</ele>
        <time>2014-03-07T09:11:18.000Z</time>
      </trkpt>
      <trkpt lat="48.70434" lon="1.75438">
        <ele>181.39999389648</ele>
        <time>2014-03-07T09:11:24.000Z</time>
      </trkpt>
      <trkpt lat="48.70444" lon="1.7544">
        <ele>180.80000305176</ele>
        <time>2014-03-07T09:11:36.000Z</time>
      </trkpt>
      <trkpt lat="48.70449" lon="1.75439">
        <ele>180.60000610352</ele>
        <time>2014-03-07T09:11:39.000Z</time>
      </trkpt>
      <trkpt lat="48.70457" lon="1.75438">
        <ele>180</ele>
        <time>2014-03-07T09:11:45.000Z</time>
      </trkpt>
      <trkpt lat="48.70458" lon="1.7544">
        <ele>180</ele>
        <time>2014-03-07T09:11:53.000Z</time>
      </trkpt>
      <trkpt lat="48.70451" lon="1.75445">
        <ele>180.60000610352</ele>
        <time>2014-03-07T09:11:58.000Z</time>
      </trkpt>
      <trkpt lat="48.70444" lon="1.75447">
        <ele>181</ele>
        <time>2014-03-07T09:12:05.000Z</time>
      </trkpt>
      <trkpt lat="48.70441" lon="1.75449">
        <ele>181.39999389648</ele>
        <time>2014-03-07T09:12:14.000Z</time>
      </trkpt>
      <trkpt lat="48.70428" lon="1.75438">
        <ele>181.80000305176</ele>
        <time>2014-03-07T09:14:20.000Z</time>
      </trkpt>
      <trkpt lat="48.70423" lon="1.75432">
        <ele>182</ele>
        <time>2014-03-07T09:14:24.000Z</time>
      </trkpt>
      <trkpt lat="48.70414" lon="1.75428">
        <ele>182.19999694824</ele>
        <time>2014-03-07T09:14:30.000Z</time>
      </trkpt>
      <trkpt lat="48.70409" lon="1.75424">
        <ele>182</ele>
        <time>2014-03-07T09:14:35.000Z</time>
      </trkpt>
      <trkpt lat="48.70403" lon="1.75419">
        <ele>181.80000305176</ele>
        <time>2014-03-07T09:14:41.000Z</time>
      </trkpt>
      <trkpt lat="48.70398" lon="1.75415">
        <ele>181.80000305176</ele>
        <time>2014-03-07T09:14:46.000Z</time>
      </trkpt>
      <trkpt lat="48.70395" lon="1.75408">
        <ele>181.39999389648</ele>
        <time>2014-03-07T09:14:51.000Z</time>
      </trkpt>
      <trkpt lat="48.70395" lon="1.75407">
        <ele>181.39999389648</ele>
        <time>2014-03-07T09:14:53.000Z</time>
      </trkpt>
      <trkpt lat="48.70389" lon="1.75398">
        <ele>181</ele>
        <time>2014-03-07T09:16:19.000Z</time>
      </trkpt>
      <trkpt lat="48.70387" lon="1.754">
        <ele>181.19999694824</ele>
        <time>2014-03-07T09:16:20.000Z</time>
      </trkpt>
      <trkpt lat="48.70378" lon="1.754">
        <ele>181.19999694824</ele>
        <time>2014-03-07T09:16:27.000Z</time>
      </trkpt>
      <trkpt lat="48.70371" lon="1.75395">
        <ele>181</ele>
        <time>2014-03-07T09:16:33.000Z</time>
      </trkpt>
      <trkpt lat="48.70368" lon="1.75392">
        <ele>181</ele>
        <time>2014-03-07T09:16:37.000Z</time>
      </trkpt>
      <trkpt lat="48.70361" lon="1.75386">
        <ele>180.80000305176</ele>
        <time>2014-03-07T09:16:44.000Z</time>
      </trkpt>
      <trkpt lat="48.70358" lon="1.75386">
        <ele>180.80000305176</ele>
        <time>2014-03-07T09:16:50.000Z</time>
      </trkpt>
      <trkpt lat="48.70353" lon="1.75386">
        <ele>180.80000305176</ele>
        <time>2014-03-07T09:16:58.000Z</time>
      </trkpt>
      <trkpt lat="48.70349" lon="1.75382">
        <ele>180.80000305176</ele>
        <time>2014-03-07T09:17:04.000Z</time>
      </trkpt>
      <trkpt lat="48.70349" lon="1.75383">
        <ele>180.80000305176</ele>
        <time>2014-03-07T09:17:05.000Z</time>
      </trkpt>
      <trkpt lat="48.70345" lon="1.75382">
        <ele>181</ele>
        <time>2014-03-07T09:17:15.000Z</time>
      </trkpt>
      <trkpt lat="48.70344" lon="1.75376">
        <ele>180.80000305176</ele>
        <time>2014-03-07T09:17:17.000Z</time>
      </trkpt>
      <trkpt lat="48.70337" lon="1.75365">
        <ele>181</ele>
        <time>2014-03-07T09:17:24.000Z</time>
      </trkpt>
      <trkpt lat="48.70329" lon="1.75361">
        <ele>180.80000305176</ele>
        <time>2014-03-07T09:17:31.000Z</time>
      </trkpt>
      <trkpt lat="48.70324" lon="1.75358">
        <ele>180.80000305176</ele>
        <time>2014-03-07T09:17:36.000Z</time>
      </trkpt>
      <trkpt lat="48.70318" lon="1.75351">
        <ele>180.60000610352</ele>
        <time>2014-03-07T09:17:43.000Z</time>
      </trkpt>
      <trkpt lat="48.70315" lon="1.75345">
        <ele>180.60000610352</ele>
        <time>2014-03-07T09:17:48.000Z</time>
      </trkpt>
      <trkpt lat="48.7031" lon="1.75335">
        <ele>180.39999389648</ele>
        <time>2014-03-07T09:17:54.000Z</time>
      </trkpt>
      <trkpt lat="48.70309" lon="1.75329">
        <ele>180.39999389648</ele>
        <time>2014-03-07T09:17:57.000Z</time>
      </trkpt>
      <trkpt lat="48.70308" lon="1.75323">
        <ele>180.60000610352</ele>
        <time>2014-03-07T09:17:59.000Z</time>
      </trkpt>
      <trkpt lat="48.70302" lon="1.75312">
        <ele>180.60000610352</ele>
        <time>2014-03-07T09:18:08.000Z</time>
      </trkpt>
      <trkpt lat="48.70298" lon="1.75306">
        <ele>180.39999389648</ele>
        <time>2014-03-07T09:18:13.000Z</time>
      </trkpt>
      <trkpt lat="48.70289" lon="1.75298">
        <ele>180.39999389648</ele>
        <time>2014-03-07T09:18:22.000Z</time>
      </trkpt>
      <trkpt lat="48.70279" lon="1.75291">
        <ele>180.19999694824</ele>
        <time>2014-03-07T09:18:31.000Z</time>
      </trkpt>
      <trkpt lat="48.70269" lon="1.75284">
        <ele>180</ele>
        <time>2014-03-07T09:18:39.000Z</time>
      </trkpt>
      <trkpt lat="48.7026" lon="1.75275">
        <ele>180</ele>
        <time>2014-03-07T09:18:46.000Z</time>
      </trkpt>
      <trkpt lat="48.70252" lon="1.75266">
        <ele>179.80000305176</ele>
        <time>2014-03-07T09:18:54.000Z</time>
      </trkpt>
      <trkpt lat="48.70245" lon="1.7526">
        <ele>179.60000610352</ele>
        <time>2014-03-07T09:19:00.000Z</time>
      </trkpt>
      <trkpt lat="48.70235" lon="1.75251">
        <ele>179.19999694824</ele>
        <time>2014-03-07T09:19:09.000Z</time>
      </trkpt>
      <trkpt lat="48.70226" lon="1.75245">
        <ele>178.80000305176</ele>
        <time>2014-03-07T09:19:17.000Z</time>
      </trkpt>
      <trkpt lat="48.70221" lon="1.75245">
        <ele>178.60000610352</ele>
        <time>2014-03-07T09:19:21.000Z</time>
      </trkpt>
      <trkpt lat="48.7021" lon="1.75245">
        <ele>178</ele>
        <time>2014-03-07T09:19:29.000Z</time>
      </trkpt>
      <trkpt lat="48.70204" lon="1.75249">
        <ele>177.80000305176</ele>
        <time>2014-03-07T09:19:34.000Z</time>
      </trkpt>
      <trkpt lat="48.70195" lon="1.75252">
        <ele>177.39999389648</ele>
        <time>2014-03-07T09:19:40.000Z</time>
      </trkpt>
      <trkpt lat="48.70195" lon="1.75252">
        <ele>177.39999389648</ele>
        <time>2014-03-07T09:19:42.000Z</time>
      </trkpt>
      <trkpt lat="48.70196" lon="1.75241">
        <ele>177.39999389648</ele>
        <time>2014-03-07T09:19:52.000Z</time>
      </trkpt>
      <trkpt lat="48.70194" lon="1.7523">
        <ele>177.19999694824</ele>
        <time>2014-03-07T09:19:56.000Z</time>
      </trkpt>
      <trkpt lat="48.70195" lon="1.75219">
        <ele>177.19999694824</ele>
        <time>2014-03-07T09:20:01.000Z</time>
      </trkpt>
      <trkpt lat="48.70195" lon="1.75214">
        <ele>177.19999694824</ele>
        <time>2014-03-07T09:20:03.000Z</time>
      </trkpt>
      <trkpt lat="48.70199" lon="1.75202">
        <ele>177.39999389648</ele>
        <time>2014-03-07T09:20:09.000Z</time>
      </trkpt>
      <trkpt lat="48.70203" lon="1.75192">
        <ele>177.39999389648</ele>
        <time>2014-03-07T09:20:14.000Z</time>
      </trkpt>
      <trkpt lat="48.70209" lon="1.75175">
        <ele>177.60000610352</ele>
        <time>2014-03-07T09:20:22.000Z</time>
      </trkpt>
      <trkpt lat="48.70212" lon="1.75163">
        <ele>177.60000610352</ele>
        <time>2014-03-07T09:20:27.000Z</time>
      </trkpt>
      <trkpt lat="48.70212" lon="1.75162">
        <ele>177.60000610352</ele>
        <time>2014-03-07T09:20:28.000Z</time>
      </trkpt>
      <trkpt lat="48.70208" lon="1.75154">
        <ele>177.60000610352</ele>
        <time>2014-03-07T09:20:32.000Z</time>
      </trkpt>
      <trkpt lat="48.7021" lon="1.7514">
        <ele>177.80000305176</ele>
        <time>2014-03-07T09:20:37.000Z</time>
      </trkpt>
      <trkpt lat="48.7021" lon="1.75131">
        <ele>178</ele>
        <time>2014-03-07T09:20:41.000Z</time>
      </trkpt>
      <trkpt lat="48.70215" lon="1.75104">
        <ele>178.39999389648</ele>
        <time>2014-03-07T09:20:48.000Z</time>
      </trkpt>
      <trkpt lat="48.70218" lon="1.75082">
        <ele>178.60000610352</ele>
        <time>2014-03-07T09:20:54.000Z</time>
      </trkpt>
      <trkpt lat="48.70221" lon="1.75068">
        <ele>178.39999389648</ele>
        <time>2014-03-07T09:21:00.000Z</time>
      </trkpt>
      <trkpt lat="48.70224" lon="1.7505">
        <ele>178.19999694824</ele>
        <time>2014-03-07T09:21:08.000Z</time>
      </trkpt>
      <trkpt lat="48.70226" lon="1.75037">
        <ele>178</ele>
        <time>2014-03-07T09:21:14.000Z</time>
      </trkpt>
      <trkpt lat="48.70229" lon="1.75023">
        <ele>177.60000610352</ele>
        <time>2014-03-07T09:21:21.000Z</time>
      </trkpt>
      <trkpt lat="48.70229" lon="1.75021">
        <ele>177.60000610352</ele>
        <time>2014-03-07T09:21:22.000Z</time>
      </trkpt>
      <trkpt lat="48.70231" lon="1.7501">
        <ele>177.39999389648</ele>
        <time>2014-03-07T09:21:27.000Z</time>
      </trkpt>
      <trkpt lat="48.70234" lon="1.74989">
        <ele>176.80000305176</ele>
        <time>2014-03-07T09:21:36.000Z</time>
      </trkpt>
      <trkpt lat="48.70237" lon="1.74974">
        <ele>176</ele>
        <time>2014-03-07T09:21:43.000Z</time>
      </trkpt>
      <trkpt lat="48.7024" lon="1.74951">
        <ele>175</ele>
        <time>2014-03-07T09:21:52.000Z</time>
      </trkpt>
      <trkpt lat="48.70241" lon="1.74945">
        <ele>174.60000610352</ele>
        <time>2014-03-07T09:21:55.000Z</time>
      </trkpt>
      <trkpt lat="48.70243" lon="1.74933">
        <ele>174</ele>
        <time>2014-03-07T09:22:00.000Z</time>
      </trkpt>
      <trkpt lat="48.70245" lon="1.74921">
        <ele>173.39999389648</ele>
        <time>2014-03-07T09:22:06.000Z</time>
      </trkpt>
      <trkpt lat="48.70248" lon="1.74911">
        <ele>173</ele>
        <time>2014-03-07T09:22:11.000Z</time>
      </trkpt>
      <trkpt lat="48.7025" lon="1.74894">
        <ele>173</ele>
        <time>2014-03-07T09:22:19.000Z</time>
      </trkpt>
      <trkpt lat="48.70252" lon="1.74887">
        <ele>173</ele>
        <time>2014-03-07T09:22:23.000Z</time>
      </trkpt>
      <trkpt lat="48.70256" lon="1.74872">
        <ele>172.80000305176</ele>
        <time>2014-03-07T09:22:29.000Z</time>
      </trkpt>
      <trkpt lat="48.70259" lon="1.74855">
        <ele>172.60000610352</ele>
        <time>2014-03-07T09:22:37.000Z</time>
      </trkpt>
      <trkpt lat="48.70259" lon="1.74843">
        <ele>172.60000610352</ele>
        <time>2014-03-07T09:22:42.000Z</time>
      </trkpt>
      <trkpt lat="48.70261" lon="1.74833">
        <ele>172.39999389648</ele>
        <time>2014-03-07T09:22:47.000Z</time>
      </trkpt>
      <trkpt lat="48.70263" lon="1.74818">
        <ele>172</ele>
        <time>2014-03-07T09:22:54.000Z</time>
      </trkpt>
      <trkpt lat="48.70265" lon="1.74805">
        <ele>171.60000610352</ele>
        <time>2014-03-07T09:23:01.000Z</time>
      </trkpt>
      <trkpt lat="48.70266" lon="1.7479">
        <ele>171.19999694824</ele>
        <time>2014-03-07T09:23:08.000Z</time>
      </trkpt>
      <trkpt lat="48.70268" lon="1.74782">
        <ele>171</ele>
        <time>2014-03-07T09:23:11.000Z</time>
      </trkpt>
      <trkpt lat="48.7027" lon="1.74767">
        <ele>170.60000610352</ele>
        <time>2014-03-07T09:23:17.000Z</time>
      </trkpt>
      <trkpt lat="48.70272" lon="1.74751">
        <ele>170.19999694824</ele>
        <time>2014-03-07T09:23:24.000Z</time>
      </trkpt>
      <trkpt lat="48.70274" lon="1.74744">
        <ele>170</ele>
        <time>2014-03-07T09:23:27.000Z</time>
      </trkpt>
      <trkpt lat="48.70275" lon="1.74737">
        <ele>169.80000305176</ele>
        <time>2014-03-07T09:23:31.000Z</time>
      </trkpt>
      <trkpt lat="48.70275" lon="1.74725">
        <ele>169.60000610352</ele>
        <time>2014-03-07T09:23:36.000Z</time>
      </trkpt>
      <trkpt lat="48.70276" lon="1.74722">
        <ele>169.39999389648</ele>
        <time>2014-03-07T09:23:37.000Z</time>
      </trkpt>
      <trkpt lat="48.70279" lon="1.74702">
        <ele>169</ele>
        <time>2014-03-07T09:23:46.000Z</time>
      </trkpt>
      <trkpt lat="48.7028" lon="1.74694">
        <ele>168.80000305176</ele>
        <time>2014-03-07T09:23:50.000Z</time>
      </trkpt>
      <trkpt lat="48.70283" lon="1.74683">
        <ele>168.60000610352</ele>
        <time>2014-03-07T09:23:56.000Z</time>
      </trkpt>
      <trkpt lat="48.70284" lon="1.74665">
        <ele>168.39999389648</ele>
        <time>2014-03-07T09:24:05.000Z</time>
      </trkpt>
      <trkpt lat="48.70289" lon="1.74658">
        <ele>168.80000305176</ele>
        <time>2014-03-07T09:24:10.000Z</time>
      </trkpt>
      <trkpt lat="48.703" lon="1.74655">
        <ele>169</ele>
        <time>2014-03-07T09:24:17.000Z</time>
      </trkpt>
      <trkpt lat="48.70308" lon="1.74651">
        <ele>169.19999694824</ele>
        <time>2014-03-07T09:24:23.000Z</time>
      </trkpt>
      <trkpt lat="48.70311" lon="1.7465">
        <ele>169.39999389648</ele>
        <time>2014-03-07T09:24:25.000Z</time>
      </trkpt>
      <trkpt lat="48.70309" lon="1.74647">
        <ele>169.39999389648</ele>
        <time>2014-03-07T09:24:29.000Z</time>
      </trkpt>
      <trkpt lat="48.70307" lon="1.74633">
        <ele>169.80000305176</ele>
        <time>2014-03-07T09:24:36.000Z</time>
      </trkpt>
      <trkpt lat="48.70307" lon="1.74632">
        <ele>170</ele>
        <time>2014-03-07T09:24:37.000Z</time>
      </trkpt>
      <trkpt lat="48.70304" lon="1.74621">
        <ele>170.19999694824</ele>
        <time>2014-03-07T09:24:43.000Z</time>
      </trkpt>
      <trkpt lat="48.70303" lon="1.74617">
        <ele>170.39999389648</ele>
        <time>2014-03-07T09:24:45.000Z</time>
      </trkpt>
      <trkpt lat="48.703" lon="1.74605">
        <ele>170.60000610352</ele>
        <time>2014-03-07T09:24:51.000Z</time>
      </trkpt>
      <trkpt lat="48.70298" lon="1.74598">
        <ele>170.80000305176</ele>
        <time>2014-03-07T09:24:54.000Z</time>
      </trkpt>
      <trkpt lat="48.70298" lon="1.74584">
        <ele>171.19999694824</ele>
        <time>2014-03-07T09:25:00.000Z</time>
      </trkpt>
      <trkpt lat="48.70293" lon="1.74571">
        <ele>171.39999389648</ele>
        <time>2014-03-07T09:25:07.000Z</time>
      </trkpt>
      <trkpt lat="48.70288" lon="1.74558">
        <ele>171.39999389648</ele>
        <time>2014-03-07T09:25:13.000Z</time>
      </trkpt>
      <trkpt lat="48.70284" lon="1.74548">
        <ele>171.60000610352</ele>
        <time>2014-03-07T09:25:18.000Z</time>
      </trkpt>
      <trkpt lat="48.70282" lon="1.74545">
        <ele>171.60000610352</ele>
        <time>2014-03-07T09:25:20.000Z</time>
      </trkpt>
      <trkpt lat="48.70278" lon="1.74527">
        <ele>172.19999694824</ele>
        <time>2014-03-07T09:25:26.000Z</time>
      </trkpt>
      <trkpt lat="48.70273" lon="1.74498">
        <ele>173</ele>
        <time>2014-03-07T09:25:31.000Z</time>
      </trkpt>
      <trkpt lat="48.70273" lon="1.74476">
        <ele>173.60000610352</ele>
        <time>2014-03-07T09:25:35.000Z</time>
      </trkpt>
      <trkpt lat="48.70276" lon="1.74448">
        <ele>174.19999694824</ele>
        <time>2014-03-07T09:25:40.000Z</time>
      </trkpt>
      <trkpt lat="48.70276" lon="1.74415">
        <ele>175</ele>
        <time>2014-03-07T09:25:45.000Z</time>
      </trkpt>
      <trkpt lat="48.70276" lon="1.74409">
        <ele>175.39999389648</ele>
        <time>2014-03-07T09:25:46.000Z</time>
      </trkpt>
      <trkpt lat="48.70272" lon="1.74391">
        <ele>176.19999694824</ele>
        <time>2014-03-07T09:25:49.000Z</time>
      </trkpt>
      <trkpt lat="48.70269" lon="1.74374">
        <ele>177</ele>
        <time>2014-03-07T09:25:52.000Z</time>
      </trkpt>
      <trkpt lat="48.70265" lon="1.74356">
        <ele>178</ele>
        <time>2014-03-07T09:25:55.000Z</time>
      </trkpt>
      <trkpt lat="48.70258" lon="1.74327">
        <ele>179</ele>
        <time>2014-03-07T09:26:00.000Z</time>
      </trkpt>
      <trkpt lat="48.70258" lon="1.74322">
        <ele>179.19999694824</ele>
        <time>2014-03-07T09:26:01.000Z</time>
      </trkpt>
      <trkpt lat="48.70256" lon="1.74304">
        <ele>179.39999389648</ele>
        <time>2014-03-07T09:26:04.000Z</time>
      </trkpt>
      <trkpt lat="48.70251" lon="1.74277">
        <ele>179.60000610352</ele>
        <time>2014-03-07T09:26:09.000Z</time>
      </trkpt>
      <trkpt lat="48.70248" lon="1.74267">
        <ele>179.80000305176</ele>
        <time>2014-03-07T09:26:11.000Z</time>
      </trkpt>
      <trkpt lat="48.70235" lon="1.74241">
        <ele>179.60000610352</ele>
        <time>2014-03-07T09:26:16.000Z</time>
      </trkpt>
      <trkpt lat="48.7022" lon="1.74225">
        <ele>179.39999389648</ele>
        <time>2014-03-07T09:26:20.000Z</time>
      </trkpt>
      <trkpt lat="48.70214" lon="1.74215">
        <ele>179.19999694824</ele>
        <time>2014-03-07T09:26:22.000Z</time>
      </trkpt>
      <trkpt lat="48.70203" lon="1.74185">
        <ele>179.60000610352</ele>
        <time>2014-03-07T09:26:27.000Z</time>
      </trkpt>
      <trkpt lat="48.70196" lon="1.74158">
        <ele>179.80000305176</ele>
        <time>2014-03-07T09:26:31.000Z</time>
      </trkpt>
      <trkpt lat="48.70193" lon="1.74138">
        <ele>179.80000305176</ele>
        <time>2014-03-07T09:26:34.000Z</time>
      </trkpt>
      <trkpt lat="48.70184" lon="1.74099">
        <ele>179.60000610352</ele>
        <time>2014-03-07T09:26:40.000Z</time>
      </trkpt>
      <trkpt lat="48.70177" lon="1.7407">
        <ele>179.39999389648</ele>
        <time>2014-03-07T09:26:44.000Z</time>
      </trkpt>
      <trkpt lat="48.70172" lon="1.74033">
        <ele>179.19999694824</ele>
        <time>2014-03-07T09:26:50.000Z</time>
      </trkpt>
      <trkpt lat="48.70175" lon="1.74021">
        <ele>179.19999694824</ele>
        <time>2014-03-07T09:26:52.000Z</time>
      </trkpt>
      <trkpt lat="48.70187" lon="1.73984">
        <ele>179.19999694824</ele>
        <time>2014-03-07T09:26:58.000Z</time>
      </trkpt>
      <trkpt lat="48.70207" lon="1.7396">
        <ele>179</ele>
        <time>2014-03-07T09:27:03.000Z</time>
      </trkpt>
      <trkpt lat="48.70217" lon="1.73948">
        <ele>178.80000305176</ele>
        <time>2014-03-07T09:27:06.000Z</time>
      </trkpt>
      <trkpt lat="48.70225" lon="1.73935">
        <ele>178.60000610352</ele>
        <time>2014-03-07T09:27:09.000Z</time>
      </trkpt>
      <trkpt lat="48.70233" lon="1.73933">
        <ele>178.60000610352</ele>
        <time>2014-03-07T09:27:13.000Z</time>
      </trkpt>
      <trkpt lat="48.70247" lon="1.73916">
        <ele>178</ele>
        <time>2014-03-07T09:27:18.000Z</time>
      </trkpt>
      <trkpt lat="48.70253" lon="1.73903">
        <ele>178</ele>
        <time>2014-03-07T09:27:21.000Z</time>
      </trkpt>
      <trkpt lat="48.70253" lon="1.73902">
        <ele>178</ele>
        <time>2014-03-07T09:27:25.000Z</time>
      </trkpt>
      <trkpt lat="48.70248" lon="1.73896">
        <ele>178</ele>
        <time>2014-03-07T09:27:32.000Z</time>
      </trkpt>
      <trkpt lat="48.70239" lon="1.73891">
        <ele>178</ele>
        <time>2014-03-07T09:27:38.000Z</time>
      </trkpt>
      <trkpt lat="48.70232" lon="1.73887">
        <ele>178</ele>
        <time>2014-03-07T09:27:43.000Z</time>
      </trkpt>
      <trkpt lat="48.70219" lon="1.73882">
        <ele>178</ele>
        <time>2014-03-07T09:27:51.000Z</time>
      </trkpt>
      <trkpt lat="48.70208" lon="1.73877">
        <ele>178</ele>
        <time>2014-03-07T09:27:57.000Z</time>
      </trkpt>
      <trkpt lat="48.70204" lon="1.73871">
        <ele>178</ele>
        <time>2014-03-07T09:28:02.000Z</time>
      </trkpt>
      <trkpt lat="48.70194" lon="1.73863">
        <ele>178</ele>
        <time>2014-03-07T09:28:09.000Z</time>
      </trkpt>
      <trkpt lat="48.70193" lon="1.73862">
        <ele>178</ele>
        <time>2014-03-07T09:28:10.000Z</time>
      </trkpt>
      <trkpt lat="48.70186" lon="1.73853">
        <ele>178</ele>
        <time>2014-03-07T09:28:17.000Z</time>
      </trkpt>
      <trkpt lat="48.7018" lon="1.73845">
        <ele>178</ele>
        <time>2014-03-07T09:28:22.000Z</time>
      </trkpt>
      <trkpt lat="48.70173" lon="1.73837">
        <ele>178</ele>
        <time>2014-03-07T09:28:27.000Z</time>
      </trkpt>
      <trkpt lat="48.70166" lon="1.73827">
        <ele>178</ele>
        <time>2014-03-07T09:28:34.000Z</time>
      </trkpt>
      <trkpt lat="48.7016" lon="1.73819">
        <ele>178</ele>
        <time>2014-03-07T09:28:39.000Z</time>
      </trkpt>
      <trkpt lat="48.70157" lon="1.73817">
        <ele>178</ele>
        <time>2014-03-07T09:28:41.000Z</time>
      </trkpt>
      <trkpt lat="48.70152" lon="1.73811">
        <ele>178</ele>
        <time>2014-03-07T09:28:45.000Z</time>
      </trkpt>
      <trkpt lat="48.70142" lon="1.73805">
        <ele>178</ele>
        <time>2014-03-07T09:28:51.000Z</time>
      </trkpt>
      <trkpt lat="48.70137" lon="1.738">
        <ele>177.80000305176</ele>
        <time>2014-03-07T09:28:56.000Z</time>
      </trkpt>
      <trkpt lat="48.70135" lon="1.73797">
        <ele>177.80000305176</ele>
        <time>2014-03-07T09:28:58.000Z</time>
      </trkpt>
      <trkpt lat="48.70128" lon="1.73789">
        <ele>177.80000305176</ele>
        <time>2014-03-07T09:29:06.000Z</time>
      </trkpt>
      <trkpt lat="48.70118" lon="1.7378">
        <ele>177.60000610352</ele>
        <time>2014-03-07T09:29:14.000Z</time>
      </trkpt>
      <trkpt lat="48.70115" lon="1.73776">
        <ele>177.60000610352</ele>
        <time>2014-03-07T09:29:17.000Z</time>
      </trkpt>
      <trkpt lat="48.70114" lon="1.73773">
        <ele>177.60000610352</ele>
        <time>2014-03-07T09:29:19.000Z</time>
      </trkpt>
      <trkpt lat="48.70109" lon="1.7376">
        <ele>177.39999389648</ele>
        <time>2014-03-07T09:29:28.000Z</time>
      </trkpt>
      <trkpt lat="48.70102" lon="1.7375">
        <ele>177.19999694824</ele>
        <time>2014-03-07T09:29:35.000Z</time>
      </trkpt>
      <trkpt lat="48.70098" lon="1.73747">
        <ele>177.19999694824</ele>
        <time>2014-03-07T09:29:39.000Z</time>
      </trkpt>
      <trkpt lat="48.70093" lon="1.73747">
        <ele>177.19999694824</ele>
        <time>2014-03-07T09:29:44.000Z</time>
      </trkpt>
      <trkpt lat="48.70083" lon="1.73745">
        <ele>177</ele>
        <time>2014-03-07T09:29:51.000Z</time>
      </trkpt>
      <trkpt lat="48.70079" lon="1.73745">
        <ele>177</ele>
        <time>2014-03-07T09:29:54.000Z</time>
      </trkpt>
      <trkpt lat="48.70072" lon="1.73741">
        <ele>177.19999694824</ele>
        <time>2014-03-07T09:30:00.000Z</time>
      </trkpt>
      <trkpt lat="48.70062" lon="1.73737">
        <ele>177.19999694824</ele>
        <time>2014-03-07T09:30:07.000Z</time>
      </trkpt>
      <trkpt lat="48.70058" lon="1.73736">
        <ele>177.39999389648</ele>
        <time>2014-03-07T09:30:10.000Z</time>
      </trkpt>
      <trkpt lat="48.70049" lon="1.73733">
        <ele>177.39999389648</ele>
        <time>2014-03-07T09:30:17.000Z</time>
      </trkpt>
      <trkpt lat="48.7004" lon="1.73727">
        <ele>177.60000610352</ele>
        <time>2014-03-07T09:30:24.000Z</time>
      </trkpt>
      <trkpt lat="48.70039" lon="1.73727">
        <ele>177.60000610352</ele>
        <time>2014-03-07T09:30:25.000Z</time>
      </trkpt>
      <trkpt lat="48.70026" lon="1.73713">
        <ele>178</ele>
        <time>2014-03-07T09:30:35.000Z</time>
      </trkpt>
      <trkpt lat="48.70025" lon="1.73712">
        <ele>178</ele>
        <time>2014-03-07T09:30:36.000Z</time>
      </trkpt>
      <trkpt lat="48.70019" lon="1.7371">
        <ele>178.19999694824</ele>
        <time>2014-03-07T09:30:41.000Z</time>
      </trkpt>
      <trkpt lat="48.7001" lon="1.73707">
        <ele>178.39999389648</ele>
        <time>2014-03-07T09:30:48.000Z</time>
      </trkpt>
      <trkpt lat="48.70009" lon="1.73707">
        <ele>178.39999389648</ele>
        <time>2014-03-07T09:30:49.000Z</time>
      </trkpt>
      <trkpt lat="48.70004" lon="1.73707">
        <ele>178.39999389648</ele>
        <time>2014-03-07T09:30:53.000Z</time>
      </trkpt>
      <trkpt lat="48.69993" lon="1.73708">
        <ele>178.39999389648</ele>
        <time>2014-03-07T09:31:00.000Z</time>
      </trkpt>
      <trkpt lat="48.69984" lon="1.73707">
        <ele>178.19999694824</ele>
        <time>2014-03-07T09:31:07.000Z</time>
      </trkpt>
      <trkpt lat="48.69981" lon="1.73707">
        <ele>178.19999694824</ele>
        <time>2014-03-07T09:31:09.000Z</time>
      </trkpt>
      <trkpt lat="48.69975" lon="1.73708">
        <ele>178</ele>
        <time>2014-03-07T09:31:14.000Z</time>
      </trkpt>
      <trkpt lat="48.69969" lon="1.73708">
        <ele>178</ele>
        <time>2014-03-07T09:31:18.000Z</time>
      </trkpt>
      <trkpt lat="48.6996" lon="1.73705">
        <ele>177.80000305176</ele>
        <time>2014-03-07T09:31:25.000Z</time>
      </trkpt>
      <trkpt lat="48.6995" lon="1.73705">
        <ele>177.60000610352</ele>
        <time>2014-03-07T09:31:31.000Z</time>
      </trkpt>
      <trkpt lat="48.69938" lon="1.73704">
        <ele>177.39999389648</ele>
        <time>2014-03-07T09:31:39.000Z</time>
      </trkpt>
      <trkpt lat="48.69937" lon="1.73705">
        <ele>177.39999389648</ele>
        <time>2014-03-07T09:31:40.000Z</time>
      </trkpt>
      <trkpt lat="48.69932" lon="1.73703">
        <ele>177.19999694824</ele>
        <time>2014-03-07T09:31:44.000Z</time>
      </trkpt>
      <trkpt lat="48.69927" lon="1.73699">
        <ele>177.19999694824</ele>
        <time>2014-03-07T09:31:50.000Z</time>
      </trkpt>
      <trkpt lat="48.6992" lon="1.737">
        <ele>177</ele>
        <time>2014-03-07T09:31:55.000Z</time>
      </trkpt>
      <trkpt lat="48.69915" lon="1.73701">
        <ele>177</ele>
        <time>2014-03-07T09:31:59.000Z</time>
      </trkpt>
      <trkpt lat="48.69908" lon="1.73699">
        <ele>177.19999694824</ele>
        <time>2014-03-07T09:32:05.000Z</time>
      </trkpt>
      <trkpt lat="48.69898" lon="1.737">
        <ele>177.39999389648</ele>
        <time>2014-03-07T09:32:11.000Z</time>
      </trkpt>
      <trkpt lat="48.69888" lon="1.73699">
        <ele>177.60000610352</ele>
        <time>2014-03-07T09:32:18.000Z</time>
      </trkpt>
      <trkpt lat="48.69879" lon="1.73695">
        <ele>177.80000305176</ele>
        <time>2014-03-07T09:32:25.000Z</time>
      </trkpt>
      <trkpt lat="48.69871" lon="1.73693">
        <ele>178</ele>
        <time>2014-03-07T09:32:32.000Z</time>
      </trkpt>
      <trkpt lat="48.69865" lon="1.73694">
        <ele>178</ele>
        <time>2014-03-07T09:32:36.000Z</time>
      </trkpt>
      <trkpt lat="48.69854" lon="1.73695">
        <ele>178.19999694824</ele>
        <time>2014-03-07T09:32:42.000Z</time>
      </trkpt>
      <trkpt lat="48.69851" lon="1.73695">
        <ele>178.39999389648</ele>
        <time>2014-03-07T09:32:44.000Z</time>
      </trkpt>
      <trkpt lat="48.6984" lon="1.73694">
        <ele>178.60000610352</ele>
        <time>2014-03-07T09:32:52.000Z</time>
      </trkpt>
      <trkpt lat="48.69835" lon="1.73691">
        <ele>178.60000610352</ele>
        <time>2014-03-07T09:32:56.000Z</time>
      </trkpt>
      <trkpt lat="48.69826" lon="1.73691">
        <ele>178.80000305176</ele>
        <time>2014-03-07T09:33:02.000Z</time>
      </trkpt>
      <trkpt lat="48.69818" lon="1.73691">
        <ele>178.80000305176</ele>
        <time>2014-03-07T09:33:08.000Z</time>
      </trkpt>
      <trkpt lat="48.69817" lon="1.73691">
        <ele>178.80000305176</ele>
        <time>2014-03-07T09:33:09.000Z</time>
      </trkpt>
      <trkpt lat="48.69809" lon="1.7369">
        <ele>178.80000305176</ele>
        <time>2014-03-07T09:33:15.000Z</time>
      </trkpt>
      <trkpt lat="48.69805" lon="1.73688">
        <ele>179</ele>
        <time>2014-03-07T09:33:19.000Z</time>
      </trkpt>
      <trkpt lat="48.69803" lon="1.73687">
        <ele>179</ele>
        <time>2014-03-07T09:33:21.000Z</time>
      </trkpt>
      <trkpt lat="48.69797" lon="1.73685">
        <ele>179</ele>
        <time>2014-03-07T09:33:26.000Z</time>
      </trkpt>
      <trkpt lat="48.69796" lon="1.73685">
        <ele>179</ele>
        <time>2014-03-07T09:33:27.000Z</time>
      </trkpt>
      <trkpt lat="48.69794" lon="1.73686">
        <ele>179</ele>
        <time>2014-03-07T09:33:29.000Z</time>
      </trkpt>
      <trkpt lat="48.6979" lon="1.73686">
        <ele>179</ele>
        <time>2014-03-07T09:33:33.000Z</time>
      </trkpt>
      <trkpt lat="48.69785" lon="1.73688">
        <ele>179</ele>
        <time>2014-03-07T09:33:37.000Z</time>
      </trkpt>
      <trkpt lat="48.69778" lon="1.73683">
        <ele>179.19999694824</ele>
        <time>2014-03-07T09:33:43.000Z</time>
      </trkpt>
      <trkpt lat="48.69771" lon="1.73681">
        <ele>179.39999389648</ele>
        <time>2014-03-07T09:33:48.000Z</time>
      </trkpt>
      <trkpt lat="48.69762" lon="1.73679">
        <ele>179.39999389648</ele>
        <time>2014-03-07T09:33:56.000Z</time>
      </trkpt>
      <trkpt lat="48.69756" lon="1.73677">
        <ele>179.60000610352</ele>
        <time>2014-03-07T09:34:01.000Z</time>
      </trkpt>
      <trkpt lat="48.69747" lon="1.73677">
        <ele>179.60000610352</ele>
        <time>2014-03-07T09:34:07.000Z</time>
      </trkpt>
      <trkpt lat="48.69734" lon="1.7368">
        <ele>179.60000610352</ele>
        <time>2014-03-07T09:34:16.000Z</time>
      </trkpt>
      <trkpt lat="48.69727" lon="1.73682">
        <ele>179.60000610352</ele>
        <time>2014-03-07T09:34:21.000Z</time>
      </trkpt>
      <trkpt lat="48.69721" lon="1.7368">
        <ele>179.60000610352</ele>
        <time>2014-03-07T09:34:25.000Z</time>
      </trkpt>
      <trkpt lat="48.69717" lon="1.73679">
        <ele>179.60000610352</ele>
        <time>2014-03-07T09:34:29.000Z</time>
      </trkpt>
      <trkpt lat="48.69715" lon="1.73679">
        <ele>179.60000610352</ele>
        <time>2014-03-07T09:34:30.000Z</time>
      </trkpt>
      <trkpt lat="48.69711" lon="1.7368">
        <ele>179.60000610352</ele>
        <time>2014-03-07T09:34:35.000Z</time>
      </trkpt>
      <trkpt lat="48.69707" lon="1.73682">
        <ele>179.60000610352</ele>
        <time>2014-03-07T09:34:40.000Z</time>
      </trkpt>
      <trkpt lat="48.697" lon="1.7368">
        <ele>179.80000305176</ele>
        <time>2014-03-07T09:34:47.000Z</time>
      </trkpt>
      <trkpt lat="48.69692" lon="1.73678">
        <ele>179.80000305176</ele>
        <time>2014-03-07T09:34:54.000Z</time>
      </trkpt>
      <trkpt lat="48.69685" lon="1.73677">
        <ele>179.80000305176</ele>
        <time>2014-03-07T09:35:00.000Z</time>
      </trkpt>
      <trkpt lat="48.69683" lon="1.73676">
        <ele>179.80000305176</ele>
        <time>2014-03-07T09:35:04.000Z</time>
      </trkpt>
      <trkpt lat="48.69677" lon="1.73674">
        <ele>179.80000305176</ele>
        <time>2014-03-07T09:35:17.000Z</time>
      </trkpt>
      <trkpt lat="48.69668" lon="1.73675">
        <ele>179.80000305176</ele>
        <time>2014-03-07T09:35:22.000Z</time>
      </trkpt>
      <trkpt lat="48.69658" lon="1.73679">
        <ele>179.80000305176</ele>
        <time>2014-03-07T09:35:28.000Z</time>
      </trkpt>
      <trkpt lat="48.6965" lon="1.73681">
        <ele>179.80000305176</ele>
        <time>2014-03-07T09:35:33.000Z</time>
      </trkpt>
      <trkpt lat="48.69642" lon="1.73682">
        <ele>180</ele>
        <time>2014-03-07T09:35:39.000Z</time>
      </trkpt>
      <trkpt lat="48.69642" lon="1.7368">
        <ele>180</ele>
        <time>2014-03-07T09:35:40.000Z</time>
      </trkpt>
      <trkpt lat="48.69636" lon="1.73673">
        <ele>180</ele>
        <time>2014-03-07T09:35:47.000Z</time>
      </trkpt>
      <trkpt lat="48.69627" lon="1.7367">
        <ele>180</ele>
        <time>2014-03-07T09:35:52.000Z</time>
      </trkpt>
      <trkpt lat="48.69624" lon="1.73669">
        <ele>180</ele>
        <time>2014-03-07T09:35:54.000Z</time>
      </trkpt>
      <trkpt lat="48.69622" lon="1.73669">
        <ele>180</ele>
        <time>2014-03-07T09:35:56.000Z</time>
      </trkpt>
      <trkpt lat="48.69614" lon="1.7367">
        <ele>180</ele>
        <time>2014-03-07T09:36:03.000Z</time>
      </trkpt>
      <trkpt lat="48.69606" lon="1.73669">
        <ele>180</ele>
        <time>2014-03-07T09:36:09.000Z</time>
      </trkpt>
      <trkpt lat="48.69598" lon="1.73665">
        <ele>180</ele>
        <time>2014-03-07T09:36:15.000Z</time>
      </trkpt>
      <trkpt lat="48.69593" lon="1.73658">
        <ele>180.19999694824</ele>
        <time>2014-03-07T09:36:20.000Z</time>
      </trkpt>
      <trkpt lat="48.69587" lon="1.73651">
        <ele>180.39999389648</ele>
        <time>2014-03-07T09:36:25.000Z</time>
      </trkpt>
      <trkpt lat="48.6958" lon="1.73642">
        <ele>180.39999389648</ele>
        <time>2014-03-07T09:36:31.000Z</time>
      </trkpt>
      <trkpt lat="48.69571" lon="1.73634">
        <ele>179.80000305176</ele>
        <time>2014-03-07T09:36:38.000Z</time>
      </trkpt>
      <trkpt lat="48.69563" lon="1.73624">
        <ele>179.39999389648</ele>
        <time>2014-03-07T09:36:45.000Z</time>
      </trkpt>
      <trkpt lat="48.69558" lon="1.73616">
        <ele>179.19999694824</ele>
        <time>2014-03-07T09:36:51.000Z</time>
      </trkpt>
      <trkpt lat="48.69552" lon="1.73607">
        <ele>178.80000305176</ele>
        <time>2014-03-07T09:36:58.000Z</time>
      </trkpt>
      <trkpt lat="48.69542" lon="1.73597">
        <ele>178.19999694824</ele>
        <time>2014-03-07T09:37:06.000Z</time>
      </trkpt>
      <trkpt lat="48.69532" lon="1.73586">
        <ele>177.60000610352</ele>
        <time>2014-03-07T09:37:14.000Z</time>
      </trkpt>
      <trkpt lat="48.69524" lon="1.73578">
        <ele>177.19999694824</ele>
        <time>2014-03-07T09:37:20.000Z</time>
      </trkpt>
      <trkpt lat="48.69519" lon="1.73567">
        <ele>176.80000305176</ele>
        <time>2014-03-07T09:37:26.000Z</time>
      </trkpt>
      <trkpt lat="48.69509" lon="1.73558">
        <ele>176</ele>
        <time>2014-03-07T09:37:33.000Z</time>
      </trkpt>
      <trkpt lat="48.69503" lon="1.73545">
        <ele>175.60000610352</ele>
        <time>2014-03-07T09:37:38.000Z</time>
      </trkpt>
      <trkpt lat="48.69492" lon="1.73529">
        <ele>175.19999694824</ele>
        <time>2014-03-07T09:37:43.000Z</time>
      </trkpt>
      <trkpt lat="48.6948" lon="1.73509">
        <ele>174.39999389648</ele>
        <time>2014-03-07T09:37:48.000Z</time>
      </trkpt>
      <trkpt lat="48.69467" lon="1.73492">
        <ele>173.80000305176</ele>
        <time>2014-03-07T09:37:53.000Z</time>
      </trkpt>
      <trkpt lat="48.69457" lon="1.7348">
        <ele>173.39999389648</ele>
        <time>2014-03-07T09:37:57.000Z</time>
      </trkpt>
      <trkpt lat="48.69442" lon="1.73461">
        <ele>172.80000305176</ele>
        <time>2014-03-07T09:38:04.000Z</time>
      </trkpt>
      <trkpt lat="48.69427" lon="1.73442">
        <ele>172.19999694824</ele>
        <time>2014-03-07T09:38:10.000Z</time>
      </trkpt>
      <trkpt lat="48.69416" lon="1.73428">
        <ele>171.80000305176</ele>
        <time>2014-03-07T09:38:15.000Z</time>
      </trkpt>
      <trkpt lat="48.69399" lon="1.73405">
        <ele>172.80000305176</ele>
        <time>2014-03-07T09:38:22.000Z</time>
      </trkpt>
      <trkpt lat="48.69373" lon="1.73374">
        <ele>174.60000610352</ele>
        <time>2014-03-07T09:38:32.000Z</time>
      </trkpt>
      <trkpt lat="48.69352" lon="1.73348">
        <ele>176</ele>
        <time>2014-03-07T09:38:40.000Z</time>
      </trkpt>
      <trkpt lat="48.69337" lon="1.73326">
        <ele>177</ele>
        <time>2014-03-07T09:38:47.000Z</time>
      </trkpt>
      <trkpt lat="48.69321" lon="1.7331">
        <ele>177.39999389648</ele>
        <time>2014-03-07T09:38:53.000Z</time>
      </trkpt>
      <trkpt lat="48.69305" lon="1.73291">
        <ele>177.60000610352</ele>
        <time>2014-03-07T09:38:59.000Z</time>
      </trkpt>
      <trkpt lat="48.69288" lon="1.73272">
        <ele>177.80000305176</ele>
        <time>2014-03-07T09:39:05.000Z</time>
      </trkpt>
      <trkpt lat="48.69273" lon="1.73255">
        <ele>177.80000305176</ele>
        <time>2014-03-07T09:39:11.000Z</time>
      </trkpt>
      <trkpt lat="48.69266" lon="1.73242">
        <ele>177.39999389648</ele>
        <time>2014-03-07T09:39:16.000Z</time>
      </trkpt>
      <trkpt lat="48.69265" lon="1.73238">
        <ele>177.39999389648</ele>
        <time>2014-03-07T09:39:18.000Z</time>
      </trkpt>
      <trkpt lat="48.69267" lon="1.73224">
        <ele>176.80000305176</ele>
        <time>2014-03-07T09:39:24.000Z</time>
      </trkpt>
      <trkpt lat="48.69275" lon="1.73204">
        <ele>176</ele>
        <time>2014-03-07T09:39:33.000Z</time>
      </trkpt>
      <trkpt lat="48.69281" lon="1.73184">
        <ele>175.39999389648</ele>
        <time>2014-03-07T09:39:41.000Z</time>
      </trkpt>
      <trkpt lat="48.69289" lon="1.73168">
        <ele>175</ele>
        <time>2014-03-07T09:39:50.000Z</time>
      </trkpt>
      <trkpt lat="48.69295" lon="1.73158">
        <ele>174.60000610352</ele>
        <time>2014-03-07T09:39:56.000Z</time>
      </trkpt>
      <trkpt lat="48.69301" lon="1.73145">
        <ele>174.19999694824</ele>
        <time>2014-03-07T09:40:03.000Z</time>
      </trkpt>
      <trkpt lat="48.69305" lon="1.73134">
        <ele>173.80000305176</ele>
        <time>2014-03-07T09:40:09.000Z</time>
      </trkpt>
      <trkpt lat="48.69306" lon="1.73133">
        <ele>173.80000305176</ele>
        <time>2014-03-07T09:40:10.000Z</time>
      </trkpt>
      <trkpt lat="48.69314" lon="1.73118">
        <ele>173.19999694824</ele>
        <time>2014-03-07T09:40:19.000Z</time>
      </trkpt>
      <trkpt lat="48.69324" lon="1.73104">
        <ele>172.80000305176</ele>
        <time>2014-03-07T09:40:28.000Z</time>
      </trkpt>
      <trkpt lat="48.69333" lon="1.73088">
        <ele>172.19999694824</ele>
        <time>2014-03-07T09:40:37.000Z</time>
      </trkpt>
      <trkpt lat="48.69339" lon="1.73075">
        <ele>172</ele>
        <time>2014-03-07T09:40:44.000Z</time>
      </trkpt>
      <trkpt lat="48.69346" lon="1.73064">
        <ele>171.80000305176</ele>
        <time>2014-03-07T09:40:50.000Z</time>
      </trkpt>
      <trkpt lat="48.69351" lon="1.73048">
        <ele>171.39999389648</ele>
        <time>2014-03-07T09:40:57.000Z</time>
      </trkpt>
      <trkpt lat="48.69357" lon="1.73034">
        <ele>171.19999694824</ele>
        <time>2014-03-07T09:41:04.000Z</time>
      </trkpt>
      <trkpt lat="48.69367" lon="1.73018">
        <ele>171</ele>
        <time>2014-03-07T09:41:13.000Z</time>
      </trkpt>
      <trkpt lat="48.69374" lon="1.73004">
        <ele>170.60000610352</ele>
        <time>2014-03-07T09:41:21.000Z</time>
      </trkpt>
      <trkpt lat="48.69377" lon="1.72995">
        <ele>170.39999389648</ele>
        <time>2014-03-07T09:41:25.000Z</time>
      </trkpt>
      <trkpt lat="48.6938" lon="1.72987">
        <ele>170.19999694824</ele>
        <time>2014-03-07T09:41:29.000Z</time>
      </trkpt>
      <trkpt lat="48.69386" lon="1.72978">
        <ele>170</ele>
        <time>2014-03-07T09:41:35.000Z</time>
      </trkpt>
      <trkpt lat="48.69394" lon="1.72965">
        <ele>169.60000610352</ele>
        <time>2014-03-07T09:41:43.000Z</time>
      </trkpt>
      <trkpt lat="48.69397" lon="1.7296">
        <ele>169.39999389648</ele>
        <time>2014-03-07T09:41:46.000Z</time>
      </trkpt>
      <trkpt lat="48.69406" lon="1.72945">
        <ele>169</ele>
        <time>2014-03-07T09:41:55.000Z</time>
      </trkpt>
      <trkpt lat="48.69415" lon="1.72927">
        <ele>168.39999389648</ele>
        <time>2014-03-07T09:42:04.000Z</time>
      </trkpt>
      <trkpt lat="48.69424" lon="1.72909">
        <ele>168</ele>
        <time>2014-03-07T09:42:13.000Z</time>
      </trkpt>
      <trkpt lat="48.69431" lon="1.72893">
        <ele>167.39999389648</ele>
        <time>2014-03-07T09:42:20.000Z</time>
      </trkpt>
      <trkpt lat="48.69438" lon="1.72881">
        <ele>167.19999694824</ele>
        <time>2014-03-07T09:42:26.000Z</time>
      </trkpt>
      <trkpt lat="48.69441" lon="1.7287">
        <ele>167</ele>
        <time>2014-03-07T09:42:31.000Z</time>
      </trkpt>
      <trkpt lat="48.69441" lon="1.72856">
        <ele>166.39999389648</ele>
        <time>2014-03-07T09:42:35.000Z</time>
      </trkpt>
      <trkpt lat="48.69447" lon="1.7284">
        <ele>166</ele>
        <time>2014-03-07T09:42:42.000Z</time>
      </trkpt>
      <trkpt lat="48.6945" lon="1.72829">
        <ele>165.60000610352</ele>
        <time>2014-03-07T09:42:47.000Z</time>
      </trkpt>
      <trkpt lat="48.69458" lon="1.72822">
        <ele>165.39999389648</ele>
        <time>2014-03-07T09:42:53.000Z</time>
      </trkpt>
      <trkpt lat="48.69463" lon="1.72809">
        <ele>165</ele>
        <time>2014-03-07T09:42:59.000Z</time>
      </trkpt>
      <trkpt lat="48.69468" lon="1.72798">
        <ele>164.60000610352</ele>
        <time>2014-03-07T09:43:05.000Z</time>
      </trkpt>
      <trkpt lat="48.69479" lon="1.72789">
        <ele>164.39999389648</ele>
        <time>2014-03-07T09:43:14.000Z</time>
      </trkpt>
      <trkpt lat="48.69481" lon="1.72787">
        <ele>164.39999389648</ele>
        <time>2014-03-07T09:43:16.000Z</time>
      </trkpt>
      <trkpt lat="48.69488" lon="1.72776">
        <ele>164</ele>
        <time>2014-03-07T09:43:23.000Z</time>
      </trkpt>
      <trkpt lat="48.69495" lon="1.72764">
        <ele>163.60000610352</ele>
        <time>2014-03-07T09:43:31.000Z</time>
      </trkpt>
      <trkpt lat="48.69502" lon="1.72749">
        <ele>163.19999694824</ele>
        <time>2014-03-07T09:43:39.000Z</time>
      </trkpt>
      <trkpt lat="48.69506" lon="1.72736">
        <ele>163.60000610352</ele>
        <time>2014-03-07T09:43:46.000Z</time>
      </trkpt>
      <trkpt lat="48.69512" lon="1.72725">
        <ele>164</ele>
        <time>2014-03-07T09:43:53.000Z</time>
      </trkpt>
      <trkpt lat="48.69518" lon="1.72715">
        <ele>164.60000610352</ele>
        <time>2014-03-07T09:44:00.000Z</time>
      </trkpt>
      <trkpt lat="48.69516" lon="1.72705">
        <ele>164.60000610352</ele>
        <time>2014-03-07T09:44:06.000Z</time>
      </trkpt>
      <trkpt lat="48.69516" lon="1.72695">
        <ele>164.80000305176</ele>
        <time>2014-03-07T09:44:10.000Z</time>
      </trkpt>
      <trkpt lat="48.69517" lon="1.72686">
        <ele>165</ele>
        <time>2014-03-07T09:44:14.000Z</time>
      </trkpt>
      <trkpt lat="48.69514" lon="1.7268">
        <ele>164.80000305176</ele>
        <time>2014-03-07T09:44:21.000Z</time>
      </trkpt>
      <trkpt lat="48.69513" lon="1.72679">
        <ele>164.80000305176</ele>
        <time>2014-03-07T09:44:22.000Z</time>
      </trkpt>
      <trkpt lat="48.69505" lon="1.72666">
        <ele>164.39999389648</ele>
        <time>2014-03-07T09:44:31.000Z</time>
      </trkpt>
      <trkpt lat="48.69498" lon="1.72654">
        <ele>164.19999694824</ele>
        <time>2014-03-07T09:44:35.000Z</time>
      </trkpt>
      <trkpt lat="48.69486" lon="1.72634">
        <ele>164</ele>
        <time>2014-03-07T09:44:41.000Z</time>
      </trkpt>
      <trkpt lat="48.69475" lon="1.72614">
        <ele>163.60000610352</ele>
        <time>2014-03-07T09:44:46.000Z</time>
      </trkpt>
      <trkpt lat="48.69458" lon="1.72577">
        <ele>163</ele>
        <time>2014-03-07T09:44:54.000Z</time>
      </trkpt>
      <trkpt lat="48.69448" lon="1.72554">
        <ele>163</ele>
        <time>2014-03-07T09:44:59.000Z</time>
      </trkpt>
      <trkpt lat="48.6943" lon="1.72515">
        <ele>163</ele>
        <time>2014-03-07T09:45:07.000Z</time>
      </trkpt>
      <trkpt lat="48.69413" lon="1.72485">
        <ele>162.80000305176</ele>
        <time>2014-03-07T09:45:14.000Z</time>
      </trkpt>
      <trkpt lat="48.69397" lon="1.72458">
        <ele>162.39999389648</ele>
        <time>2014-03-07T09:45:20.000Z</time>
      </trkpt>
      <trkpt lat="48.69387" lon="1.72446">
        <ele>162.39999389648</ele>
        <time>2014-03-07T09:45:24.000Z</time>
      </trkpt>
      <trkpt lat="48.69377" lon="1.72428">
        <ele>162.19999694824</ele>
        <time>2014-03-07T09:45:28.000Z</time>
      </trkpt>
      <trkpt lat="48.69365" lon="1.72407">
        <ele>162.19999694824</ele>
        <time>2014-03-07T09:45:33.000Z</time>
      </trkpt>
      <trkpt lat="48.69354" lon="1.72384">
        <ele>162.39999389648</ele>
        <time>2014-03-07T09:45:38.000Z</time>
      </trkpt>
      <trkpt lat="48.69336" lon="1.72352">
        <ele>163</ele>
        <time>2014-03-07T09:45:45.000Z</time>
      </trkpt>
      <trkpt lat="48.69326" lon="1.72322">
        <ele>163.19999694824</ele>
        <time>2014-03-07T09:45:51.000Z</time>
      </trkpt>
      <trkpt lat="48.69316" lon="1.723">
        <ele>163.39999389648</ele>
        <time>2014-03-07T09:45:55.000Z</time>
      </trkpt>
      <trkpt lat="48.69314" lon="1.72295">
        <ele>163.39999389648</ele>
        <time>2014-03-07T09:45:56.000Z</time>
      </trkpt>
      <trkpt lat="48.69307" lon="1.7228">
        <ele>163.80000305176</ele>
        <time>2014-03-07T09:45:59.000Z</time>
      </trkpt>
      <trkpt lat="48.69302" lon="1.7227">
        <ele>164</ele>
        <time>2014-03-07T09:46:01.000Z</time>
      </trkpt>
      <trkpt lat="48.69295" lon="1.72254">
        <ele>164.39999389648</ele>
        <time>2014-03-07T09:46:04.000Z</time>
      </trkpt>
      <trkpt lat="48.6928" lon="1.72228">
        <ele>165.39999389648</ele>
        <time>2014-03-07T09:46:10.000Z</time>
      </trkpt>
      <trkpt lat="48.69266" lon="1.7221">
        <ele>166.39999389648</ele>
        <time>2014-03-07T09:46:15.000Z</time>
      </trkpt>
      <trkpt lat="48.6925" lon="1.72196">
        <ele>167.39999389648</ele>
        <time>2014-03-07T09:46:20.000Z</time>
      </trkpt>
      <trkpt lat="48.69238" lon="1.72181">
        <ele>168</ele>
        <time>2014-03-07T09:46:25.000Z</time>
      </trkpt>
      <trkpt lat="48.69228" lon="1.72168">
        <ele>168.60000610352</ele>
        <time>2014-03-07T09:46:29.000Z</time>
      </trkpt>
      <trkpt lat="48.69215" lon="1.7215">
        <ele>169.19999694824</ele>
        <time>2014-03-07T09:46:34.000Z</time>
      </trkpt>
      <trkpt lat="48.69203" lon="1.72135">
        <ele>169.60000610352</ele>
        <time>2014-03-07T09:46:38.000Z</time>
      </trkpt>
      <trkpt lat="48.69186" lon="1.72111">
        <ele>169.80000305176</ele>
        <time>2014-03-07T09:46:43.000Z</time>
      </trkpt>
      <trkpt lat="48.69175" lon="1.72097">
        <ele>169.39999389648</ele>
        <time>2014-03-07T09:46:46.000Z</time>
      </trkpt>
      <trkpt lat="48.69166" lon="1.72081">
        <ele>169</ele>
        <time>2014-03-07T09:46:49.000Z</time>
      </trkpt>
      <trkpt lat="48.69154" lon="1.7206">
        <ele>169</ele>
        <time>2014-03-07T09:46:53.000Z</time>
      </trkpt>
      <trkpt lat="48.69139" lon="1.72036">
        <ele>169.19999694824</ele>
        <time>2014-03-07T09:46:58.000Z</time>
      </trkpt>
      <trkpt lat="48.69131" lon="1.72022">
        <ele>169.39999389648</ele>
        <time>2014-03-07T09:47:01.000Z</time>
      </trkpt>
      <trkpt lat="48.69125" lon="1.72006">
        <ele>169.39999389648</ele>
        <time>2014-03-07T09:47:04.000Z</time>
      </trkpt>
      <trkpt lat="48.69116" lon="1.71978">
        <ele>169.39999389648</ele>
        <time>2014-03-07T09:47:09.000Z</time>
      </trkpt>
      <trkpt lat="48.69109" lon="1.71956">
        <ele>169.19999694824</ele>
        <time>2014-03-07T09:47:13.000Z</time>
      </trkpt>
      <trkpt lat="48.69101" lon="1.71934">
        <ele>168.80000305176</ele>
        <time>2014-03-07T09:47:17.000Z</time>
      </trkpt>
      <trkpt lat="48.69091" lon="1.71906">
        <ele>168</ele>
        <time>2014-03-07T09:47:22.000Z</time>
      </trkpt>
      <trkpt lat="48.69082" lon="1.71868">
        <ele>167.39999389648</ele>
        <time>2014-03-07T09:47:29.000Z</time>
      </trkpt>
      <trkpt lat="48.69073" lon="1.71837">
        <ele>167.39999389648</ele>
        <time>2014-03-07T09:47:35.000Z</time>
      </trkpt>
      <trkpt lat="48.69064" lon="1.71811">
        <ele>167.39999389648</ele>
        <time>2014-03-07T09:47:41.000Z</time>
      </trkpt>
      <trkpt lat="48.69058" lon="1.71791">
        <ele>167.39999389648</ele>
        <time>2014-03-07T09:47:46.000Z</time>
      </trkpt>
      <trkpt lat="48.69048" lon="1.71766">
        <ele>167.39999389648</ele>
        <time>2014-03-07T09:47:51.000Z</time>
      </trkpt>
      <trkpt lat="48.69035" lon="1.71733">
        <ele>167.80000305176</ele>
        <time>2014-03-07T09:47:57.000Z</time>
      </trkpt>
      <trkpt lat="48.69026" lon="1.71713">
        <ele>168</ele>
        <time>2014-03-07T09:48:01.000Z</time>
      </trkpt>
      <trkpt lat="48.69018" lon="1.71694">
        <ele>168.19999694824</ele>
        <time>2014-03-07T09:48:06.000Z</time>
      </trkpt>
      <trkpt lat="48.69009" lon="1.71669">
        <ele>168</ele>
        <time>2014-03-07T09:48:12.000Z</time>
      </trkpt>
      <trkpt lat="48.69007" lon="1.71664">
        <ele>168</ele>
        <time>2014-03-07T09:48:13.000Z</time>
      </trkpt>
      <trkpt lat="48.68998" lon="1.71648">
        <ele>168.60000610352</ele>
        <time>2014-03-07T09:48:17.000Z</time>
      </trkpt>
      <trkpt lat="48.68992" lon="1.71634">
        <ele>169</ele>
        <time>2014-03-07T09:48:22.000Z</time>
      </trkpt>
      <trkpt lat="48.68987" lon="1.71624">
        <ele>169.39999389648</ele>
        <time>2014-03-07T09:48:28.000Z</time>
      </trkpt>
      <trkpt lat="48.68987" lon="1.71623">
        <ele>169.39999389648</ele>
        <time>2014-03-07T09:48:29.000Z</time>
      </trkpt>
      <trkpt lat="48.68986" lon="1.71622">
        <ele>169.39999389648</ele>
        <time>2014-03-07T09:48:32.000Z</time>
      </trkpt>
      <trkpt lat="48.68983" lon="1.71615">
        <ele>169.60000610352</ele>
        <time>2014-03-07T09:48:45.000Z</time>
      </trkpt>
      <trkpt lat="48.68978" lon="1.71603">
        <ele>170</ele>
        <time>2014-03-07T09:48:52.000Z</time>
      </trkpt>
      <trkpt lat="48.6897" lon="1.7159">
        <ele>170.19999694824</ele>
        <time>2014-03-07T09:49:00.000Z</time>
      </trkpt>
      <trkpt lat="48.68968" lon="1.71581">
        <ele>170.39999389648</ele>
        <time>2014-03-07T09:49:06.000Z</time>
      </trkpt>
      <trkpt lat="48.68965" lon="1.71574">
        <ele>170.39999389648</ele>
        <time>2014-03-07T09:49:11.000Z</time>
      </trkpt>
      <trkpt lat="48.68958" lon="1.71564">
        <ele>170.60000610352</ele>
        <time>2014-03-07T09:49:18.000Z</time>
      </trkpt>
      <trkpt lat="48.68951" lon="1.71551">
        <ele>170.80000305176</ele>
        <time>2014-03-07T09:49:27.000Z</time>
      </trkpt>
      <trkpt lat="48.68945" lon="1.71543">
        <ele>170.80000305176</ele>
        <time>2014-03-07T09:49:33.000Z</time>
      </trkpt>
      <trkpt lat="48.68938" lon="1.71532">
        <ele>171</ele>
        <time>2014-03-07T09:49:41.000Z</time>
      </trkpt>
      <trkpt lat="48.6893" lon="1.71518">
        <ele>171</ele>
        <time>2014-03-07T09:49:51.000Z</time>
      </trkpt>
      <trkpt lat="48.68924" lon="1.7151">
        <ele>171</ele>
        <time>2014-03-07T09:49:58.000Z</time>
      </trkpt>
      <trkpt lat="48.68916" lon="1.71498">
        <ele>171</ele>
        <time>2014-03-07T09:50:08.000Z</time>
      </trkpt>
      <trkpt lat="48.68912" lon="1.71495">
        <ele>171.19999694824</ele>
        <time>2014-03-07T09:50:14.000Z</time>
      </trkpt>
      <trkpt lat="48.68904" lon="1.71481">
        <ele>171.60000610352</ele>
        <time>2014-03-07T09:50:33.000Z</time>
      </trkpt>
      <trkpt lat="48.68896" lon="1.71475">
        <ele>172</ele>
        <time>2014-03-07T09:50:39.000Z</time>
      </trkpt>
      <trkpt lat="48.68891" lon="1.71466">
        <ele>172.19999694824</ele>
        <time>2014-03-07T09:50:46.000Z</time>
      </trkpt>
      <trkpt lat="48.68884" lon="1.71454">
        <ele>172.60000610352</ele>
        <time>2014-03-07T09:50:54.000Z</time>
      </trkpt>
      <trkpt lat="48.68879" lon="1.71443">
        <ele>172.80000305176</ele>
        <time>2014-03-07T09:51:01.000Z</time>
      </trkpt>
      <trkpt lat="48.68871" lon="1.71429">
        <ele>173</ele>
        <time>2014-03-07T09:51:10.000Z</time>
      </trkpt>
      <trkpt lat="48.68867" lon="1.71419">
        <ele>173.19999694824</ele>
        <time>2014-03-07T09:51:17.000Z</time>
      </trkpt>
      <trkpt lat="48.68863" lon="1.71412">
        <ele>173.39999389648</ele>
        <time>2014-03-07T09:51:22.000Z</time>
      </trkpt>
      <trkpt lat="48.68855" lon="1.71397">
        <ele>174</ele>
        <time>2014-03-07T09:51:30.000Z</time>
      </trkpt>
      <trkpt lat="48.6885" lon="1.71384">
        <ele>174.39999389648</ele>
        <time>2014-03-07T09:51:38.000Z</time>
      </trkpt>
      <trkpt lat="48.68844" lon="1.71373">
        <ele>174.80000305176</ele>
        <time>2014-03-07T09:51:45.000Z</time>
      </trkpt>
      <trkpt lat="48.68836" lon="1.71359">
        <ele>175.19999694824</ele>
        <time>2014-03-07T09:51:53.000Z</time>
      </trkpt>
      <trkpt lat="48.6883" lon="1.71349">
        <ele>175.60000610352</ele>
        <time>2014-03-07T09:52:00.000Z</time>
      </trkpt>
      <trkpt lat="48.68822" lon="1.71337">
        <ele>176.19999694824</ele>
        <time>2014-03-07T09:52:08.000Z</time>
      </trkpt>
      <trkpt lat="48.68815" lon="1.71327">
        <ele>176.60000610352</ele>
        <time>2014-03-07T09:52:15.000Z</time>
      </trkpt>
      <trkpt lat="48.68808" lon="1.71316">
        <ele>176.80000305176</ele>
        <time>2014-03-07T09:52:22.000Z</time>
      </trkpt>
      <trkpt lat="48.68802" lon="1.71307">
        <ele>177.19999694824</ele>
        <time>2014-03-07T09:52:29.000Z</time>
      </trkpt>
      <trkpt lat="48.68796" lon="1.71299">
        <ele>177.39999389648</ele>
        <time>2014-03-07T09:52:35.000Z</time>
      </trkpt>
      <trkpt lat="48.68789" lon="1.7129">
        <ele>177.60000610352</ele>
        <time>2014-03-07T09:52:42.000Z</time>
      </trkpt>
      <trkpt lat="48.68782" lon="1.71281">
        <ele>177.80000305176</ele>
        <time>2014-03-07T09:52:48.000Z</time>
      </trkpt>
      <trkpt lat="48.68779" lon="1.71276">
        <ele>177.80000305176</ele>
        <time>2014-03-07T09:52:52.000Z</time>
      </trkpt>
      <trkpt lat="48.68775" lon="1.71269">
        <ele>177.80000305176</ele>
        <time>2014-03-07T09:52:58.000Z</time>
      </trkpt>
      <trkpt lat="48.68768" lon="1.71262">
        <ele>178</ele>
        <time>2014-03-07T09:53:05.000Z</time>
      </trkpt>
      <trkpt lat="48.68765" lon="1.71258">
        <ele>178</ele>
        <time>2014-03-07T09:53:08.000Z</time>
      </trkpt>
      <trkpt lat="48.68758" lon="1.71249">
        <ele>178</ele>
        <time>2014-03-07T09:53:14.000Z</time>
      </trkpt>
      <trkpt lat="48.68752" lon="1.71242">
        <ele>178</ele>
        <time>2014-03-07T09:53:20.000Z</time>
      </trkpt>
      <trkpt lat="48.6875" lon="1.7124">
        <ele>178.19999694824</ele>
        <time>2014-03-07T09:53:22.000Z</time>
      </trkpt>
      <trkpt lat="48.68743" lon="1.71229">
        <ele>178.19999694824</ele>
        <time>2014-03-07T09:53:30.000Z</time>
      </trkpt>
      <trkpt lat="48.68738" lon="1.71225">
        <ele>178.19999694824</ele>
        <time>2014-03-07T09:53:35.000Z</time>
      </trkpt>
      <trkpt lat="48.68734" lon="1.71219">
        <ele>178.19999694824</ele>
        <time>2014-03-07T09:53:39.000Z</time>
      </trkpt>
      <trkpt lat="48.68727" lon="1.71209">
        <ele>178.39999389648</ele>
        <time>2014-03-07T09:53:46.000Z</time>
      </trkpt>
      <trkpt lat="48.68721" lon="1.71203">
        <ele>178.39999389648</ele>
        <time>2014-03-07T09:53:51.000Z</time>
      </trkpt>
      <trkpt lat="48.68718" lon="1.71198">
        <ele>178.39999389648</ele>
        <time>2014-03-07T09:53:54.000Z</time>
      </trkpt>
      <trkpt lat="48.6871" lon="1.71186">
        <ele>178.60000610352</ele>
        <time>2014-03-07T09:54:03.000Z</time>
      </trkpt>
      <trkpt lat="48.68706" lon="1.7118">
        <ele>178.80000305176</ele>
        <time>2014-03-07T09:54:08.000Z</time>
      </trkpt>
      <trkpt lat="48.68703" lon="1.71178">
        <ele>178.80000305176</ele>
        <time>2014-03-07T09:54:10.000Z</time>
      </trkpt>
      <trkpt lat="48.68695" lon="1.7117">
        <ele>179</ele>
        <time>2014-03-07T09:54:17.000Z</time>
      </trkpt>
      <trkpt lat="48.68694" lon="1.71167">
        <ele>179</ele>
        <time>2014-03-07T09:54:19.000Z</time>
      </trkpt>
      <trkpt lat="48.68687" lon="1.71159">
        <ele>179</ele>
        <time>2014-03-07T09:54:25.000Z</time>
      </trkpt>
      <trkpt lat="48.6868" lon="1.71151">
        <ele>179</ele>
        <time>2014-03-07T09:54:32.000Z</time>
      </trkpt>
      <trkpt lat="48.68679" lon="1.71149">
        <ele>179</ele>
        <time>2014-03-07T09:54:33.000Z</time>
      </trkpt>
      <trkpt lat="48.68673" lon="1.71141">
        <ele>179</ele>
        <time>2014-03-07T09:54:39.000Z</time>
      </trkpt>
      <trkpt lat="48.68671" lon="1.7114">
        <ele>179</ele>
        <time>2014-03-07T09:54:40.000Z</time>
      </trkpt>
      <trkpt lat="48.68665" lon="1.71133">
        <ele>179</ele>
        <time>2014-03-07T09:54:46.000Z</time>
      </trkpt>
      <trkpt lat="48.68657" lon="1.71126">
        <ele>179</ele>
        <time>2014-03-07T09:54:53.000Z</time>
      </trkpt>
      <trkpt lat="48.68648" lon="1.71118">
        <ele>178.80000305176</ele>
        <time>2014-03-07T09:55:00.000Z</time>
      </trkpt>
      <trkpt lat="48.68643" lon="1.71113">
        <ele>178.80000305176</ele>
        <time>2014-03-07T09:55:05.000Z</time>
      </trkpt>
      <trkpt lat="48.6864" lon="1.71106">
        <ele>178.80000305176</ele>
        <time>2014-03-07T09:55:11.000Z</time>
      </trkpt>
      <trkpt lat="48.68637" lon="1.71101">
        <ele>178.80000305176</ele>
        <time>2014-03-07T09:55:15.000Z</time>
      </trkpt>
      <trkpt lat="48.6863" lon="1.71093">
        <ele>178.60000610352</ele>
        <time>2014-03-07T09:55:21.000Z</time>
      </trkpt>
      <trkpt lat="48.68629" lon="1.71092">
        <ele>178.60000610352</ele>
        <time>2014-03-07T09:55:22.000Z</time>
      </trkpt>
      <trkpt lat="48.6862" lon="1.71085">
        <ele>178.39999389648</ele>
        <time>2014-03-07T09:55:28.000Z</time>
      </trkpt>
      <trkpt lat="48.68618" lon="1.71084">
        <ele>178.39999389648</ele>
        <time>2014-03-07T09:55:30.000Z</time>
      </trkpt>
      <trkpt lat="48.6861" lon="1.71078">
        <ele>178.19999694824</ele>
        <time>2014-03-07T09:55:36.000Z</time>
      </trkpt>
      <trkpt lat="48.68603" lon="1.71076">
        <ele>178.19999694824</ele>
        <time>2014-03-07T09:55:41.000Z</time>
      </trkpt>
      <trkpt lat="48.68596" lon="1.71071">
        <ele>178</ele>
        <time>2014-03-07T09:55:47.000Z</time>
      </trkpt>
      <trkpt lat="48.68587" lon="1.71063">
        <ele>177.80000305176</ele>
        <time>2014-03-07T09:55:54.000Z</time>
      </trkpt>
      <trkpt lat="48.6858" lon="1.71056">
        <ele>177.60000610352</ele>
        <time>2014-03-07T09:56:00.000Z</time>
      </trkpt>
      <trkpt lat="48.68575" lon="1.7105">
        <ele>177.60000610352</ele>
        <time>2014-03-07T09:56:05.000Z</time>
      </trkpt>
      <trkpt lat="48.68565" lon="1.71042">
        <ele>177.60000610352</ele>
        <time>2014-03-07T09:56:12.000Z</time>
      </trkpt>
      <trkpt lat="48.68556" lon="1.71035">
        <ele>177.39999389648</ele>
        <time>2014-03-07T09:56:19.000Z</time>
      </trkpt>
      <trkpt lat="48.68552" lon="1.71032">
        <ele>177.39999389648</ele>
        <time>2014-03-07T09:56:22.000Z</time>
      </trkpt>
      <trkpt lat="48.68547" lon="1.71026">
        <ele>177.39999389648</ele>
        <time>2014-03-07T09:56:27.000Z</time>
      </trkpt>
      <trkpt lat="48.6854" lon="1.71022">
        <ele>177.19999694824</ele>
        <time>2014-03-07T09:56:33.000Z</time>
      </trkpt>
      <trkpt lat="48.68532" lon="1.71016">
        <ele>177.19999694824</ele>
        <time>2014-03-07T09:56:40.000Z</time>
      </trkpt>
      <trkpt lat="48.6853" lon="1.71015">
        <ele>177.19999694824</ele>
        <time>2014-03-07T09:56:42.000Z</time>
      </trkpt>
      <trkpt lat="48.68521" lon="1.71008">
        <ele>177</ele>
        <time>2014-03-07T09:56:49.000Z</time>
      </trkpt>
      <trkpt lat="48.68514" lon="1.71003">
        <ele>177</ele>
        <time>2014-03-07T09:56:54.000Z</time>
      </trkpt>
      <trkpt lat="48.68506" lon="1.70997">
        <ele>177</ele>
        <time>2014-03-07T09:57:01.000Z</time>
      </trkpt>
      <trkpt lat="48.68502" lon="1.70992">
        <ele>177</ele>
        <time>2014-03-07T09:57:05.000Z</time>
      </trkpt>
      <trkpt lat="48.68492" lon="1.70985">
        <ele>176.80000305176</ele>
        <time>2014-03-07T09:57:13.000Z</time>
      </trkpt>
      <trkpt lat="48.68482" lon="1.70979">
        <ele>176.60000610352</ele>
        <time>2014-03-07T09:57:21.000Z</time>
      </trkpt>
      <trkpt lat="48.68472" lon="1.70973">
        <ele>176.39999389648</ele>
        <time>2014-03-07T09:57:28.000Z</time>
      </trkpt>
      <trkpt lat="48.68465" lon="1.70969">
        <ele>176.19999694824</ele>
        <time>2014-03-07T09:57:33.000Z</time>
      </trkpt>
      <trkpt lat="48.68459" lon="1.70965">
        <ele>176.19999694824</ele>
        <time>2014-03-07T09:57:38.000Z</time>
      </trkpt>
      <trkpt lat="48.68457" lon="1.70963">
        <ele>176</ele>
        <time>2014-03-07T09:57:40.000Z</time>
      </trkpt>
      <trkpt lat="48.68449" lon="1.70956">
        <ele>175.80000305176</ele>
        <time>2014-03-07T09:57:48.000Z</time>
      </trkpt>
      <trkpt lat="48.6844" lon="1.70949">
        <ele>175.39999389648</ele>
        <time>2014-03-07T09:57:56.000Z</time>
      </trkpt>
      <trkpt lat="48.68431" lon="1.70943">
        <ele>175</ele>
        <time>2014-03-07T09:58:02.000Z</time>
      </trkpt>
      <trkpt lat="48.68421" lon="1.70932">
        <ele>174.60000610352</ele>
        <time>2014-03-07T09:58:11.000Z</time>
      </trkpt>
      <trkpt lat="48.68414" lon="1.70928">
        <ele>174.39999389648</ele>
        <time>2014-03-07T09:58:16.000Z</time>
      </trkpt>
      <trkpt lat="48.68405" lon="1.7092">
        <ele>174.60000610352</ele>
        <time>2014-03-07T09:58:24.000Z</time>
      </trkpt>
      <trkpt lat="48.68399" lon="1.70913">
        <ele>174.80000305176</ele>
        <time>2014-03-07T09:58:30.000Z</time>
      </trkpt>
      <trkpt lat="48.684" lon="1.70906">
        <ele>174.80000305176</ele>
        <time>2014-03-07T09:58:33.000Z</time>
      </trkpt>
      <trkpt lat="48.68404" lon="1.70896">
        <ele>174.39999389648</ele>
        <time>2014-03-07T09:58:37.000Z</time>
      </trkpt>
      <trkpt lat="48.68417" lon="1.70878">
        <ele>174</ele>
        <time>2014-03-07T09:58:46.000Z</time>
      </trkpt>
      <trkpt lat="48.68427" lon="1.70867">
        <ele>174.19999694824</ele>
        <time>2014-03-07T09:58:52.000Z</time>
      </trkpt>
      <trkpt lat="48.68434" lon="1.70856">
        <ele>174.39999389648</ele>
        <time>2014-03-07T09:58:58.000Z</time>
      </trkpt>
      <trkpt lat="48.68443" lon="1.70847">
        <ele>174.60000610352</ele>
        <time>2014-03-07T09:59:04.000Z</time>
      </trkpt>
      <trkpt lat="48.68452" lon="1.70836">
        <ele>174.80000305176</ele>
        <time>2014-03-07T09:59:10.000Z</time>
      </trkpt>
      <trkpt lat="48.68461" lon="1.7082">
        <ele>174.60000610352</ele>
        <time>2014-03-07T09:59:18.000Z</time>
      </trkpt>
      <trkpt lat="48.68469" lon="1.7081">
        <ele>174.19999694824</ele>
        <time>2014-03-07T09:59:25.000Z</time>
      </trkpt>
      <trkpt lat="48.68478" lon="1.708">
        <ele>174</ele>
        <time>2014-03-07T09:59:33.000Z</time>
      </trkpt>
      <trkpt lat="48.68487" lon="1.70785">
        <ele>173.39999389648</ele>
        <time>2014-03-07T09:59:42.000Z</time>
      </trkpt>
      <trkpt lat="48.68494" lon="1.70778">
        <ele>173.19999694824</ele>
        <time>2014-03-07T09:59:48.000Z</time>
      </trkpt>
      <trkpt lat="48.68503" lon="1.70766">
        <ele>173</ele>
        <time>2014-03-07T09:59:56.000Z</time>
      </trkpt>
      <trkpt lat="48.68513" lon="1.70755">
        <ele>173.19999694824</ele>
        <time>2014-03-07T10:00:04.000Z</time>
      </trkpt>
      <trkpt lat="48.68517" lon="1.70748">
        <ele>173.19999694824</ele>
        <time>2014-03-07T10:00:08.000Z</time>
      </trkpt>
      <trkpt lat="48.68524" lon="1.70735">
        <ele>173.39999389648</ele>
        <time>2014-03-07T10:00:15.000Z</time>
      </trkpt>
      <trkpt lat="48.68534" lon="1.70725">
        <ele>173.80000305176</ele>
        <time>2014-03-07T10:00:23.000Z</time>
      </trkpt>
      <trkpt lat="48.68543" lon="1.70716">
        <ele>174.19999694824</ele>
        <time>2014-03-07T10:00:30.000Z</time>
      </trkpt>
      <trkpt lat="48.68551" lon="1.70707">
        <ele>174.60000610352</ele>
        <time>2014-03-07T10:00:36.000Z</time>
      </trkpt>
      <trkpt lat="48.68558" lon="1.70697">
        <ele>174.60000610352</ele>
        <time>2014-03-07T10:00:42.000Z</time>
      </trkpt>
      <trkpt lat="48.68568" lon="1.70686">
        <ele>174.80000305176</ele>
        <time>2014-03-07T10:00:50.000Z</time>
      </trkpt>
      <trkpt lat="48.68577" lon="1.70673">
        <ele>175</ele>
        <time>2014-03-07T10:00:57.000Z</time>
      </trkpt>
      <trkpt lat="48.68584" lon="1.70664">
        <ele>175</ele>
        <time>2014-03-07T10:01:03.000Z</time>
      </trkpt>
      <trkpt lat="48.68591" lon="1.70654">
        <ele>175.19999694824</ele>
        <time>2014-03-07T10:01:09.000Z</time>
      </trkpt>
      <trkpt lat="48.686" lon="1.70642">
        <ele>175.39999389648</ele>
        <time>2014-03-07T10:01:17.000Z</time>
      </trkpt>
      <trkpt lat="48.68608" lon="1.70628">
        <ele>175.39999389648</ele>
        <time>2014-03-07T10:01:25.000Z</time>
      </trkpt>
      <trkpt lat="48.68614" lon="1.70615">
        <ele>175.60000610352</ele>
        <time>2014-03-07T10:01:32.000Z</time>
      </trkpt>
      <trkpt lat="48.68622" lon="1.70601">
        <ele>175.60000610352</ele>
        <time>2014-03-07T10:01:40.000Z</time>
      </trkpt>
      <trkpt lat="48.6863" lon="1.7058">
        <ele>175.60000610352</ele>
        <time>2014-03-07T10:01:51.000Z</time>
      </trkpt>
      <trkpt lat="48.68635" lon="1.70568">
        <ele>175.60000610352</ele>
        <time>2014-03-07T10:01:58.000Z</time>
      </trkpt>
      <trkpt lat="48.68639" lon="1.70555">
        <ele>175.39999389648</ele>
        <time>2014-03-07T10:02:05.000Z</time>
      </trkpt>
      <trkpt lat="48.68642" lon="1.70541">
        <ele>175.39999389648</ele>
        <time>2014-03-07T10:02:11.000Z</time>
      </trkpt>
      <trkpt lat="48.68646" lon="1.70529">
        <ele>175.19999694824</ele>
        <time>2014-03-07T10:02:17.000Z</time>
      </trkpt>
      <trkpt lat="48.68653" lon="1.70516">
        <ele>175.19999694824</ele>
        <time>2014-03-07T10:02:24.000Z</time>
      </trkpt>
      <trkpt lat="48.68657" lon="1.70504">
        <ele>175</ele>
        <time>2014-03-07T10:02:31.000Z</time>
      </trkpt>
      <trkpt lat="48.68661" lon="1.70489">
        <ele>174.80000305176</ele>
        <time>2014-03-07T10:02:36.000Z</time>
      </trkpt>
      <trkpt lat="48.68661" lon="1.70486">
        <ele>174.80000305176</ele>
        <time>2014-03-07T10:02:37.000Z</time>
      </trkpt>
      <trkpt lat="48.68665" lon="1.70463">
        <ele>174.60000610352</ele>
        <time>2014-03-07T10:02:45.000Z</time>
      </trkpt>
      <trkpt lat="48.68671" lon="1.70454">
        <ele>174.39999389648</ele>
        <time>2014-03-07T10:02:51.000Z</time>
      </trkpt>
      <trkpt lat="48.68676" lon="1.70445">
        <ele>174.39999389648</ele>
        <time>2014-03-07T10:02:57.000Z</time>
      </trkpt>
      <trkpt lat="48.68682" lon="1.70434">
        <ele>174.39999389648</ele>
        <time>2014-03-07T10:03:03.000Z</time>
      </trkpt>
      <trkpt lat="48.68688" lon="1.70422">
        <ele>174.60000610352</ele>
        <time>2014-03-07T10:03:10.000Z</time>
      </trkpt>
      <trkpt lat="48.68691" lon="1.7042">
        <ele>174.60000610352</ele>
        <time>2014-03-07T10:03:17.000Z</time>
      </trkpt>
      <trkpt lat="48.68699" lon="1.704">
        <ele>174.60000610352</ele>
        <time>2014-03-07T10:03:49.000Z</time>
      </trkpt>
      <trkpt lat="48.68697" lon="1.70395">
        <ele>174.60000610352</ele>
        <time>2014-03-07T10:03:51.000Z</time>
      </trkpt>
      <trkpt lat="48.68693" lon="1.70394">
        <ele>174.60000610352</ele>
        <time>2014-03-07T10:03:55.000Z</time>
      </trkpt>
      <trkpt lat="48.68686" lon="1.70397">
        <ele>174.39999389648</ele>
        <time>2014-03-07T10:04:00.000Z</time>
      </trkpt>
      <trkpt lat="48.68673" lon="1.70406">
        <ele>174.19999694824</ele>
        <time>2014-03-07T10:04:08.000Z</time>
      </trkpt>
      <trkpt lat="48.68666" lon="1.70412">
        <ele>174</ele>
        <time>2014-03-07T10:04:14.000Z</time>
      </trkpt>
      <trkpt lat="48.68664" lon="1.70414">
        <ele>174</ele>
        <time>2014-03-07T10:04:15.000Z</time>
      </trkpt>
      <trkpt lat="48.68653" lon="1.7042">
        <ele>173.80000305176</ele>
        <time>2014-03-07T10:04:23.000Z</time>
      </trkpt>
      <trkpt lat="48.68643" lon="1.70426">
        <ele>173.80000305176</ele>
        <time>2014-03-07T10:04:29.000Z</time>
      </trkpt>
      <trkpt lat="48.68633" lon="1.70429">
        <ele>173.80000305176</ele>
        <time>2014-03-07T10:04:36.000Z</time>
      </trkpt>
      <trkpt lat="48.68625" lon="1.70433">
        <ele>173.80000305176</ele>
        <time>2014-03-07T10:04:43.000Z</time>
      </trkpt>
      <trkpt lat="48.68619" lon="1.70436">
        <ele>173.80000305176</ele>
        <time>2014-03-07T10:04:49.000Z</time>
      </trkpt>
      <trkpt lat="48.68611" lon="1.70438">
        <ele>173.80000305176</ele>
        <time>2014-03-07T10:04:55.000Z</time>
      </trkpt>
      <trkpt lat="48.68603" lon="1.70442">
        <ele>173.80000305176</ele>
        <time>2014-03-07T10:05:00.000Z</time>
      </trkpt>
      <trkpt lat="48.68594" lon="1.70446">
        <ele>173.80000305176</ele>
        <time>2014-03-07T10:05:07.000Z</time>
      </trkpt>
      <trkpt lat="48.68582" lon="1.70453">
        <ele>173.80000305176</ele>
        <time>2014-03-07T10:05:15.000Z</time>
      </trkpt>
      <trkpt lat="48.68577" lon="1.70456">
        <ele>173.39999389648</ele>
        <time>2014-03-07T10:05:19.000Z</time>
      </trkpt>
      <trkpt lat="48.68565" lon="1.7046">
        <ele>172.80000305176</ele>
        <time>2014-03-07T10:05:28.000Z</time>
      </trkpt>
      <trkpt lat="48.68562" lon="1.70461">
        <ele>172.39999389648</ele>
        <time>2014-03-07T10:05:31.000Z</time>
      </trkpt>
      <trkpt lat="48.68556" lon="1.70462">
        <ele>172.19999694824</ele>
        <time>2014-03-07T10:05:35.000Z</time>
      </trkpt>
      <trkpt lat="48.68552" lon="1.70464">
        <ele>171.80000305176</ele>
        <time>2014-03-07T10:05:38.000Z</time>
      </trkpt>
      <trkpt lat="48.68543" lon="1.70471">
        <ele>171.19999694824</ele>
        <time>2014-03-07T10:05:46.000Z</time>
      </trkpt>
      <trkpt lat="48.68543" lon="1.7047">
        <ele>171.19999694824</ele>
        <time>2014-03-07T10:05:51.000Z</time>
      </trkpt>
      <trkpt lat="48.68543" lon="1.7047">
        <ele>171.19999694824</ele>
        <time>2014-03-07T10:05:52.000Z</time>
      </trkpt>
      <trkpt lat="48.68537" lon="1.70475">
        <ele>170.80000305176</ele>
        <time>2014-03-07T10:06:00.000Z</time>
      </trkpt>
      <trkpt lat="48.68526" lon="1.70482">
        <ele>170</ele>
        <time>2014-03-07T10:06:06.000Z</time>
      </trkpt>
      <trkpt lat="48.68518" lon="1.70486">
        <ele>169.39999389648</ele>
        <time>2014-03-07T10:06:13.000Z</time>
      </trkpt>
      <trkpt lat="48.68512" lon="1.70489">
        <ele>169</ele>
        <time>2014-03-07T10:06:19.000Z</time>
      </trkpt>
      <trkpt lat="48.68505" lon="1.70493">
        <ele>168.39999389648</ele>
        <time>2014-03-07T10:06:24.000Z</time>
      </trkpt>
      <trkpt lat="48.68496" lon="1.70494">
        <ele>168</ele>
        <time>2014-03-07T10:06:30.000Z</time>
      </trkpt>
      <trkpt lat="48.6849" lon="1.70498">
        <ele>167.80000305176</ele>
        <time>2014-03-07T10:06:35.000Z</time>
      </trkpt>
      <trkpt lat="48.68485" lon="1.705">
        <ele>167.60000610352</ele>
        <time>2014-03-07T10:06:41.000Z</time>
      </trkpt>
      <trkpt lat="48.68485" lon="1.705">
        <ele>167.60000610352</ele>
        <time>2014-03-07T10:06:42.000Z</time>
      </trkpt>
      <trkpt lat="48.68474" lon="1.70508">
        <ele>167.60000610352</ele>
        <time>2014-03-07T10:07:09.000Z</time>
      </trkpt>
      <trkpt lat="48.68466" lon="1.7051">
        <ele>167.39999389648</ele>
        <time>2014-03-07T10:07:14.000Z</time>
      </trkpt>
      <trkpt lat="48.68454" lon="1.70517">
        <ele>167.19999694824</ele>
        <time>2014-03-07T10:07:20.000Z</time>
      </trkpt>
      <trkpt lat="48.6845" lon="1.70519">
        <ele>167.19999694824</ele>
        <time>2014-03-07T10:07:22.000Z</time>
      </trkpt>
      <trkpt lat="48.68438" lon="1.70523">
        <ele>166.80000305176</ele>
        <time>2014-03-07T10:07:28.000Z</time>
      </trkpt>
      <trkpt lat="48.68436" lon="1.70524">
        <ele>166.80000305176</ele>
        <time>2014-03-07T10:07:29.000Z</time>
      </trkpt>
      <trkpt lat="48.6842" lon="1.70531">
        <ele>166.39999389648</ele>
        <time>2014-03-07T10:07:35.000Z</time>
      </trkpt>
      <trkpt lat="48.68409" lon="1.70536">
        <ele>166.19999694824</ele>
        <time>2014-03-07T10:07:39.000Z</time>
      </trkpt>
      <trkpt lat="48.68392" lon="1.70546">
        <ele>166</ele>
        <time>2014-03-07T10:07:44.000Z</time>
      </trkpt>
      <trkpt lat="48.68373" lon="1.70558">
        <ele>165.39999389648</ele>
        <time>2014-03-07T10:07:49.000Z</time>
      </trkpt>
      <trkpt lat="48.68361" lon="1.70581">
        <ele>165</ele>
        <time>2014-03-07T10:07:53.000Z</time>
      </trkpt>
      <trkpt lat="48.68342" lon="1.70623">
        <ele>165.19999694824</ele>
        <time>2014-03-07T10:07:58.000Z</time>
      </trkpt>
      <trkpt lat="48.68334" lon="1.7064">
        <ele>165.39999389648</ele>
        <time>2014-03-07T10:08:00.000Z</time>
      </trkpt>
      <trkpt lat="48.6831" lon="1.70683">
        <ele>169</ele>
        <time>2014-03-07T10:08:05.000Z</time>
      </trkpt>
      <trkpt lat="48.68305" lon="1.70691">
        <ele>169.80000305176</ele>
        <time>2014-03-07T10:08:06.000Z</time>
      </trkpt>
      <trkpt lat="48.68272" lon="1.70733">
        <ele>173.39999389648</ele>
        <time>2014-03-07T10:08:12.000Z</time>
      </trkpt>
      <trkpt lat="48.68269" lon="1.70762">
        <ele>174.39999389648</ele>
        <time>2014-03-07T10:08:16.000Z</time>
      </trkpt>
      <trkpt lat="48.68278" lon="1.70781">
        <ele>174.60000610352</ele>
        <time>2014-03-07T10:08:20.000Z</time>
      </trkpt>
      <trkpt lat="48.68289" lon="1.70788">
        <ele>174.39999389648</ele>
        <time>2014-03-07T10:08:22.000Z</time>
      </trkpt>
      <trkpt lat="48.68298" lon="1.70794">
        <ele>174.39999389648</ele>
        <time>2014-03-07T10:08:24.000Z</time>
      </trkpt>
      <trkpt lat="48.68327" lon="1.70824">
        <ele>174.60000610352</ele>
        <time>2014-03-07T10:08:31.000Z</time>
      </trkpt>
      <trkpt lat="48.68338" lon="1.70837">
        <ele>175</ele>
        <time>2014-03-07T10:08:34.000Z</time>
      </trkpt>
      <trkpt lat="48.68358" lon="1.70861">
        <ele>175.39999389648</ele>
        <time>2014-03-07T10:08:40.000Z</time>
      </trkpt>
      <trkpt lat="48.68363" lon="1.70868">
        <ele>175.39999389648</ele>
        <time>2014-03-07T10:08:42.000Z</time>
      </trkpt>
      <trkpt lat="48.68383" lon="1.70894">
        <ele>175.19999694824</ele>
        <time>2014-03-07T10:08:49.000Z</time>
      </trkpt>
      <trkpt lat="48.68393" lon="1.70916">
        <ele>175.19999694824</ele>
        <time>2014-03-07T10:08:54.000Z</time>
      </trkpt>
      <trkpt lat="48.68398" lon="1.70945">
        <ele>175.19999694824</ele>
        <time>2014-03-07T10:08:59.000Z</time>
      </trkpt>
      <trkpt lat="48.68401" lon="1.70974">
        <ele>175.60000610352</ele>
        <time>2014-03-07T10:09:03.000Z</time>
      </trkpt>
      <trkpt lat="48.684" lon="1.7099">
        <ele>175.80000305176</ele>
        <time>2014-03-07T10:09:07.000Z</time>
      </trkpt>
      <trkpt lat="48.68402" lon="1.70997">
        <ele>176</ele>
        <time>2014-03-07T10:09:12.000Z</time>
      </trkpt>
      <trkpt lat="48.68402" lon="1.71005">
        <ele>176</ele>
        <time>2014-03-07T10:09:15.000Z</time>
      </trkpt>
      <trkpt lat="48.68402" lon="1.71012">
        <ele>176</ele>
        <time>2014-03-07T10:09:21.000Z</time>
      </trkpt>
      <trkpt lat="48.68404" lon="1.71021">
        <ele>176</ele>
        <time>2014-03-07T10:09:28.000Z</time>
      </trkpt>
      <trkpt lat="48.68404" lon="1.71036">
        <ele>176</ele>
        <time>2014-03-07T10:09:33.000Z</time>
      </trkpt>
      <trkpt lat="48.68407" lon="1.71073">
        <ele>176.19999694824</ele>
        <time>2014-03-07T10:09:39.000Z</time>
      </trkpt>
      <trkpt lat="48.68409" lon="1.71098">
        <ele>176</ele>
        <time>2014-03-07T10:09:43.000Z</time>
      </trkpt>
      <trkpt lat="48.68409" lon="1.71119">
        <ele>176</ele>
        <time>2014-03-07T10:09:46.000Z</time>
      </trkpt>
      <trkpt lat="48.6841" lon="1.71148">
        <ele>176</ele>
        <time>2014-03-07T10:09:50.000Z</time>
      </trkpt>
      <trkpt lat="48.68412" lon="1.71177">
        <ele>176</ele>
        <time>2014-03-07T10:09:54.000Z</time>
      </trkpt>
      <trkpt lat="48.68413" lon="1.7121">
        <ele>176</ele>
        <time>2014-03-07T10:09:59.000Z</time>
      </trkpt>
      <trkpt lat="48.68414" lon="1.71245">
        <ele>176</ele>
        <time>2014-03-07T10:10:04.000Z</time>
      </trkpt>
      <trkpt lat="48.68415" lon="1.7128">
        <ele>176</ele>
        <time>2014-03-07T10:10:09.000Z</time>
      </trkpt>
      <trkpt lat="48.68417" lon="1.71319">
        <ele>176</ele>
        <time>2014-03-07T10:10:15.000Z</time>
      </trkpt>
      <trkpt lat="48.68418" lon="1.71328">
        <ele>176</ele>
        <time>2014-03-07T10:10:17.000Z</time>
      </trkpt>
      <trkpt lat="48.68422" lon="1.71357">
        <ele>176.19999694824</ele>
        <time>2014-03-07T10:10:24.000Z</time>
      </trkpt>
      <trkpt lat="48.68425" lon="1.71376">
        <ele>176.39999389648</ele>
        <time>2014-03-07T10:10:30.000Z</time>
      </trkpt>
      <trkpt lat="48.68425" lon="1.71392">
        <ele>176.60000610352</ele>
        <time>2014-03-07T10:10:36.000Z</time>
      </trkpt>
      <trkpt lat="48.68426" lon="1.71407">
        <ele>176.80000305176</ele>
        <time>2014-03-07T10:10:42.000Z</time>
      </trkpt>
      <trkpt lat="48.68428" lon="1.71423">
        <ele>177</ele>
        <time>2014-03-07T10:10:48.000Z</time>
      </trkpt>
      <trkpt lat="48.6843" lon="1.71442">
        <ele>177</ele>
        <time>2014-03-07T10:10:55.000Z</time>
      </trkpt>
      <trkpt lat="48.68433" lon="1.7146">
        <ele>177.19999694824</ele>
        <time>2014-03-07T10:11:01.000Z</time>
      </trkpt>
      <trkpt lat="48.68434" lon="1.71477">
        <ele>177.19999694824</ele>
        <time>2014-03-07T10:11:08.000Z</time>
      </trkpt>
      <trkpt lat="48.68434" lon="1.71482">
        <ele>177.19999694824</ele>
        <time>2014-03-07T10:11:10.000Z</time>
      </trkpt>
      <trkpt lat="48.68434" lon="1.71485">
        <ele>177.19999694824</ele>
        <time>2014-03-07T10:11:14.000Z</time>
      </trkpt>
      <trkpt lat="48.68436" lon="1.71492">
        <ele>177.19999694824</ele>
        <time>2014-03-07T10:11:19.000Z</time>
      </trkpt>
      <trkpt lat="48.68435" lon="1.71504">
        <ele>177.39999389648</ele>
        <time>2014-03-07T10:11:23.000Z</time>
      </trkpt>
      <trkpt lat="48.68436" lon="1.71523">
        <ele>177.19999694824</ele>
        <time>2014-03-07T10:11:30.000Z</time>
      </trkpt>
      <trkpt lat="48.68437" lon="1.7153">
        <ele>177.19999694824</ele>
        <time>2014-03-07T10:11:33.000Z</time>
      </trkpt>
      <trkpt lat="48.6844" lon="1.71539">
        <ele>177</ele>
        <time>2014-03-07T10:11:37.000Z</time>
      </trkpt>
      <trkpt lat="48.6844" lon="1.71553">
        <ele>177</ele>
        <time>2014-03-07T10:11:42.000Z</time>
      </trkpt>
      <trkpt lat="48.6844" lon="1.71576">
        <ele>177</ele>
        <time>2014-03-07T10:11:51.000Z</time>
      </trkpt>
      <trkpt lat="48.68442" lon="1.71585">
        <ele>177</ele>
        <time>2014-03-07T10:11:55.000Z</time>
      </trkpt>
      <trkpt lat="48.68442" lon="1.7159">
        <ele>177</ele>
        <time>2014-03-07T10:11:57.000Z</time>
      </trkpt>
      <trkpt lat="48.68442" lon="1.71607">
        <ele>177</ele>
        <time>2014-03-07T10:12:04.000Z</time>
      </trkpt>
      <trkpt lat="48.68444" lon="1.71623">
        <ele>177.19999694824</ele>
        <time>2014-03-07T10:12:10.000Z</time>
      </trkpt>
      <trkpt lat="48.68444" lon="1.7164">
        <ele>177.19999694824</ele>
        <time>2014-03-07T10:12:17.000Z</time>
      </trkpt>
      <trkpt lat="48.68444" lon="1.71651">
        <ele>177.19999694824</ele>
        <time>2014-03-07T10:12:22.000Z</time>
      </trkpt>
      <trkpt lat="48.68448" lon="1.71669">
        <ele>177.39999389648</ele>
        <time>2014-03-07T10:12:29.000Z</time>
      </trkpt>
      <trkpt lat="48.68451" lon="1.71686">
        <ele>177.39999389648</ele>
        <time>2014-03-07T10:12:36.000Z</time>
      </trkpt>
      <trkpt lat="48.68452" lon="1.71691">
        <ele>177.60000610352</ele>
        <time>2014-03-07T10:12:38.000Z</time>
      </trkpt>
      <trkpt lat="48.68451" lon="1.71707">
        <ele>177.60000610352</ele>
        <time>2014-03-07T10:12:44.000Z</time>
      </trkpt>
      <trkpt lat="48.68453" lon="1.71713">
        <ele>177.60000610352</ele>
        <time>2014-03-07T10:12:46.000Z</time>
      </trkpt>
      <trkpt lat="48.68453" lon="1.71722">
        <ele>177.60000610352</ele>
        <time>2014-03-07T10:12:50.000Z</time>
      </trkpt>
      <trkpt lat="48.68454" lon="1.7174">
        <ele>177.60000610352</ele>
        <time>2014-03-07T10:12:57.000Z</time>
      </trkpt>
      <trkpt lat="48.68453" lon="1.71748">
        <ele>177.60000610352</ele>
        <time>2014-03-07T10:13:00.000Z</time>
      </trkpt>
      <trkpt lat="48.68459" lon="1.71761">
        <ele>177.60000610352</ele>
        <time>2014-03-07T10:13:06.000Z</time>
      </trkpt>
      <trkpt lat="48.68459" lon="1.71763">
        <ele>177.80000305176</ele>
        <time>2014-03-07T10:13:07.000Z</time>
      </trkpt>
      <trkpt lat="48.68459" lon="1.71783">
        <ele>178</ele>
        <time>2014-03-07T10:13:15.000Z</time>
      </trkpt>
      <trkpt lat="48.6846" lon="1.71797">
        <ele>178.19999694824</ele>
        <time>2014-03-07T10:13:21.000Z</time>
      </trkpt>
      <trkpt lat="48.68458" lon="1.71809">
        <ele>178.60000610352</ele>
        <time>2014-03-07T10:13:26.000Z</time>
      </trkpt>
      <trkpt lat="48.68457" lon="1.71819">
        <ele>178.80000305176</ele>
        <time>2014-03-07T10:13:30.000Z</time>
      </trkpt>
      <trkpt lat="48.68456" lon="1.71831">
        <ele>179</ele>
        <time>2014-03-07T10:13:35.000Z</time>
      </trkpt>
      <trkpt lat="48.68456" lon="1.71837">
        <ele>179.19999694824</ele>
        <time>2014-03-07T10:13:37.000Z</time>
      </trkpt>
      <trkpt lat="48.68457" lon="1.71859">
        <ele>179</ele>
        <time>2014-03-07T10:13:45.000Z</time>
      </trkpt>
      <trkpt lat="48.68457" lon="1.71871">
        <ele>179</ele>
        <time>2014-03-07T10:13:50.000Z</time>
      </trkpt>
      <trkpt lat="48.68459" lon="1.71888">
        <ele>179</ele>
        <time>2014-03-07T10:13:57.000Z</time>
      </trkpt>
      <trkpt lat="48.6846" lon="1.71906">
        <ele>179</ele>
        <time>2014-03-07T10:14:04.000Z</time>
      </trkpt>
      <trkpt lat="48.68461" lon="1.71922">
        <ele>179</ele>
        <time>2014-03-07T10:14:10.000Z</time>
      </trkpt>
      <trkpt lat="48.68463" lon="1.71947">
        <ele>178.80000305176</ele>
        <time>2014-03-07T10:14:20.000Z</time>
      </trkpt>
      <trkpt lat="48.68463" lon="1.71969">
        <ele>178.60000610352</ele>
        <time>2014-03-07T10:14:29.000Z</time>
      </trkpt>
      <trkpt lat="48.68464" lon="1.71987">
        <ele>178.60000610352</ele>
        <time>2014-03-07T10:14:36.000Z</time>
      </trkpt>
      <trkpt lat="48.68464" lon="1.72003">
        <ele>178.39999389648</ele>
        <time>2014-03-07T10:14:42.000Z</time>
      </trkpt>
      <trkpt lat="48.68464" lon="1.72019">
        <ele>178.19999694824</ele>
        <time>2014-03-07T10:14:49.000Z</time>
      </trkpt>
      <trkpt lat="48.68466" lon="1.72034">
        <ele>178.19999694824</ele>
        <time>2014-03-07T10:14:55.000Z</time>
      </trkpt>
      <trkpt lat="48.68468" lon="1.72046">
        <ele>178</ele>
        <time>2014-03-07T10:15:00.000Z</time>
      </trkpt>
      <trkpt lat="48.68468" lon="1.72065">
        <ele>177.80000305176</ele>
        <time>2014-03-07T10:15:07.000Z</time>
      </trkpt>
      <trkpt lat="48.6847" lon="1.72085">
        <ele>177.80000305176</ele>
        <time>2014-03-07T10:15:15.000Z</time>
      </trkpt>
      <trkpt lat="48.6847" lon="1.721">
        <ele>178</ele>
        <time>2014-03-07T10:15:21.000Z</time>
      </trkpt>
      <trkpt lat="48.68469" lon="1.72111">
        <ele>178.19999694824</ele>
        <time>2014-03-07T10:15:25.000Z</time>
      </trkpt>
      <trkpt lat="48.68471" lon="1.72126">
        <ele>178.39999389648</ele>
        <time>2014-03-07T10:15:31.000Z</time>
      </trkpt>
      <trkpt lat="48.68472" lon="1.72133">
        <ele>178.39999389648</ele>
        <time>2014-03-07T10:15:34.000Z</time>
      </trkpt>
      <trkpt lat="48.68473" lon="1.72143">
        <ele>178.60000610352</ele>
        <time>2014-03-07T10:15:39.000Z</time>
      </trkpt>
      <trkpt lat="48.68476" lon="1.7216">
        <ele>178.80000305176</ele>
        <time>2014-03-07T10:15:46.000Z</time>
      </trkpt>
      <trkpt lat="48.68476" lon="1.7217">
        <ele>179</ele>
        <time>2014-03-07T10:15:50.000Z</time>
      </trkpt>
      <trkpt lat="48.68477" lon="1.72187">
        <ele>178.80000305176</ele>
        <time>2014-03-07T10:15:57.000Z</time>
      </trkpt>
      <trkpt lat="48.68477" lon="1.72202">
        <ele>178.60000610352</ele>
        <time>2014-03-07T10:16:03.000Z</time>
      </trkpt>
      <trkpt lat="48.68477" lon="1.72217">
        <ele>178.60000610352</ele>
        <time>2014-03-07T10:16:09.000Z</time>
      </trkpt>
      <trkpt lat="48.68478" lon="1.72234">
        <ele>178.39999389648</ele>
        <time>2014-03-07T10:16:16.000Z</time>
      </trkpt>
      <trkpt lat="48.68479" lon="1.72251">
        <ele>178.19999694824</ele>
        <time>2014-03-07T10:16:23.000Z</time>
      </trkpt>
      <trkpt lat="48.68479" lon="1.72264">
        <ele>178.19999694824</ele>
        <time>2014-03-07T10:16:29.000Z</time>
      </trkpt>
      <trkpt lat="48.6848" lon="1.72277">
        <ele>178</ele>
        <time>2014-03-07T10:16:35.000Z</time>
      </trkpt>
      <trkpt lat="48.68481" lon="1.72294">
        <ele>177.80000305176</ele>
        <time>2014-03-07T10:16:42.000Z</time>
      </trkpt>
      <trkpt lat="48.6848" lon="1.72304">
        <ele>177.80000305176</ele>
        <time>2014-03-07T10:16:47.000Z</time>
      </trkpt>
      <trkpt lat="48.68482" lon="1.72313">
        <ele>177.60000610352</ele>
        <time>2014-03-07T10:16:51.000Z</time>
      </trkpt>
      <trkpt lat="48.68482" lon="1.72322">
        <ele>177.60000610352</ele>
        <time>2014-03-07T10:16:55.000Z</time>
      </trkpt>
      <trkpt lat="48.68483" lon="1.72343">
        <ele>177.39999389648</ele>
        <time>2014-03-07T10:17:04.000Z</time>
      </trkpt>
      <trkpt lat="48.68486" lon="1.7236">
        <ele>177.60000610352</ele>
        <time>2014-03-07T10:17:11.000Z</time>
      </trkpt>
      <trkpt lat="48.68487" lon="1.72365">
        <ele>177.60000610352</ele>
        <time>2014-03-07T10:17:13.000Z</time>
      </trkpt>
      <trkpt lat="48.68489" lon="1.72381">
        <ele>177.60000610352</ele>
        <time>2014-03-07T10:17:20.000Z</time>
      </trkpt>
      <trkpt lat="48.68488" lon="1.72394">
        <ele>177.80000305176</ele>
        <time>2014-03-07T10:17:26.000Z</time>
      </trkpt>
      <trkpt lat="48.68487" lon="1.72405">
        <ele>177.80000305176</ele>
        <time>2014-03-07T10:17:31.000Z</time>
      </trkpt>
      <trkpt lat="48.68486" lon="1.72423">
        <ele>177.80000305176</ele>
        <time>2014-03-07T10:17:40.000Z</time>
      </trkpt>
      <trkpt lat="48.68487" lon="1.72433">
        <ele>177.60000610352</ele>
        <time>2014-03-07T10:17:45.000Z</time>
      </trkpt>
      <trkpt lat="48.68488" lon="1.72447">
        <ele>177.19999694824</ele>
        <time>2014-03-07T10:17:51.000Z</time>
      </trkpt>
      <trkpt lat="48.68488" lon="1.72454">
        <ele>177</ele>
        <time>2014-03-07T10:17:55.000Z</time>
      </trkpt>
      <trkpt lat="48.68489" lon="1.7246">
        <ele>176.80000305176</ele>
        <time>2014-03-07T10:17:59.000Z</time>
      </trkpt>
      <trkpt lat="48.6849" lon="1.72464">
        <ele>176.60000610352</ele>
        <time>2014-03-07T10:18:01.000Z</time>
      </trkpt>
      <trkpt lat="48.68489" lon="1.72469">
        <ele>176.60000610352</ele>
        <time>2014-03-07T10:18:04.000Z</time>
      </trkpt>
      <trkpt lat="48.6849" lon="1.72472">
        <ele>176.39999389648</ele>
        <time>2014-03-07T10:18:08.000Z</time>
      </trkpt>
      <trkpt lat="48.68489" lon="1.72493">
        <ele>175.80000305176</ele>
        <time>2014-03-07T10:18:49.000Z</time>
      </trkpt>
      <trkpt lat="48.68496" lon="1.72505">
        <ele>175.80000305176</ele>
        <time>2014-03-07T10:18:54.000Z</time>
      </trkpt>
      <trkpt lat="48.685" lon="1.72516">
        <ele>176</ele>
        <time>2014-03-07T10:19:00.000Z</time>
      </trkpt>
      <trkpt lat="48.68509" lon="1.72522">
        <ele>175.80000305176</ele>
        <time>2014-03-07T10:19:05.000Z</time>
      </trkpt>
      <trkpt lat="48.68518" lon="1.72527">
        <ele>175.80000305176</ele>
        <time>2014-03-07T10:19:10.000Z</time>
      </trkpt>
      <trkpt lat="48.6853" lon="1.72532">
        <ele>175.39999389648</ele>
        <time>2014-03-07T10:19:16.000Z</time>
      </trkpt>
      <trkpt lat="48.6854" lon="1.7254">
        <ele>175.19999694824</ele>
        <time>2014-03-07T10:19:22.000Z</time>
      </trkpt>
      <trkpt lat="48.68546" lon="1.72545">
        <ele>175.19999694824</ele>
        <time>2014-03-07T10:19:27.000Z</time>
      </trkpt>
      <trkpt lat="48.68552" lon="1.72552">
        <ele>175</ele>
        <time>2014-03-07T10:19:31.000Z</time>
      </trkpt>
      <trkpt lat="48.68561" lon="1.7256">
        <ele>174.80000305176</ele>
        <time>2014-03-07T10:19:37.000Z</time>
      </trkpt>
      <trkpt lat="48.68563" lon="1.72562">
        <ele>174.60000610352</ele>
        <time>2014-03-07T10:19:39.000Z</time>
      </trkpt>
      <trkpt lat="48.68572" lon="1.7257">
        <ele>174.39999389648</ele>
        <time>2014-03-07T10:19:46.000Z</time>
      </trkpt>
      <trkpt lat="48.68578" lon="1.7258">
        <ele>174.19999694824</ele>
        <time>2014-03-07T10:19:52.000Z</time>
      </trkpt>
      <trkpt lat="48.68587" lon="1.72592">
        <ele>173.80000305176</ele>
        <time>2014-03-07T10:19:58.000Z</time>
      </trkpt>
      <trkpt lat="48.68591" lon="1.72599">
        <ele>173.80000305176</ele>
        <time>2014-03-07T10:20:02.000Z</time>
      </trkpt>
      <trkpt lat="48.68593" lon="1.72601">
        <ele>173.80000305176</ele>
        <time>2014-03-07T10:20:03.000Z</time>
      </trkpt>
      <trkpt lat="48.68601" lon="1.7261">
        <ele>173.60000610352</ele>
        <time>2014-03-07T10:20:10.000Z</time>
      </trkpt>
      <trkpt lat="48.68609" lon="1.72615">
        <ele>173.39999389648</ele>
        <time>2014-03-07T10:20:15.000Z</time>
      </trkpt>
      <trkpt lat="48.68615" lon="1.72622">
        <ele>173.39999389648</ele>
        <time>2014-03-07T10:20:20.000Z</time>
      </trkpt>
      <trkpt lat="48.68625" lon="1.72629">
        <ele>173.19999694824</ele>
        <time>2014-03-07T10:20:27.000Z</time>
      </trkpt>
      <trkpt lat="48.68626" lon="1.72629">
        <ele>173.19999694824</ele>
        <time>2014-03-07T10:20:28.000Z</time>
      </trkpt>
      <trkpt lat="48.68629" lon="1.72629">
        <ele>173.19999694824</ele>
        <time>2014-03-07T10:20:30.000Z</time>
      </trkpt>
      <trkpt lat="48.68633" lon="1.72639">
        <ele>173</ele>
        <time>2014-03-07T10:20:36.000Z</time>
      </trkpt>
      <trkpt lat="48.68643" lon="1.72651">
        <ele>172.60000610352</ele>
        <time>2014-03-07T10:20:44.000Z</time>
      </trkpt>
      <trkpt lat="48.68644" lon="1.72652">
        <ele>172.60000610352</ele>
        <time>2014-03-07T10:20:45.000Z</time>
      </trkpt>
      <trkpt lat="48.68652" lon="1.72657">
        <ele>172.39999389648</ele>
        <time>2014-03-07T10:20:50.000Z</time>
      </trkpt>
      <trkpt lat="48.68657" lon="1.72663">
        <ele>172.19999694824</ele>
        <time>2014-03-07T10:20:54.000Z</time>
      </trkpt>
      <trkpt lat="48.68655" lon="1.72668">
        <ele>172.19999694824</ele>
        <time>2014-03-07T10:20:57.000Z</time>
      </trkpt>
      <trkpt lat="48.68648" lon="1.72673">
        <ele>172.19999694824</ele>
        <time>2014-03-07T10:21:01.000Z</time>
      </trkpt>
      <trkpt lat="48.68644" lon="1.72674">
        <ele>172.19999694824</ele>
        <time>2014-03-07T10:21:03.000Z</time>
      </trkpt>
      <trkpt lat="48.68636" lon="1.72681">
        <ele>172.39999389648</ele>
        <time>2014-03-07T10:21:09.000Z</time>
      </trkpt>
      <trkpt lat="48.68629" lon="1.72688">
        <ele>172.39999389648</ele>
        <time>2014-03-07T10:21:15.000Z</time>
      </trkpt>
      <trkpt lat="48.6862" lon="1.72695">
        <ele>172.60000610352</ele>
        <time>2014-03-07T10:21:21.000Z</time>
      </trkpt>
      <trkpt lat="48.68617" lon="1.72696">
        <ele>172.60000610352</ele>
        <time>2014-03-07T10:21:23.000Z</time>
      </trkpt>
      <trkpt lat="48.6861" lon="1.72702">
        <ele>172.60000610352</ele>
        <time>2014-03-07T10:21:29.000Z</time>
      </trkpt>
      <trkpt lat="48.68601" lon="1.72712">
        <ele>172.80000305176</ele>
        <time>2014-03-07T10:21:36.000Z</time>
      </trkpt>
      <trkpt lat="48.68592" lon="1.7272">
        <ele>172.80000305176</ele>
        <time>2014-03-07T10:21:43.000Z</time>
      </trkpt>
      <trkpt lat="48.68591" lon="1.72721">
        <ele>173</ele>
        <time>2014-03-07T10:21:44.000Z</time>
      </trkpt>
      <trkpt lat="48.68584" lon="1.72729">
        <ele>173</ele>
        <time>2014-03-07T10:21:51.000Z</time>
      </trkpt>
      <trkpt lat="48.68582" lon="1.7273">
        <ele>173</ele>
        <time>2014-03-07T10:21:52.000Z</time>
      </trkpt>
      <trkpt lat="48.68574" lon="1.72737">
        <ele>173.19999694824</ele>
        <time>2014-03-07T10:21:59.000Z</time>
      </trkpt>
      <trkpt lat="48.68569" lon="1.72742">
        <ele>173.19999694824</ele>
        <time>2014-03-07T10:22:03.000Z</time>
      </trkpt>
      <trkpt lat="48.68557" lon="1.72752">
        <ele>173.39999389648</ele>
        <time>2014-03-07T10:22:12.000Z</time>
      </trkpt>
      <trkpt lat="48.68548" lon="1.7276">
        <ele>173.39999389648</ele>
        <time>2014-03-07T10:22:19.000Z</time>
      </trkpt>
      <trkpt lat="48.68539" lon="1.72768">
        <ele>173.39999389648</ele>
        <time>2014-03-07T10:22:26.000Z</time>
      </trkpt>
      <trkpt lat="48.68529" lon="1.72775">
        <ele>173.60000610352</ele>
        <time>2014-03-07T10:22:33.000Z</time>
      </trkpt>
      <trkpt lat="48.68519" lon="1.72784">
        <ele>173.60000610352</ele>
        <time>2014-03-07T10:22:41.000Z</time>
      </trkpt>
      <trkpt lat="48.68514" lon="1.72794">
        <ele>173.80000305176</ele>
        <time>2014-03-07T10:22:48.000Z</time>
      </trkpt>
      <trkpt lat="48.68516" lon="1.72812">
        <ele>173.60000610352</ele>
        <time>2014-03-07T10:22:56.000Z</time>
      </trkpt>
      <trkpt lat="48.68517" lon="1.72828">
        <ele>173.60000610352</ele>
        <time>2014-03-07T10:23:04.000Z</time>
      </trkpt>
      <trkpt lat="48.68515" lon="1.72844">
        <ele>173.39999389648</ele>
        <time>2014-03-07T10:23:12.000Z</time>
      </trkpt>
      <trkpt lat="48.68514" lon="1.72857">
        <ele>173</ele>
        <time>2014-03-07T10:23:19.000Z</time>
      </trkpt>
      <trkpt lat="48.68516" lon="1.72873">
        <ele>172.39999389648</ele>
        <time>2014-03-07T10:23:27.000Z</time>
      </trkpt>
      <trkpt lat="48.68519" lon="1.72891">
        <ele>172</ele>
        <time>2014-03-07T10:23:35.000Z</time>
      </trkpt>
      <trkpt lat="48.68519" lon="1.72909">
        <ele>171.39999389648</ele>
        <time>2014-03-07T10:23:43.000Z</time>
      </trkpt>
      <trkpt lat="48.6852" lon="1.72925">
        <ele>171</ele>
        <time>2014-03-07T10:23:50.000Z</time>
      </trkpt>
      <trkpt lat="48.6852" lon="1.72947">
        <ele>170.60000610352</ele>
        <time>2014-03-07T10:24:00.000Z</time>
      </trkpt>
      <trkpt lat="48.6852" lon="1.7295">
        <ele>170.60000610352</ele>
        <time>2014-03-07T10:24:02.000Z</time>
      </trkpt>
      <trkpt lat="48.68521" lon="1.72966">
        <ele>170.19999694824</ele>
        <time>2014-03-07T10:24:09.000Z</time>
      </trkpt>
      <trkpt lat="48.68522" lon="1.72988">
        <ele>169.80000305176</ele>
        <time>2014-03-07T10:24:18.000Z</time>
      </trkpt>
      <trkpt lat="48.68525" lon="1.73005">
        <ele>169.39999389648</ele>
        <time>2014-03-07T10:24:25.000Z</time>
      </trkpt>
      <trkpt lat="48.68527" lon="1.73021">
        <ele>169.19999694824</ele>
        <time>2014-03-07T10:24:32.000Z</time>
      </trkpt>
      <trkpt lat="48.68528" lon="1.73026">
        <ele>169</ele>
        <time>2014-03-07T10:24:34.000Z</time>
      </trkpt>
      <trkpt lat="48.68531" lon="1.73041">
        <ele>168.80000305176</ele>
        <time>2014-03-07T10:24:41.000Z</time>
      </trkpt>
      <trkpt lat="48.68534" lon="1.73063">
        <ele>168.39999389648</ele>
        <time>2014-03-07T10:24:50.000Z</time>
      </trkpt>
      <trkpt lat="48.68536" lon="1.73084">
        <ele>167.80000305176</ele>
        <time>2014-03-07T10:24:59.000Z</time>
      </trkpt>
      <trkpt lat="48.68538" lon="1.73099">
        <ele>167.80000305176</ele>
        <time>2014-03-07T10:25:05.000Z</time>
      </trkpt>
      <trkpt lat="48.6854" lon="1.73113">
        <ele>168</ele>
        <time>2014-03-07T10:25:11.000Z</time>
      </trkpt>
      <trkpt lat="48.68542" lon="1.73128">
        <ele>168</ele>
        <time>2014-03-07T10:25:18.000Z</time>
      </trkpt>
      <trkpt lat="48.68545" lon="1.73139">
        <ele>168.19999694824</ele>
        <time>2014-03-07T10:25:23.000Z</time>
      </trkpt>
      <trkpt lat="48.68545" lon="1.73145">
        <ele>168.19999694824</ele>
        <time>2014-03-07T10:25:26.000Z</time>
      </trkpt>
      <trkpt lat="48.68547" lon="1.73157">
        <ele>168.19999694824</ele>
        <time>2014-03-07T10:25:32.000Z</time>
      </trkpt>
      <trkpt lat="48.68547" lon="1.7316">
        <ele>168.19999694824</ele>
        <time>2014-03-07T10:25:33.000Z</time>
      </trkpt>
      <trkpt lat="48.68552" lon="1.73174">
        <ele>168.19999694824</ele>
        <time>2014-03-07T10:25:40.000Z</time>
      </trkpt>
      <trkpt lat="48.68555" lon="1.7319">
        <ele>168</ele>
        <time>2014-03-07T10:25:47.000Z</time>
      </trkpt>
      <trkpt lat="48.68557" lon="1.73206">
        <ele>167.60000610352</ele>
        <time>2014-03-07T10:25:54.000Z</time>
      </trkpt>
      <trkpt lat="48.68559" lon="1.73222">
        <ele>167.19999694824</ele>
        <time>2014-03-07T10:26:00.000Z</time>
      </trkpt>
      <trkpt lat="48.68562" lon="1.73239">
        <ele>166.60000610352</ele>
        <time>2014-03-07T10:26:07.000Z</time>
      </trkpt>
      <trkpt lat="48.68566" lon="1.73258">
        <ele>166.39999389648</ele>
        <time>2014-03-07T10:26:15.000Z</time>
      </trkpt>
      <trkpt lat="48.68568" lon="1.73273">
        <ele>166.60000610352</ele>
        <time>2014-03-07T10:26:21.000Z</time>
      </trkpt>
      <trkpt lat="48.68567" lon="1.73277">
        <ele>166.60000610352</ele>
        <time>2014-03-07T10:26:23.000Z</time>
      </trkpt>
      <trkpt lat="48.68568" lon="1.73294">
        <ele>166.80000305176</ele>
        <time>2014-03-07T10:26:30.000Z</time>
      </trkpt>
      <trkpt lat="48.6857" lon="1.7331">
        <ele>167</ele>
        <time>2014-03-07T10:26:37.000Z</time>
      </trkpt>
      <trkpt lat="48.68571" lon="1.73321">
        <ele>167.19999694824</ele>
        <time>2014-03-07T10:26:43.000Z</time>
      </trkpt>
      <trkpt lat="48.68573" lon="1.73334">
        <ele>167.19999694824</ele>
        <time>2014-03-07T10:26:49.000Z</time>
      </trkpt>
      <trkpt lat="48.68575" lon="1.73348">
        <ele>167.19999694824</ele>
        <time>2014-03-07T10:26:55.000Z</time>
      </trkpt>
      <trkpt lat="48.68577" lon="1.73366">
        <ele>167.19999694824</ele>
        <time>2014-03-07T10:27:02.000Z</time>
      </trkpt>
      <trkpt lat="48.68581" lon="1.73384">
        <ele>167.19999694824</ele>
        <time>2014-03-07T10:27:09.000Z</time>
      </trkpt>
      <trkpt lat="48.68583" lon="1.7339">
        <ele>167</ele>
        <time>2014-03-07T10:27:12.000Z</time>
      </trkpt>
      <trkpt lat="48.68588" lon="1.73406">
        <ele>166.80000305176</ele>
        <time>2014-03-07T10:27:19.000Z</time>
      </trkpt>
      <trkpt lat="48.68592" lon="1.7342">
        <ele>166.39999389648</ele>
        <time>2014-03-07T10:27:24.000Z</time>
      </trkpt>
      <trkpt lat="48.68592" lon="1.73432">
        <ele>166</ele>
        <time>2014-03-07T10:27:31.000Z</time>
      </trkpt>
      <trkpt lat="48.68593" lon="1.73445">
        <ele>165.60000610352</ele>
        <time>2014-03-07T10:27:40.000Z</time>
      </trkpt>
      <trkpt lat="48.68594" lon="1.73458">
        <ele>165.19999694824</ele>
        <time>2014-03-07T10:27:46.000Z</time>
      </trkpt>
      <trkpt lat="48.68597" lon="1.73469">
        <ele>164.80000305176</ele>
        <time>2014-03-07T10:27:51.000Z</time>
      </trkpt>
      <trkpt lat="48.686" lon="1.73476">
        <ele>164.60000610352</ele>
        <time>2014-03-07T10:27:55.000Z</time>
      </trkpt>
      <trkpt lat="48.68603" lon="1.73494">
        <ele>164.19999694824</ele>
        <time>2014-03-07T10:28:02.000Z</time>
      </trkpt>
      <trkpt lat="48.68605" lon="1.73507">
        <ele>164</ele>
        <time>2014-03-07T10:28:08.000Z</time>
      </trkpt>
      <trkpt lat="48.68606" lon="1.73523">
        <ele>163.80000305176</ele>
        <time>2014-03-07T10:28:15.000Z</time>
      </trkpt>
      <trkpt lat="48.68607" lon="1.7354">
        <ele>163.60000610352</ele>
        <time>2014-03-07T10:28:23.000Z</time>
      </trkpt>
      <trkpt lat="48.68609" lon="1.73556">
        <ele>163.39999389648</ele>
        <time>2014-03-07T10:28:30.000Z</time>
      </trkpt>
      <trkpt lat="48.68609" lon="1.7356">
        <ele>163.39999389648</ele>
        <time>2014-03-07T10:28:32.000Z</time>
      </trkpt>
      <trkpt lat="48.68607" lon="1.73575">
        <ele>163.19999694824</ele>
        <time>2014-03-07T10:28:38.000Z</time>
      </trkpt>
      <trkpt lat="48.68609" lon="1.73591">
        <ele>163.39999389648</ele>
        <time>2014-03-07T10:28:45.000Z</time>
      </trkpt>
      <trkpt lat="48.6861" lon="1.73602">
        <ele>163.60000610352</ele>
        <time>2014-03-07T10:28:51.000Z</time>
      </trkpt>
      <trkpt lat="48.68612" lon="1.73611">
        <ele>163.80000305176</ele>
        <time>2014-03-07T10:28:56.000Z</time>
      </trkpt>
      <trkpt lat="48.68606" lon="1.7362">
        <ele>163.60000610352</ele>
        <time>2014-03-07T10:29:03.000Z</time>
      </trkpt>
      <trkpt lat="48.68604" lon="1.73622">
        <ele>163.39999389648</ele>
        <time>2014-03-07T10:29:05.000Z</time>
      </trkpt>
      <trkpt lat="48.686" lon="1.73623">
        <ele>163.19999694824</ele>
        <time>2014-03-07T10:29:10.000Z</time>
      </trkpt>
      <trkpt lat="48.68596" lon="1.73613">
        <ele>162.80000305176</ele>
        <time>2014-03-07T10:29:17.000Z</time>
      </trkpt>
      <trkpt lat="48.68586" lon="1.73611">
        <ele>162.19999694824</ele>
        <time>2014-03-07T10:29:24.000Z</time>
      </trkpt>
      <trkpt lat="48.68582" lon="1.7361">
        <ele>162</ele>
        <time>2014-03-07T10:29:27.000Z</time>
      </trkpt>
      <trkpt lat="48.68578" lon="1.73613">
        <ele>162.19999694824</ele>
        <time>2014-03-07T10:29:31.000Z</time>
      </trkpt>
      <trkpt lat="48.68573" lon="1.73623">
        <ele>162.39999389648</ele>
        <time>2014-03-07T10:29:38.000Z</time>
      </trkpt>
      <trkpt lat="48.68566" lon="1.73636">
        <ele>162.60000610352</ele>
        <time>2014-03-07T10:29:45.000Z</time>
      </trkpt>
      <trkpt lat="48.6856" lon="1.7365">
        <ele>162.39999389648</ele>
        <time>2014-03-07T10:29:52.000Z</time>
      </trkpt>
      <trkpt lat="48.68557" lon="1.73663">
        <ele>162.39999389648</ele>
        <time>2014-03-07T10:29:59.000Z</time>
      </trkpt>
      <trkpt lat="48.68552" lon="1.73682">
        <ele>162.80000305176</ele>
        <time>2014-03-07T10:30:08.000Z</time>
      </trkpt>
      <trkpt lat="48.68545" lon="1.73698">
        <ele>163.39999389648</ele>
        <time>2014-03-07T10:30:17.000Z</time>
      </trkpt>
      <trkpt lat="48.68539" lon="1.73714">
        <ele>163.60000610352</ele>
        <time>2014-03-07T10:30:24.000Z</time>
      </trkpt>
      <trkpt lat="48.68534" lon="1.73727">
        <ele>163.60000610352</ele>
        <time>2014-03-07T10:30:31.000Z</time>
      </trkpt>
      <trkpt lat="48.68529" lon="1.73739">
        <ele>163.60000610352</ele>
        <time>2014-03-07T10:30:37.000Z</time>
      </trkpt>
      <trkpt lat="48.68527" lon="1.7375">
        <ele>163.60000610352</ele>
        <time>2014-03-07T10:30:43.000Z</time>
      </trkpt>
      <trkpt lat="48.68527" lon="1.73768">
        <ele>163.60000610352</ele>
        <time>2014-03-07T10:30:51.000Z</time>
      </trkpt>
      <trkpt lat="48.68526" lon="1.73783">
        <ele>163.39999389648</ele>
        <time>2014-03-07T10:30:58.000Z</time>
      </trkpt>
      <trkpt lat="48.68525" lon="1.73794">
        <ele>163.19999694824</ele>
        <time>2014-03-07T10:31:04.000Z</time>
      </trkpt>
      <trkpt lat="48.68525" lon="1.73802">
        <ele>163.19999694824</ele>
        <time>2014-03-07T10:31:07.000Z</time>
      </trkpt>
      <trkpt lat="48.68523" lon="1.7381">
        <ele>163</ele>
        <time>2014-03-07T10:31:11.000Z</time>
      </trkpt>
      <trkpt lat="48.68522" lon="1.73819">
        <ele>163</ele>
        <time>2014-03-07T10:31:16.000Z</time>
      </trkpt>
      <trkpt lat="48.68519" lon="1.73827">
        <ele>162.60000610352</ele>
        <time>2014-03-07T10:31:20.000Z</time>
      </trkpt>
      <trkpt lat="48.68518" lon="1.7383">
        <ele>162.60000610352</ele>
        <time>2014-03-07T10:31:22.000Z</time>
      </trkpt>
      <trkpt lat="48.68514" lon="1.73847">
        <ele>162.19999694824</ele>
        <time>2014-03-07T10:31:31.000Z</time>
      </trkpt>
      <trkpt lat="48.68511" lon="1.73864">
        <ele>161.80000305176</ele>
        <time>2014-03-07T10:31:38.000Z</time>
      </trkpt>
      <trkpt lat="48.68508" lon="1.73877">
        <ele>161.60000610352</ele>
        <time>2014-03-07T10:31:44.000Z</time>
      </trkpt>
      <trkpt lat="48.68509" lon="1.7388">
        <ele>161.60000610352</ele>
        <time>2014-03-07T10:31:45.000Z</time>
      </trkpt>
      <trkpt lat="48.68511" lon="1.7389">
        <ele>161.80000305176</ele>
        <time>2014-03-07T10:31:51.000Z</time>
      </trkpt>
      <trkpt lat="48.68512" lon="1.73901">
        <ele>161.80000305176</ele>
        <time>2014-03-07T10:31:56.000Z</time>
      </trkpt>
      <trkpt lat="48.68513" lon="1.73911">
        <ele>161.80000305176</ele>
        <time>2014-03-07T10:32:01.000Z</time>
      </trkpt>
      <trkpt lat="48.68515" lon="1.73928">
        <ele>161.80000305176</ele>
        <time>2014-03-07T10:32:08.000Z</time>
      </trkpt>
      <trkpt lat="48.68515" lon="1.73937">
        <ele>161.80000305176</ele>
        <time>2014-03-07T10:32:12.000Z</time>
      </trkpt>
      <trkpt lat="48.68517" lon="1.73954">
        <ele>161.60000610352</ele>
        <time>2014-03-07T10:32:19.000Z</time>
      </trkpt>
      <trkpt lat="48.68518" lon="1.7397">
        <ele>161.60000610352</ele>
        <time>2014-03-07T10:32:27.000Z</time>
      </trkpt>
      <trkpt lat="48.68522" lon="1.7399">
        <ele>161.60000610352</ele>
        <time>2014-03-07T10:32:35.000Z</time>
      </trkpt>
      <trkpt lat="48.68523" lon="1.74">
        <ele>161.60000610352</ele>
        <time>2014-03-07T10:32:40.000Z</time>
      </trkpt>
      <trkpt lat="48.68523" lon="1.74012">
        <ele>161.39999389648</ele>
        <time>2014-03-07T10:32:46.000Z</time>
      </trkpt>
      <trkpt lat="48.68523" lon="1.74014">
        <ele>161.39999389648</ele>
        <time>2014-03-07T10:32:47.000Z</time>
      </trkpt>
      <trkpt lat="48.68524" lon="1.74031">
        <ele>161</ele>
        <time>2014-03-07T10:32:54.000Z</time>
      </trkpt>
      <trkpt lat="48.68525" lon="1.74048">
        <ele>160.60000610352</ele>
        <time>2014-03-07T10:33:02.000Z</time>
      </trkpt>
      <trkpt lat="48.68525" lon="1.7405">
        <ele>160.60000610352</ele>
        <time>2014-03-07T10:33:03.000Z</time>
      </trkpt>
      <trkpt lat="48.68524" lon="1.74065">
        <ele>160.19999694824</ele>
        <time>2014-03-07T10:33:10.000Z</time>
      </trkpt>
      <trkpt lat="48.68525" lon="1.74081">
        <ele>159.80000305176</ele>
        <time>2014-03-07T10:33:17.000Z</time>
      </trkpt>
      <trkpt lat="48.68525" lon="1.74096">
        <ele>159.60000610352</ele>
        <time>2014-03-07T10:33:23.000Z</time>
      </trkpt>
      <trkpt lat="48.68526" lon="1.74109">
        <ele>159.60000610352</ele>
        <time>2014-03-07T10:33:29.000Z</time>
      </trkpt>
      <trkpt lat="48.6853" lon="1.74122">
        <ele>159.60000610352</ele>
        <time>2014-03-07T10:33:35.000Z</time>
      </trkpt>
      <trkpt lat="48.68533" lon="1.74137">
        <ele>159.60000610352</ele>
        <time>2014-03-07T10:33:42.000Z</time>
      </trkpt>
      <trkpt lat="48.68529" lon="1.74153">
        <ele>159.19999694824</ele>
        <time>2014-03-07T10:33:50.000Z</time>
      </trkpt>
      <trkpt lat="48.68528" lon="1.74155">
        <ele>159.19999694824</ele>
        <time>2014-03-07T10:33:51.000Z</time>
      </trkpt>
      <trkpt lat="48.68527" lon="1.74159">
        <ele>159</ele>
        <time>2014-03-07T10:33:53.000Z</time>
      </trkpt>
      <trkpt lat="48.68526" lon="1.74163">
        <ele>159</ele>
        <time>2014-03-07T10:33:55.000Z</time>
      </trkpt>
      <trkpt lat="48.68524" lon="1.74169">
        <ele>158.80000305176</ele>
        <time>2014-03-07T10:33:58.000Z</time>
      </trkpt>
      <trkpt lat="48.68521" lon="1.74184">
        <ele>158.39999389648</ele>
        <time>2014-03-07T10:34:05.000Z</time>
      </trkpt>
      <trkpt lat="48.68521" lon="1.74185">
        <ele>158.39999389648</ele>
        <time>2014-03-07T10:34:06.000Z</time>
      </trkpt>
      <trkpt lat="48.68522" lon="1.74204">
        <ele>157.80000305176</ele>
        <time>2014-03-07T10:34:14.000Z</time>
      </trkpt>
      <trkpt lat="48.68518" lon="1.74215">
        <ele>157.39999389648</ele>
        <time>2014-03-07T10:34:20.000Z</time>
      </trkpt>
      <trkpt lat="48.68513" lon="1.74229">
        <ele>157</ele>
        <time>2014-03-07T10:34:27.000Z</time>
      </trkpt>
      <trkpt lat="48.68511" lon="1.74238">
        <ele>156.80000305176</ele>
        <time>2014-03-07T10:34:31.000Z</time>
      </trkpt>
      <trkpt lat="48.68513" lon="1.74243">
        <ele>156.60000610352</ele>
        <time>2014-03-07T10:34:34.000Z</time>
      </trkpt>
      <trkpt lat="48.68515" lon="1.74249">
        <ele>156.60000610352</ele>
        <time>2014-03-07T10:34:38.000Z</time>
      </trkpt>
      <trkpt lat="48.68511" lon="1.7427">
        <ele>155.80000305176</ele>
        <time>2014-03-07T10:34:44.000Z</time>
      </trkpt>
      <trkpt lat="48.68508" lon="1.74283">
        <ele>155.39999389648</ele>
        <time>2014-03-07T10:34:50.000Z</time>
      </trkpt>
      <trkpt lat="48.68508" lon="1.7429">
        <ele>155.19999694824</ele>
        <time>2014-03-07T10:34:53.000Z</time>
      </trkpt>
      <trkpt lat="48.68506" lon="1.74295">
        <ele>155</ele>
        <time>2014-03-07T10:34:55.000Z</time>
      </trkpt>
      <trkpt lat="48.68502" lon="1.74307">
        <ele>154.60000610352</ele>
        <time>2014-03-07T10:35:01.000Z</time>
      </trkpt>
      <trkpt lat="48.68501" lon="1.74311">
        <ele>154.60000610352</ele>
        <time>2014-03-07T10:35:03.000Z</time>
      </trkpt>
      <trkpt lat="48.68496" lon="1.74326">
        <ele>154.19999694824</ele>
        <time>2014-03-07T10:35:10.000Z</time>
      </trkpt>
      <trkpt lat="48.68492" lon="1.74339">
        <ele>153.80000305176</ele>
        <time>2014-03-07T10:35:17.000Z</time>
      </trkpt>
      <trkpt lat="48.6849" lon="1.74351">
        <ele>153.19999694824</ele>
        <time>2014-03-07T10:35:23.000Z</time>
      </trkpt>
      <trkpt lat="48.68489" lon="1.74362">
        <ele>152.60000610352</ele>
        <time>2014-03-07T10:35:28.000Z</time>
      </trkpt>
      <trkpt lat="48.6849" lon="1.74373">
        <ele>152</ele>
        <time>2014-03-07T10:35:33.000Z</time>
      </trkpt>
      <trkpt lat="48.68492" lon="1.74382">
        <ele>151.39999389648</ele>
        <time>2014-03-07T10:35:37.000Z</time>
      </trkpt>
      <trkpt lat="48.68493" lon="1.74386">
        <ele>151.19999694824</ele>
        <time>2014-03-07T10:35:39.000Z</time>
      </trkpt>
      <trkpt lat="48.685" lon="1.74395">
        <ele>150.39999389648</ele>
        <time>2014-03-07T10:35:45.000Z</time>
      </trkpt>
      <trkpt lat="48.68508" lon="1.74398">
        <ele>150.60000610352</ele>
        <time>2014-03-07T10:35:51.000Z</time>
      </trkpt>
      <trkpt lat="48.68513" lon="1.74397">
        <ele>151</ele>
        <time>2014-03-07T10:35:55.000Z</time>
      </trkpt>
      <trkpt lat="48.68521" lon="1.74392">
        <ele>151.80000305176</ele>
        <time>2014-03-07T10:36:01.000Z</time>
      </trkpt>
      <trkpt lat="48.68522" lon="1.74391">
        <ele>152</ele>
        <time>2014-03-07T10:36:02.000Z</time>
      </trkpt>
      <trkpt lat="48.68526" lon="1.74386">
        <ele>152.39999389648</ele>
        <time>2014-03-07T10:36:06.000Z</time>
      </trkpt>
      <trkpt lat="48.68531" lon="1.74375">
        <ele>153</ele>
        <time>2014-03-07T10:36:12.000Z</time>
      </trkpt>
      <trkpt lat="48.68533" lon="1.74367">
        <ele>153.39999389648</ele>
        <time>2014-03-07T10:36:16.000Z</time>
      </trkpt>
      <trkpt lat="48.68534" lon="1.74357">
        <ele>153.60000610352</ele>
        <time>2014-03-07T10:36:21.000Z</time>
      </trkpt>
      <trkpt lat="48.68538" lon="1.74346">
        <ele>154</ele>
        <time>2014-03-07T10:36:27.000Z</time>
      </trkpt>
      <trkpt lat="48.68543" lon="1.74335">
        <ele>154.39999389648</ele>
        <time>2014-03-07T10:36:33.000Z</time>
      </trkpt>
      <trkpt lat="48.68548" lon="1.74319">
        <ele>155</ele>
        <time>2014-03-07T10:36:41.000Z</time>
      </trkpt>
      <trkpt lat="48.68551" lon="1.74312">
        <ele>155.39999389648</ele>
        <time>2014-03-07T10:36:46.000Z</time>
      </trkpt>
      <trkpt lat="48.68558" lon="1.74302">
        <ele>156</ele>
        <time>2014-03-07T10:36:53.000Z</time>
      </trkpt>
      <trkpt lat="48.6856" lon="1.74292">
        <ele>156.39999389648</ele>
        <time>2014-03-07T10:36:58.000Z</time>
      </trkpt>
      <trkpt lat="48.68561" lon="1.74286">
        <ele>156.60000610352</ele>
        <time>2014-03-07T10:37:00.000Z</time>
      </trkpt>
      <trkpt lat="48.68565" lon="1.74276">
        <ele>157.19999694824</ele>
        <time>2014-03-07T10:37:05.000Z</time>
      </trkpt>
      <trkpt lat="48.68572" lon="1.74267">
        <ele>157.80000305176</ele>
        <time>2014-03-07T10:37:11.000Z</time>
      </trkpt>
      <trkpt lat="48.68581" lon="1.74261">
        <ele>158.39999389648</ele>
        <time>2014-03-07T10:37:17.000Z</time>
      </trkpt>
      <trkpt lat="48.68582" lon="1.7426">
        <ele>158.39999389648</ele>
        <time>2014-03-07T10:37:18.000Z</time>
      </trkpt>
      <trkpt lat="48.68589" lon="1.74251">
        <ele>158.80000305176</ele>
        <time>2014-03-07T10:37:25.000Z</time>
      </trkpt>
      <trkpt lat="48.68597" lon="1.74242">
        <ele>158.80000305176</ele>
        <time>2014-03-07T10:37:31.000Z</time>
      </trkpt>
      <trkpt lat="48.68602" lon="1.74232">
        <ele>159</ele>
        <time>2014-03-07T10:37:37.000Z</time>
      </trkpt>
      <trkpt lat="48.6861" lon="1.74226">
        <ele>158.80000305176</ele>
        <time>2014-03-07T10:37:43.000Z</time>
      </trkpt>
      <trkpt lat="48.68618" lon="1.74221">
        <ele>158.80000305176</ele>
        <time>2014-03-07T10:37:49.000Z</time>
      </trkpt>
      <trkpt lat="48.68623" lon="1.74219">
        <ele>158.60000610352</ele>
        <time>2014-03-07T10:37:52.000Z</time>
      </trkpt>
      <trkpt lat="48.68631" lon="1.74215">
        <ele>158.39999389648</ele>
        <time>2014-03-07T10:37:58.000Z</time>
      </trkpt>
      <trkpt lat="48.68639" lon="1.74215">
        <ele>158.19999694824</ele>
        <time>2014-03-07T10:38:03.000Z</time>
      </trkpt>
      <trkpt lat="48.68643" lon="1.74213">
        <ele>158.19999694824</ele>
        <time>2014-03-07T10:38:07.000Z</time>
      </trkpt>
      <trkpt lat="48.68649" lon="1.74212">
        <ele>158</ele>
        <time>2014-03-07T10:38:13.000Z</time>
      </trkpt>
      <trkpt lat="48.6865" lon="1.74212">
        <ele>158</ele>
        <time>2014-03-07T10:38:14.000Z</time>
      </trkpt>
      <trkpt lat="48.68657" lon="1.74213">
        <ele>157.80000305176</ele>
        <time>2014-03-07T10:38:20.000Z</time>
      </trkpt>
      <trkpt lat="48.68661" lon="1.74212">
        <ele>157.60000610352</ele>
        <time>2014-03-07T10:38:29.000Z</time>
      </trkpt>
      <trkpt lat="48.68666" lon="1.74213">
        <ele>157.39999389648</ele>
        <time>2014-03-07T10:40:58.000Z</time>
      </trkpt>
      <trkpt lat="48.68666" lon="1.74215">
        <ele>157.39999389648</ele>
        <time>2014-03-07T10:41:01.000Z</time>
      </trkpt>
      <trkpt lat="48.6867" lon="1.74214">
        <ele>157.39999389648</ele>
        <time>2014-03-07T10:41:28.000Z</time>
      </trkpt>
      <trkpt lat="48.68681" lon="1.74207">
        <ele>157.19999694824</ele>
        <time>2014-03-07T10:41:33.000Z</time>
      </trkpt>
      <trkpt lat="48.68684" lon="1.74205">
        <ele>157.19999694824</ele>
        <time>2014-03-07T10:41:35.000Z</time>
      </trkpt>
      <trkpt lat="48.68691" lon="1.74195">
        <ele>157</ele>
        <time>2014-03-07T10:41:41.000Z</time>
      </trkpt>
      <trkpt lat="48.68698" lon="1.74193">
        <ele>157</ele>
        <time>2014-03-07T10:41:46.000Z</time>
      </trkpt>
      <trkpt lat="48.68701" lon="1.74191">
        <ele>156.80000305176</ele>
        <time>2014-03-07T10:41:48.000Z</time>
      </trkpt>
      <trkpt lat="48.6871" lon="1.74179">
        <ele>156.60000610352</ele>
        <time>2014-03-07T10:41:55.000Z</time>
      </trkpt>
      <trkpt lat="48.68716" lon="1.74171">
        <ele>156.19999694824</ele>
        <time>2014-03-07T10:42:01.000Z</time>
      </trkpt>
      <trkpt lat="48.68723" lon="1.7416">
        <ele>156.19999694824</ele>
        <time>2014-03-07T10:42:07.000Z</time>
      </trkpt>
      <trkpt lat="48.6873" lon="1.74152">
        <ele>156.39999389648</ele>
        <time>2014-03-07T10:42:13.000Z</time>
      </trkpt>
      <trkpt lat="48.68736" lon="1.74145">
        <ele>156.39999389648</ele>
        <time>2014-03-07T10:42:18.000Z</time>
      </trkpt>
      <trkpt lat="48.6874" lon="1.74134">
        <ele>156.60000610352</ele>
        <time>2014-03-07T10:42:24.000Z</time>
      </trkpt>
      <trkpt lat="48.6874" lon="1.74132">
        <ele>156.60000610352</ele>
        <time>2014-03-07T10:42:25.000Z</time>
      </trkpt>
      <trkpt lat="48.68744" lon="1.74121">
        <ele>157</ele>
        <time>2014-03-07T10:42:30.000Z</time>
      </trkpt>
      <trkpt lat="48.68752" lon="1.74109">
        <ele>157</ele>
        <time>2014-03-07T10:42:38.000Z</time>
      </trkpt>
      <trkpt lat="48.68754" lon="1.74107">
        <ele>157.19999694824</ele>
        <time>2014-03-07T10:42:40.000Z</time>
      </trkpt>
      <trkpt lat="48.68763" lon="1.74096">
        <ele>157.80000305176</ele>
        <time>2014-03-07T10:42:47.000Z</time>
      </trkpt>
      <trkpt lat="48.68764" lon="1.74095">
        <ele>158</ele>
        <time>2014-03-07T10:42:48.000Z</time>
      </trkpt>
      <trkpt lat="48.68767" lon="1.74086">
        <ele>158.39999389648</ele>
        <time>2014-03-07T10:42:52.000Z</time>
      </trkpt>
      <trkpt lat="48.68776" lon="1.74074">
        <ele>159.19999694824</ele>
        <time>2014-03-07T10:43:00.000Z</time>
      </trkpt>
      <trkpt lat="48.68784" lon="1.74065">
        <ele>160</ele>
        <time>2014-03-07T10:43:07.000Z</time>
      </trkpt>
      <trkpt lat="48.6879" lon="1.74058">
        <ele>160.39999389648</ele>
        <time>2014-03-07T10:43:12.000Z</time>
      </trkpt>
      <trkpt lat="48.68794" lon="1.74049">
        <ele>161.19999694824</ele>
        <time>2014-03-07T10:43:17.000Z</time>
      </trkpt>
      <trkpt lat="48.68797" lon="1.74044">
        <ele>161.39999389648</ele>
        <time>2014-03-07T10:43:20.000Z</time>
      </trkpt>
      <trkpt lat="48.68802" lon="1.74037">
        <ele>162</ele>
        <time>2014-03-07T10:43:26.000Z</time>
      </trkpt>
      <trkpt lat="48.68803" lon="1.74035">
        <ele>162.19999694824</ele>
        <time>2014-03-07T10:43:28.000Z</time>
      </trkpt>
      <trkpt lat="48.68811" lon="1.74024">
        <ele>163</ele>
        <time>2014-03-07T10:43:35.000Z</time>
      </trkpt>
      <trkpt lat="48.68814" lon="1.74016">
        <ele>163.60000610352</ele>
        <time>2014-03-07T10:43:39.000Z</time>
      </trkpt>
      <trkpt lat="48.68822" lon="1.74002">
        <ele>164.60000610352</ele>
        <time>2014-03-07T10:43:47.000Z</time>
      </trkpt>
      <trkpt lat="48.68827" lon="1.73997">
        <ele>165</ele>
        <time>2014-03-07T10:43:52.000Z</time>
      </trkpt>
      <trkpt lat="48.68836" lon="1.73987">
        <ele>165.39999389648</ele>
        <time>2014-03-07T10:43:59.000Z</time>
      </trkpt>
      <trkpt lat="48.68841" lon="1.73977">
        <ele>166</ele>
        <time>2014-03-07T10:44:04.000Z</time>
      </trkpt>
      <trkpt lat="48.68842" lon="1.73975">
        <ele>166.19999694824</ele>
        <time>2014-03-07T10:44:05.000Z</time>
      </trkpt>
      <trkpt lat="48.6885" lon="1.73966">
        <ele>166.80000305176</ele>
        <time>2014-03-07T10:44:12.000Z</time>
      </trkpt>
      <trkpt lat="48.68855" lon="1.73956">
        <ele>167.39999389648</ele>
        <time>2014-03-07T10:44:18.000Z</time>
      </trkpt>
      <trkpt lat="48.68856" lon="1.73953">
        <ele>167.39999389648</ele>
        <time>2014-03-07T10:44:20.000Z</time>
      </trkpt>
      <trkpt lat="48.68862" lon="1.73944">
        <ele>168</ele>
        <time>2014-03-07T10:44:26.000Z</time>
      </trkpt>
      <trkpt lat="48.68864" lon="1.73941">
        <ele>168.19999694824</ele>
        <time>2014-03-07T10:44:28.000Z</time>
      </trkpt>
      <trkpt lat="48.68871" lon="1.73931">
        <ele>168.80000305176</ele>
        <time>2014-03-07T10:44:34.000Z</time>
      </trkpt>
      <trkpt lat="48.68878" lon="1.73912">
        <ele>169.60000610352</ele>
        <time>2014-03-07T10:44:44.000Z</time>
      </trkpt>
      <trkpt lat="48.68884" lon="1.73902">
        <ele>170</ele>
        <time>2014-03-07T10:44:50.000Z</time>
      </trkpt>
      <trkpt lat="48.6889" lon="1.73889">
        <ele>170.19999694824</ele>
        <time>2014-03-07T10:44:57.000Z</time>
      </trkpt>
      <trkpt lat="48.68895" lon="1.73878">
        <ele>170.39999389648</ele>
        <time>2014-03-07T10:45:03.000Z</time>
      </trkpt>
      <trkpt lat="48.68899" lon="1.73871">
        <ele>170.60000610352</ele>
        <time>2014-03-07T10:45:08.000Z</time>
      </trkpt>
      <trkpt lat="48.68903" lon="1.73866">
        <ele>170.60000610352</ele>
        <time>2014-03-07T10:45:11.000Z</time>
      </trkpt>
      <trkpt lat="48.68905" lon="1.73863">
        <ele>170.80000305176</ele>
        <time>2014-03-07T10:45:13.000Z</time>
      </trkpt>
      <trkpt lat="48.68909" lon="1.73857">
        <ele>171</ele>
        <time>2014-03-07T10:45:17.000Z</time>
      </trkpt>
      <trkpt lat="48.68917" lon="1.73843">
        <ele>171.19999694824</ele>
        <time>2014-03-07T10:45:26.000Z</time>
      </trkpt>
      <trkpt lat="48.68926" lon="1.73828">
        <ele>171.39999389648</ele>
        <time>2014-03-07T10:45:35.000Z</time>
      </trkpt>
      <trkpt lat="48.68929" lon="1.7382">
        <ele>171.60000610352</ele>
        <time>2014-03-07T10:45:39.000Z</time>
      </trkpt>
      <trkpt lat="48.68934" lon="1.73815">
        <ele>171.80000305176</ele>
        <time>2014-03-07T10:45:43.000Z</time>
      </trkpt>
      <trkpt lat="48.68945" lon="1.73806">
        <ele>172.39999389648</ele>
        <time>2014-03-07T10:45:51.000Z</time>
      </trkpt>
      <trkpt lat="48.68952" lon="1.73798">
        <ele>172.80000305176</ele>
        <time>2014-03-07T10:45:57.000Z</time>
      </trkpt>
      <trkpt lat="48.68959" lon="1.73789">
        <ele>173</ele>
        <time>2014-03-07T10:46:03.000Z</time>
      </trkpt>
      <trkpt lat="48.68968" lon="1.73779">
        <ele>173.39999389648</ele>
        <time>2014-03-07T10:46:11.000Z</time>
      </trkpt>
      <trkpt lat="48.68971" lon="1.73775">
        <ele>173.60000610352</ele>
        <time>2014-03-07T10:46:14.000Z</time>
      </trkpt>
      <trkpt lat="48.68977" lon="1.73763">
        <ele>173.80000305176</ele>
        <time>2014-03-07T10:46:20.000Z</time>
      </trkpt>
      <trkpt lat="48.68982" lon="1.73753">
        <ele>174.19999694824</ele>
        <time>2014-03-07T10:46:26.000Z</time>
      </trkpt>
      <trkpt lat="48.68986" lon="1.73744">
        <ele>174.19999694824</ele>
        <time>2014-03-07T10:46:30.000Z</time>
      </trkpt>
      <trkpt lat="48.68993" lon="1.73732">
        <ele>174.19999694824</ele>
        <time>2014-03-07T10:46:37.000Z</time>
      </trkpt>
      <trkpt lat="48.69001" lon="1.73713">
        <ele>174.19999694824</ele>
        <time>2014-03-07T10:46:47.000Z</time>
      </trkpt>
      <trkpt lat="48.69004" lon="1.73707">
        <ele>174</ele>
        <time>2014-03-07T10:46:50.000Z</time>
      </trkpt>
      <trkpt lat="48.69011" lon="1.73698">
        <ele>174</ele>
        <time>2014-03-07T10:46:57.000Z</time>
      </trkpt>
      <trkpt lat="48.69019" lon="1.73689">
        <ele>174</ele>
        <time>2014-03-07T10:47:04.000Z</time>
      </trkpt>
      <trkpt lat="48.69025" lon="1.73675">
        <ele>173.80000305176</ele>
        <time>2014-03-07T10:47:11.000Z</time>
      </trkpt>
      <trkpt lat="48.69029" lon="1.73668">
        <ele>173.80000305176</ele>
        <time>2014-03-07T10:47:15.000Z</time>
      </trkpt>
      <trkpt lat="48.69034" lon="1.73659">
        <ele>173.80000305176</ele>
        <time>2014-03-07T10:47:20.000Z</time>
      </trkpt>
      <trkpt lat="48.69037" lon="1.73655">
        <ele>173.80000305176</ele>
        <time>2014-03-07T10:47:23.000Z</time>
      </trkpt>
      <trkpt lat="48.69039" lon="1.73652">
        <ele>173.80000305176</ele>
        <time>2014-03-07T10:47:25.000Z</time>
      </trkpt>
      <trkpt lat="48.69047" lon="1.73636">
        <ele>174</ele>
        <time>2014-03-07T10:47:34.000Z</time>
      </trkpt>
      <trkpt lat="48.69055" lon="1.73625">
        <ele>174.39999389648</ele>
        <time>2014-03-07T10:47:41.000Z</time>
      </trkpt>
      <trkpt lat="48.69064" lon="1.73622">
        <ele>174.80000305176</ele>
        <time>2014-03-07T10:47:47.000Z</time>
      </trkpt>
      <trkpt lat="48.69071" lon="1.73631">
        <ele>175</ele>
        <time>2014-03-07T10:47:52.000Z</time>
      </trkpt>
      <trkpt lat="48.69073" lon="1.73633">
        <ele>175</ele>
        <time>2014-03-07T10:47:53.000Z</time>
      </trkpt>
      <trkpt lat="48.69075" lon="1.73651">
        <ele>175</ele>
        <time>2014-03-07T10:48:00.000Z</time>
      </trkpt>
      <trkpt lat="48.6908" lon="1.73668">
        <ele>175</ele>
        <time>2014-03-07T10:48:07.000Z</time>
      </trkpt>
      <trkpt lat="48.6908" lon="1.73669">
        <ele>175</ele>
        <time>2014-03-07T10:48:08.000Z</time>
      </trkpt>
      <trkpt lat="48.69083" lon="1.73678">
        <ele>175.19999694824</ele>
        <time>2014-03-07T10:48:13.000Z</time>
      </trkpt>
      <trkpt lat="48.69087" lon="1.73686">
        <ele>175.39999389648</ele>
        <time>2014-03-07T10:48:17.000Z</time>
      </trkpt>
      <trkpt lat="48.69091" lon="1.73694">
        <ele>175.60000610352</ele>
        <time>2014-03-07T10:48:21.000Z</time>
      </trkpt>
      <trkpt lat="48.69092" lon="1.737">
        <ele>175.60000610352</ele>
        <time>2014-03-07T10:48:24.000Z</time>
      </trkpt>
      <trkpt lat="48.69095" lon="1.73707">
        <ele>175.60000610352</ele>
        <time>2014-03-07T10:48:28.000Z</time>
      </trkpt>
      <trkpt lat="48.69099" lon="1.73712">
        <ele>175.80000305176</ele>
        <time>2014-03-07T10:48:32.000Z</time>
      </trkpt>
      <trkpt lat="48.69103" lon="1.73715">
        <ele>175.80000305176</ele>
        <time>2014-03-07T10:48:35.000Z</time>
      </trkpt>
      <trkpt lat="48.6911" lon="1.7372">
        <ele>176</ele>
        <time>2014-03-07T10:48:40.000Z</time>
      </trkpt>
      <trkpt lat="48.69118" lon="1.7373">
        <ele>176</ele>
        <time>2014-03-07T10:48:46.000Z</time>
      </trkpt>
      <trkpt lat="48.69124" lon="1.73737">
        <ele>176</ele>
        <time>2014-03-07T10:48:51.000Z</time>
      </trkpt>
      <trkpt lat="48.6913" lon="1.73747">
        <ele>176</ele>
        <time>2014-03-07T10:48:57.000Z</time>
      </trkpt>
      <trkpt lat="48.6914" lon="1.73761">
        <ele>175.39999389648</ele>
        <time>2014-03-07T10:49:05.000Z</time>
      </trkpt>
      <trkpt lat="48.69147" lon="1.73771">
        <ele>174.80000305176</ele>
        <time>2014-03-07T10:49:11.000Z</time>
      </trkpt>
      <trkpt lat="48.69148" lon="1.73774">
        <ele>174.60000610352</ele>
        <time>2014-03-07T10:49:13.000Z</time>
      </trkpt>
      <trkpt lat="48.69155" lon="1.73785">
        <ele>174</ele>
        <time>2014-03-07T10:49:19.000Z</time>
      </trkpt>
      <trkpt lat="48.6916" lon="1.73794">
        <ele>173.39999389648</ele>
        <time>2014-03-07T10:49:23.000Z</time>
      </trkpt>
      <trkpt lat="48.69163" lon="1.73797">
        <ele>173.19999694824</ele>
        <time>2014-03-07T10:49:25.000Z</time>
      </trkpt>
      <trkpt lat="48.69173" lon="1.7381">
        <ele>172.19999694824</ele>
        <time>2014-03-07T10:49:32.000Z</time>
      </trkpt>
      <trkpt lat="48.69173" lon="1.73812">
        <ele>172</ele>
        <time>2014-03-07T10:49:33.000Z</time>
      </trkpt>
      <trkpt lat="48.69184" lon="1.73823">
        <ele>170.80000305176</ele>
        <time>2014-03-07T10:49:40.000Z</time>
      </trkpt>
      <trkpt lat="48.69185" lon="1.73825">
        <ele>170.60000610352</ele>
        <time>2014-03-07T10:49:41.000Z</time>
      </trkpt>
      <trkpt lat="48.69193" lon="1.73836">
        <ele>169.60000610352</ele>
        <time>2014-03-07T10:49:48.000Z</time>
      </trkpt>
      <trkpt lat="48.69201" lon="1.73843">
        <ele>168.80000305176</ele>
        <time>2014-03-07T10:49:53.000Z</time>
      </trkpt>
      <trkpt lat="48.69203" lon="1.73844">
        <ele>168.80000305176</ele>
        <time>2014-03-07T10:49:54.000Z</time>
      </trkpt>
      <trkpt lat="48.69213" lon="1.73856">
        <ele>167.80000305176</ele>
        <time>2014-03-07T10:50:01.000Z</time>
      </trkpt>
      <trkpt lat="48.69225" lon="1.73872">
        <ele>166.60000610352</ele>
        <time>2014-03-07T10:50:11.000Z</time>
      </trkpt>
      <trkpt lat="48.69227" lon="1.73876">
        <ele>166.39999389648</ele>
        <time>2014-03-07T10:50:13.000Z</time>
      </trkpt>
      <trkpt lat="48.69233" lon="1.73885">
        <ele>165.80000305176</ele>
        <time>2014-03-07T10:50:18.000Z</time>
      </trkpt>
      <trkpt lat="48.69234" lon="1.73886">
        <ele>165.60000610352</ele>
        <time>2014-03-07T10:50:19.000Z</time>
      </trkpt>
      <trkpt lat="48.69242" lon="1.73895">
        <ele>165</ele>
        <time>2014-03-07T10:50:26.000Z</time>
      </trkpt>
      <trkpt lat="48.69249" lon="1.73904">
        <ele>164.39999389648</ele>
        <time>2014-03-07T10:50:32.000Z</time>
      </trkpt>
      <trkpt lat="48.69257" lon="1.73913">
        <ele>164.19999694824</ele>
        <time>2014-03-07T10:50:38.000Z</time>
      </trkpt>
      <trkpt lat="48.69261" lon="1.7392">
        <ele>164.19999694824</ele>
        <time>2014-03-07T10:50:42.000Z</time>
      </trkpt>
      <trkpt lat="48.69269" lon="1.73932">
        <ele>164.19999694824</ele>
        <time>2014-03-07T10:50:49.000Z</time>
      </trkpt>
      <trkpt lat="48.69275" lon="1.7394">
        <ele>164.19999694824</ele>
        <time>2014-03-07T10:50:54.000Z</time>
      </trkpt>
      <trkpt lat="48.69283" lon="1.73951">
        <ele>164.19999694824</ele>
        <time>2014-03-07T10:51:01.000Z</time>
      </trkpt>
      <trkpt lat="48.69291" lon="1.73957">
        <ele>164.19999694824</ele>
        <time>2014-03-07T10:51:06.000Z</time>
      </trkpt>
      <trkpt lat="48.69299" lon="1.73965">
        <ele>164.39999389648</ele>
        <time>2014-03-07T10:51:12.000Z</time>
      </trkpt>
      <trkpt lat="48.69307" lon="1.73974">
        <ele>164.39999389648</ele>
        <time>2014-03-07T10:51:18.000Z</time>
      </trkpt>
      <trkpt lat="48.69309" lon="1.73978">
        <ele>164.39999389648</ele>
        <time>2014-03-07T10:51:21.000Z</time>
      </trkpt>
      <trkpt lat="48.69316" lon="1.7399">
        <ele>164.60000610352</ele>
        <time>2014-03-07T10:51:27.000Z</time>
      </trkpt>
      <trkpt lat="48.69317" lon="1.7399">
        <ele>164.60000610352</ele>
        <time>2014-03-07T10:51:30.000Z</time>
      </trkpt>
      <trkpt lat="48.69323" lon="1.73996">
        <ele>164.60000610352</ele>
        <time>2014-03-07T10:51:42.000Z</time>
      </trkpt>
      <trkpt lat="48.6933" lon="1.74004">
        <ele>164.60000610352</ele>
        <time>2014-03-07T10:51:46.000Z</time>
      </trkpt>
      <trkpt lat="48.69337" lon="1.74016">
        <ele>164.19999694824</ele>
        <time>2014-03-07T10:51:53.000Z</time>
      </trkpt>
      <trkpt lat="48.69339" lon="1.7402">
        <ele>164</ele>
        <time>2014-03-07T10:51:55.000Z</time>
      </trkpt>
      <trkpt lat="48.69345" lon="1.74028">
        <ele>164</ele>
        <time>2014-03-07T10:52:00.000Z</time>
      </trkpt>
      <trkpt lat="48.69348" lon="1.74031">
        <ele>164.19999694824</ele>
        <time>2014-03-07T10:52:02.000Z</time>
      </trkpt>
      <trkpt lat="48.69354" lon="1.74038">
        <ele>164.19999694824</ele>
        <time>2014-03-07T10:52:07.000Z</time>
      </trkpt>
      <trkpt lat="48.69365" lon="1.7405">
        <ele>164.19999694824</ele>
        <time>2014-03-07T10:52:15.000Z</time>
      </trkpt>
      <trkpt lat="48.69371" lon="1.74058">
        <ele>164.39999389648</ele>
        <time>2014-03-07T10:52:20.000Z</time>
      </trkpt>
      <trkpt lat="48.69377" lon="1.74064">
        <ele>164.39999389648</ele>
        <time>2014-03-07T10:52:25.000Z</time>
      </trkpt>
      <trkpt lat="48.69381" lon="1.74068">
        <ele>164.60000610352</ele>
        <time>2014-03-07T10:52:28.000Z</time>
      </trkpt>
      <trkpt lat="48.69387" lon="1.74075">
        <ele>164.60000610352</ele>
        <time>2014-03-07T10:52:33.000Z</time>
      </trkpt>
      <trkpt lat="48.69399" lon="1.74086">
        <ele>165.19999694824</ele>
        <time>2014-03-07T10:52:40.000Z</time>
      </trkpt>
      <trkpt lat="48.6941" lon="1.74098">
        <ele>165.80000305176</ele>
        <time>2014-03-07T10:52:48.000Z</time>
      </trkpt>
      <trkpt lat="48.69421" lon="1.7411">
        <ele>166.80000305176</ele>
        <time>2014-03-07T10:52:54.000Z</time>
      </trkpt>
      <trkpt lat="48.69427" lon="1.74117">
        <ele>167.39999389648</ele>
        <time>2014-03-07T10:52:59.000Z</time>
      </trkpt>
      <trkpt lat="48.69432" lon="1.74125">
        <ele>168</ele>
        <time>2014-03-07T10:53:05.000Z</time>
      </trkpt>
      <trkpt lat="48.69438" lon="1.74133">
        <ele>168.80000305176</ele>
        <time>2014-03-07T10:53:11.000Z</time>
      </trkpt>
      <trkpt lat="48.69444" lon="1.74143">
        <ele>169.39999389648</ele>
        <time>2014-03-07T10:53:18.000Z</time>
      </trkpt>
      <trkpt lat="48.6945" lon="1.74152">
        <ele>170</ele>
        <time>2014-03-07T10:53:24.000Z</time>
      </trkpt>
      <trkpt lat="48.6946" lon="1.74163">
        <ele>171.39999389648</ele>
        <time>2014-03-07T10:53:32.000Z</time>
      </trkpt>
      <trkpt lat="48.69466" lon="1.74171">
        <ele>172.19999694824</ele>
        <time>2014-03-07T10:53:38.000Z</time>
      </trkpt>
      <trkpt lat="48.69473" lon="1.74181">
        <ele>173</ele>
        <time>2014-03-07T10:53:45.000Z</time>
      </trkpt>
      <trkpt lat="48.69474" lon="1.74182">
        <ele>173</ele>
        <time>2014-03-07T10:53:46.000Z</time>
      </trkpt>
      <trkpt lat="48.69482" lon="1.74191">
        <ele>173.80000305176</ele>
        <time>2014-03-07T10:53:53.000Z</time>
      </trkpt>
      <trkpt lat="48.69483" lon="1.74195">
        <ele>173.80000305176</ele>
        <time>2014-03-07T10:53:55.000Z</time>
      </trkpt>
      <trkpt lat="48.69486" lon="1.74197">
        <ele>174</ele>
        <time>2014-03-07T10:53:57.000Z</time>
      </trkpt>
      <trkpt lat="48.69494" lon="1.74207">
        <ele>174.80000305176</ele>
        <time>2014-03-07T10:54:05.000Z</time>
      </trkpt>
      <trkpt lat="48.69501" lon="1.74203">
        <ele>175.80000305176</ele>
        <time>2014-03-07T10:54:10.000Z</time>
      </trkpt>
      <trkpt lat="48.69506" lon="1.74196">
        <ele>176.19999694824</ele>
        <time>2014-03-07T10:54:14.000Z</time>
      </trkpt>
      <trkpt lat="48.69512" lon="1.74184">
        <ele>177</ele>
        <time>2014-03-07T10:54:21.000Z</time>
      </trkpt>
      <trkpt lat="48.69517" lon="1.74174">
        <ele>177.39999389648</ele>
        <time>2014-03-07T10:54:27.000Z</time>
      </trkpt>
      <trkpt lat="48.69524" lon="1.74161">
        <ele>177.80000305176</ele>
        <time>2014-03-07T10:54:34.000Z</time>
      </trkpt>
      <trkpt lat="48.69527" lon="1.74156">
        <ele>177.80000305176</ele>
        <time>2014-03-07T10:54:37.000Z</time>
      </trkpt>
      <trkpt lat="48.69528" lon="1.74155">
        <ele>177.80000305176</ele>
        <time>2014-03-07T10:54:40.000Z</time>
      </trkpt>
      <trkpt lat="48.69534" lon="1.74143">
        <ele>178</ele>
        <time>2014-03-07T10:54:45.000Z</time>
      </trkpt>
      <trkpt lat="48.69539" lon="1.74128">
        <ele>178.19999694824</ele>
        <time>2014-03-07T10:54:52.000Z</time>
      </trkpt>
      <trkpt lat="48.6954" lon="1.74126">
        <ele>178.19999694824</ele>
        <time>2014-03-07T10:54:53.000Z</time>
      </trkpt>
      <trkpt lat="48.69543" lon="1.7412">
        <ele>178.39999389648</ele>
        <time>2014-03-07T10:54:57.000Z</time>
      </trkpt>
      <trkpt lat="48.69552" lon="1.74105">
        <ele>178.39999389648</ele>
        <time>2014-03-07T10:55:05.000Z</time>
      </trkpt>
      <trkpt lat="48.69555" lon="1.74097">
        <ele>178.39999389648</ele>
        <time>2014-03-07T10:55:09.000Z</time>
      </trkpt>
      <trkpt lat="48.6956" lon="1.74085">
        <ele>178.60000610352</ele>
        <time>2014-03-07T10:55:15.000Z</time>
      </trkpt>
      <trkpt lat="48.69566" lon="1.74076">
        <ele>178.60000610352</ele>
        <time>2014-03-07T10:55:20.000Z</time>
      </trkpt>
      <trkpt lat="48.69569" lon="1.7407">
        <ele>178.60000610352</ele>
        <time>2014-03-07T10:55:23.000Z</time>
      </trkpt>
      <trkpt lat="48.69576" lon="1.74058">
        <ele>178.80000305176</ele>
        <time>2014-03-07T10:55:30.000Z</time>
      </trkpt>
      <trkpt lat="48.69578" lon="1.74056">
        <ele>178.80000305176</ele>
        <time>2014-03-07T10:55:31.000Z</time>
      </trkpt>
      <trkpt lat="48.69585" lon="1.74043">
        <ele>178.80000305176</ele>
        <time>2014-03-07T10:55:38.000Z</time>
      </trkpt>
      <trkpt lat="48.69592" lon="1.74029">
        <ele>178.60000610352</ele>
        <time>2014-03-07T10:55:46.000Z</time>
      </trkpt>
      <trkpt lat="48.69593" lon="1.74027">
        <ele>178.60000610352</ele>
        <time>2014-03-07T10:55:47.000Z</time>
      </trkpt>
      <trkpt lat="48.69597" lon="1.74018">
        <ele>178.60000610352</ele>
        <time>2014-03-07T10:55:53.000Z</time>
      </trkpt>
      <trkpt lat="48.69603" lon="1.74004">
        <ele>178.39999389648</ele>
        <time>2014-03-07T10:56:01.000Z</time>
      </trkpt>
      <trkpt lat="48.69605" lon="1.74002">
        <ele>178.39999389648</ele>
        <time>2014-03-07T10:56:02.000Z</time>
      </trkpt>
      <trkpt lat="48.69613" lon="1.73994">
        <ele>178</ele>
        <time>2014-03-07T10:56:09.000Z</time>
      </trkpt>
      <trkpt lat="48.69618" lon="1.74002">
        <ele>177.39999389648</ele>
        <time>2014-03-07T10:56:15.000Z</time>
      </trkpt>
      <trkpt lat="48.69622" lon="1.74015">
        <ele>176.80000305176</ele>
        <time>2014-03-07T10:56:21.000Z</time>
      </trkpt>
      <trkpt lat="48.69624" lon="1.74019">
        <ele>176.60000610352</ele>
        <time>2014-03-07T10:56:23.000Z</time>
      </trkpt>
      <trkpt lat="48.69625" lon="1.74031">
        <ele>176.19999694824</ele>
        <time>2014-03-07T10:56:28.000Z</time>
      </trkpt>
      <trkpt lat="48.69627" lon="1.74039">
        <ele>175.80000305176</ele>
        <time>2014-03-07T10:56:32.000Z</time>
      </trkpt>
      <trkpt lat="48.69629" lon="1.74043">
        <ele>175.60000610352</ele>
        <time>2014-03-07T10:56:34.000Z</time>
      </trkpt>
      <trkpt lat="48.69632" lon="1.74054">
        <ele>175.19999694824</ele>
        <time>2014-03-07T10:56:39.000Z</time>
      </trkpt>
      <trkpt lat="48.69633" lon="1.74059">
        <ele>175</ele>
        <time>2014-03-07T10:56:41.000Z</time>
      </trkpt>
      <trkpt lat="48.69635" lon="1.74063">
        <ele>174.80000305176</ele>
        <time>2014-03-07T10:56:43.000Z</time>
      </trkpt>
      <trkpt lat="48.6964" lon="1.74073">
        <ele>174.19999694824</ele>
        <time>2014-03-07T10:56:49.000Z</time>
      </trkpt>
      <trkpt lat="48.69644" lon="1.74086">
        <ele>173.60000610352</ele>
        <time>2014-03-07T10:56:55.000Z</time>
      </trkpt>
      <trkpt lat="48.69644" lon="1.74098">
        <ele>173.39999389648</ele>
        <time>2014-03-07T10:57:00.000Z</time>
      </trkpt>
      <trkpt lat="48.69647" lon="1.74115">
        <ele>173</ele>
        <time>2014-03-07T10:57:07.000Z</time>
      </trkpt>
      <trkpt lat="48.6965" lon="1.74124">
        <ele>172.80000305176</ele>
        <time>2014-03-07T10:57:11.000Z</time>
      </trkpt>
      <trkpt lat="48.69655" lon="1.74139">
        <ele>172.19999694824</ele>
        <time>2014-03-07T10:57:17.000Z</time>
      </trkpt>
      <trkpt lat="48.69656" lon="1.74155">
        <ele>171.80000305176</ele>
        <time>2014-03-07T10:57:23.000Z</time>
      </trkpt>
      <trkpt lat="48.69659" lon="1.74168">
        <ele>171.60000610352</ele>
        <time>2014-03-07T10:57:30.000Z</time>
      </trkpt>
      <trkpt lat="48.6966" lon="1.74172">
        <ele>171.39999389648</ele>
        <time>2014-03-07T10:57:32.000Z</time>
      </trkpt>
      <trkpt lat="48.69664" lon="1.74183">
        <ele>171.19999694824</ele>
        <time>2014-03-07T10:57:37.000Z</time>
      </trkpt>
      <trkpt lat="48.6967" lon="1.74198">
        <ele>170.80000305176</ele>
        <time>2014-03-07T10:57:45.000Z</time>
      </trkpt>
      <trkpt lat="48.69674" lon="1.74216">
        <ele>170.80000305176</ele>
        <time>2014-03-07T10:57:52.000Z</time>
      </trkpt>
      <trkpt lat="48.69675" lon="1.74231">
        <ele>170.80000305176</ele>
        <time>2014-03-07T10:57:59.000Z</time>
      </trkpt>
      <trkpt lat="48.69677" lon="1.74239">
        <ele>170.80000305176</ele>
        <time>2014-03-07T10:58:03.000Z</time>
      </trkpt>
      <trkpt lat="48.69681" lon="1.7425">
        <ele>170.60000610352</ele>
        <time>2014-03-07T10:58:07.000Z</time>
      </trkpt>
      <trkpt lat="48.69683" lon="1.74263">
        <ele>170.39999389648</ele>
        <time>2014-03-07T10:58:12.000Z</time>
      </trkpt>
      <trkpt lat="48.69687" lon="1.74273">
        <ele>170.19999694824</ele>
        <time>2014-03-07T10:58:17.000Z</time>
      </trkpt>
      <trkpt lat="48.69688" lon="1.74278">
        <ele>170</ele>
        <time>2014-03-07T10:58:19.000Z</time>
      </trkpt>
      <trkpt lat="48.69693" lon="1.74301">
        <ele>169.60000610352</ele>
        <time>2014-03-07T10:58:29.000Z</time>
      </trkpt>
      <trkpt lat="48.69696" lon="1.74319">
        <ele>169.19999694824</ele>
        <time>2014-03-07T10:58:37.000Z</time>
      </trkpt>
      <trkpt lat="48.69698" lon="1.74329">
        <ele>169</ele>
        <time>2014-03-07T10:58:41.000Z</time>
      </trkpt>
      <trkpt lat="48.69699" lon="1.74338">
        <ele>168.80000305176</ele>
        <time>2014-03-07T10:58:45.000Z</time>
      </trkpt>
      <trkpt lat="48.69701" lon="1.74343">
        <ele>168.60000610352</ele>
        <time>2014-03-07T10:58:48.000Z</time>
      </trkpt>
      <trkpt lat="48.69703" lon="1.74359">
        <ele>168</ele>
        <time>2014-03-07T10:58:55.000Z</time>
      </trkpt>
      <trkpt lat="48.69706" lon="1.74369">
        <ele>167.80000305176</ele>
        <time>2014-03-07T10:58:59.000Z</time>
      </trkpt>
      <trkpt lat="48.69707" lon="1.74376">
        <ele>167.60000610352</ele>
        <time>2014-03-07T10:59:02.000Z</time>
      </trkpt>
      <trkpt lat="48.6971" lon="1.74386">
        <ele>167.19999694824</ele>
        <time>2014-03-07T10:59:07.000Z</time>
      </trkpt>
      <trkpt lat="48.69713" lon="1.74393">
        <ele>167</ele>
        <time>2014-03-07T10:59:10.000Z</time>
      </trkpt>
      <trkpt lat="48.69715" lon="1.74401">
        <ele>166.60000610352</ele>
        <time>2014-03-07T10:59:13.000Z</time>
      </trkpt>
      <trkpt lat="48.69721" lon="1.74415">
        <ele>166</ele>
        <time>2014-03-07T10:59:19.000Z</time>
      </trkpt>
      <trkpt lat="48.69724" lon="1.74432">
        <ele>165.39999389648</ele>
        <time>2014-03-07T10:59:26.000Z</time>
      </trkpt>
      <trkpt lat="48.69726" lon="1.74446">
        <ele>165</ele>
        <time>2014-03-07T10:59:31.000Z</time>
      </trkpt>
      <trkpt lat="48.69728" lon="1.74453">
        <ele>164.60000610352</ele>
        <time>2014-03-07T10:59:35.000Z</time>
      </trkpt>
      <trkpt lat="48.6973" lon="1.74462">
        <ele>164.39999389648</ele>
        <time>2014-03-07T10:59:39.000Z</time>
      </trkpt>
      <trkpt lat="48.69735" lon="1.7447">
        <ele>164</ele>
        <time>2014-03-07T10:59:46.000Z</time>
      </trkpt>
      <trkpt lat="48.69741" lon="1.74476">
        <ele>163.80000305176</ele>
        <time>2014-03-07T10:59:51.000Z</time>
      </trkpt>
      <trkpt lat="48.69747" lon="1.74484">
        <ele>163.39999389648</ele>
        <time>2014-03-07T10:59:56.000Z</time>
      </trkpt>
      <trkpt lat="48.69744" lon="1.74496">
        <ele>163.19999694824</ele>
        <time>2014-03-07T11:00:02.000Z</time>
      </trkpt>
      <trkpt lat="48.69743" lon="1.74505">
        <ele>163</ele>
        <time>2014-03-07T11:00:06.000Z</time>
      </trkpt>
      <trkpt lat="48.69745" lon="1.74516">
        <ele>162.60000610352</ele>
        <time>2014-03-07T11:00:12.000Z</time>
      </trkpt>
      <trkpt lat="48.69747" lon="1.74528">
        <ele>162.39999389648</ele>
        <time>2014-03-07T11:00:17.000Z</time>
      </trkpt>
      <trkpt lat="48.69749" lon="1.74539">
        <ele>162</ele>
        <time>2014-03-07T11:00:20.000Z</time>
      </trkpt>
      <trkpt lat="48.69753" lon="1.74552">
        <ele>161.80000305176</ele>
        <time>2014-03-07T11:00:26.000Z</time>
      </trkpt>
      <trkpt lat="48.69753" lon="1.7456">
        <ele>161.60000610352</ele>
        <time>2014-03-07T11:00:30.000Z</time>
      </trkpt>
      <trkpt lat="48.69754" lon="1.74573">
        <ele>161.39999389648</ele>
        <time>2014-03-07T11:00:36.000Z</time>
      </trkpt>
      <trkpt lat="48.69756" lon="1.74581">
        <ele>161.19999694824</ele>
        <time>2014-03-07T11:00:40.000Z</time>
      </trkpt>
      <trkpt lat="48.69758" lon="1.74589">
        <ele>161.39999389648</ele>
        <time>2014-03-07T11:00:44.000Z</time>
      </trkpt>
      <trkpt lat="48.69762" lon="1.74601">
        <ele>162</ele>
        <time>2014-03-07T11:00:51.000Z</time>
      </trkpt>
      <trkpt lat="48.69764" lon="1.74615">
        <ele>162.60000610352</ele>
        <time>2014-03-07T11:00:59.000Z</time>
      </trkpt>
      <trkpt lat="48.69765" lon="1.74618">
        <ele>162.80000305176</ele>
        <time>2014-03-07T11:01:00.000Z</time>
      </trkpt>
      <trkpt lat="48.69769" lon="1.7463">
        <ele>163.39999389648</ele>
        <time>2014-03-07T11:01:06.000Z</time>
      </trkpt>
      <trkpt lat="48.69772" lon="1.74637">
        <ele>163.80000305176</ele>
        <time>2014-03-07T11:01:09.000Z</time>
      </trkpt>
      <trkpt lat="48.69774" lon="1.74653">
        <ele>164.60000610352</ele>
        <time>2014-03-07T11:01:16.000Z</time>
      </trkpt>
      <trkpt lat="48.69779" lon="1.7467">
        <ele>165.39999389648</ele>
        <time>2014-03-07T11:01:24.000Z</time>
      </trkpt>
      <trkpt lat="48.69781" lon="1.74675">
        <ele>165.80000305176</ele>
        <time>2014-03-07T11:01:27.000Z</time>
      </trkpt>
      <trkpt lat="48.69784" lon="1.74685">
        <ele>166.19999694824</ele>
        <time>2014-03-07T11:01:33.000Z</time>
      </trkpt>
      <trkpt lat="48.69787" lon="1.74702">
        <ele>166.80000305176</ele>
        <time>2014-03-07T11:01:41.000Z</time>
      </trkpt>
      <trkpt lat="48.69788" lon="1.74717">
        <ele>167.39999389648</ele>
        <time>2014-03-07T11:01:48.000Z</time>
      </trkpt>
      <trkpt lat="48.69792" lon="1.74728">
        <ele>168.19999694824</ele>
        <time>2014-03-07T11:01:54.000Z</time>
      </trkpt>
      <trkpt lat="48.69793" lon="1.74735">
        <ele>168.60000610352</ele>
        <time>2014-03-07T11:01:57.000Z</time>
      </trkpt>
      <trkpt lat="48.69794" lon="1.7474">
        <ele>168.80000305176</ele>
        <time>2014-03-07T11:02:00.000Z</time>
      </trkpt>
      <trkpt lat="48.69799" lon="1.74753">
        <ele>169.80000305176</ele>
        <time>2014-03-07T11:02:08.000Z</time>
      </trkpt>
      <trkpt lat="48.69803" lon="1.74766">
        <ele>170</ele>
        <time>2014-03-07T11:02:15.000Z</time>
      </trkpt>
      <trkpt lat="48.69806" lon="1.74788">
        <ele>170</ele>
        <time>2014-03-07T11:02:26.000Z</time>
      </trkpt>
      <trkpt lat="48.69809" lon="1.74802">
        <ele>170</ele>
        <time>2014-03-07T11:02:33.000Z</time>
      </trkpt>
      <trkpt lat="48.69811" lon="1.74813">
        <ele>169.80000305176</ele>
        <time>2014-03-07T11:02:39.000Z</time>
      </trkpt>
      <trkpt lat="48.69814" lon="1.74827">
        <ele>169.80000305176</ele>
        <time>2014-03-07T11:02:46.000Z</time>
      </trkpt>
      <trkpt lat="48.69819" lon="1.7484">
        <ele>169.80000305176</ele>
        <time>2014-03-07T11:02:53.000Z</time>
      </trkpt>
      <trkpt lat="48.6982" lon="1.74851">
        <ele>169.39999389648</ele>
        <time>2014-03-07T11:02:58.000Z</time>
      </trkpt>
      <trkpt lat="48.69822" lon="1.74856">
        <ele>169.19999694824</ele>
        <time>2014-03-07T11:03:01.000Z</time>
      </trkpt>
      <trkpt lat="48.69826" lon="1.74865">
        <ele>169.19999694824</ele>
        <time>2014-03-07T11:03:06.000Z</time>
      </trkpt>
      <trkpt lat="48.6983" lon="1.7487">
        <ele>169</ele>
        <time>2014-03-07T11:03:10.000Z</time>
      </trkpt>
      <trkpt lat="48.69841" lon="1.74868">
        <ele>169.39999389648</ele>
        <time>2014-03-07T11:03:16.000Z</time>
      </trkpt>
      <trkpt lat="48.69852" lon="1.74864">
        <ele>169.80000305176</ele>
        <time>2014-03-07T11:03:24.000Z</time>
      </trkpt>
      <trkpt lat="48.69864" lon="1.74858">
        <ele>170</ele>
        <time>2014-03-07T11:03:33.000Z</time>
      </trkpt>
      <trkpt lat="48.69866" lon="1.74858">
        <ele>170.19999694824</ele>
        <time>2014-03-07T11:03:35.000Z</time>
      </trkpt>
      <trkpt lat="48.69866" lon="1.74855">
        <ele>170.19999694824</ele>
        <time>2014-03-07T11:03:37.000Z</time>
      </trkpt>
      <trkpt lat="48.69877" lon="1.74851">
        <ele>170.19999694824</ele>
        <time>2014-03-07T11:03:44.000Z</time>
      </trkpt>
      <trkpt lat="48.69883" lon="1.74849">
        <ele>170.39999389648</ele>
        <time>2014-03-07T11:03:49.000Z</time>
      </trkpt>
      <trkpt lat="48.69889" lon="1.74846">
        <ele>170.39999389648</ele>
        <time>2014-03-07T11:03:54.000Z</time>
      </trkpt>
      <trkpt lat="48.69901" lon="1.74841">
        <ele>170.19999694824</ele>
        <time>2014-03-07T11:04:03.000Z</time>
      </trkpt>
      <trkpt lat="48.69909" lon="1.74838">
        <ele>170.19999694824</ele>
        <time>2014-03-07T11:04:09.000Z</time>
      </trkpt>
      <trkpt lat="48.69918" lon="1.74834">
        <ele>170</ele>
        <time>2014-03-07T11:04:16.000Z</time>
      </trkpt>
      <trkpt lat="48.69927" lon="1.74829">
        <ele>170.19999694824</ele>
        <time>2014-03-07T11:04:23.000Z</time>
      </trkpt>
      <trkpt lat="48.69937" lon="1.74826">
        <ele>170.39999389648</ele>
        <time>2014-03-07T11:04:29.000Z</time>
      </trkpt>
      <trkpt lat="48.69947" lon="1.74822">
        <ele>170.39999389648</ele>
        <time>2014-03-07T11:04:36.000Z</time>
      </trkpt>
      <trkpt lat="48.69953" lon="1.74819">
        <ele>170.39999389648</ele>
        <time>2014-03-07T11:04:41.000Z</time>
      </trkpt>
      <trkpt lat="48.69962" lon="1.74815">
        <ele>170.39999389648</ele>
        <time>2014-03-07T11:04:47.000Z</time>
      </trkpt>
      <trkpt lat="48.69974" lon="1.74809">
        <ele>170.19999694824</ele>
        <time>2014-03-07T11:04:55.000Z</time>
      </trkpt>
      <trkpt lat="48.69987" lon="1.74804">
        <ele>170</ele>
        <time>2014-03-07T11:05:03.000Z</time>
      </trkpt>
      <trkpt lat="48.69996" lon="1.74799">
        <ele>169.80000305176</ele>
        <time>2014-03-07T11:05:10.000Z</time>
      </trkpt>
      <trkpt lat="48.70003" lon="1.74795">
        <ele>169.80000305176</ele>
        <time>2014-03-07T11:05:15.000Z</time>
      </trkpt>
      <trkpt lat="48.70014" lon="1.74789">
        <ele>170.19999694824</ele>
        <time>2014-03-07T11:05:22.000Z</time>
      </trkpt>
      <trkpt lat="48.70025" lon="1.74785">
        <ele>170.80000305176</ele>
        <time>2014-03-07T11:05:29.000Z</time>
      </trkpt>
      <trkpt lat="48.70029" lon="1.74785">
        <ele>171</ele>
        <time>2014-03-07T11:05:32.000Z</time>
      </trkpt>
      <trkpt lat="48.70032" lon="1.74789">
        <ele>171.19999694824</ele>
        <time>2014-03-07T11:05:36.000Z</time>
      </trkpt>
      <trkpt lat="48.70036" lon="1.74798">
        <ele>171.60000610352</ele>
        <time>2014-03-07T11:05:42.000Z</time>
      </trkpt>
      <trkpt lat="48.70041" lon="1.74798">
        <ele>171.80000305176</ele>
        <time>2014-03-07T11:05:49.000Z</time>
      </trkpt>
      <trkpt lat="48.70041" lon="1.74798">
        <ele>171.80000305176</ele>
        <time>2014-03-07T11:05:50.000Z</time>
      </trkpt>
      <trkpt lat="48.70042" lon="1.74789">
        <ele>171.80000305176</ele>
        <time>2014-03-07T11:05:58.000Z</time>
      </trkpt>
      <trkpt lat="48.70049" lon="1.74773">
        <ele>171.80000305176</ele>
        <time>2014-03-07T11:06:06.000Z</time>
      </trkpt>
      <trkpt lat="48.70055" lon="1.7477">
        <ele>172.19999694824</ele>
        <time>2014-03-07T11:06:11.000Z</time>
      </trkpt>
      <trkpt lat="48.70066" lon="1.74767">
        <ele>172.80000305176</ele>
        <time>2014-03-07T11:06:18.000Z</time>
      </trkpt>
      <trkpt lat="48.70077" lon="1.74762">
        <ele>173.60000610352</ele>
        <time>2014-03-07T11:06:26.000Z</time>
      </trkpt>
      <trkpt lat="48.70086" lon="1.74756">
        <ele>174</ele>
        <time>2014-03-07T11:06:32.000Z</time>
      </trkpt>
      <trkpt lat="48.70088" lon="1.74754">
        <ele>174.19999694824</ele>
        <time>2014-03-07T11:06:34.000Z</time>
      </trkpt>
      <trkpt lat="48.70093" lon="1.74752">
        <ele>174.39999389648</ele>
        <time>2014-03-07T11:06:38.000Z</time>
      </trkpt>
      <trkpt lat="48.70101" lon="1.74749">
        <ele>174.60000610352</ele>
        <time>2014-03-07T11:06:44.000Z</time>
      </trkpt>
      <trkpt lat="48.70106" lon="1.74747">
        <ele>174.80000305176</ele>
        <time>2014-03-07T11:06:48.000Z</time>
      </trkpt>
      <trkpt lat="48.70114" lon="1.74741">
        <ele>174.80000305176</ele>
        <time>2014-03-07T11:06:54.000Z</time>
      </trkpt>
      <trkpt lat="48.70115" lon="1.7474">
        <ele>174.80000305176</ele>
        <time>2014-03-07T11:06:55.000Z</time>
      </trkpt>
      <trkpt lat="48.70125" lon="1.74729">
        <ele>174.80000305176</ele>
        <time>2014-03-07T11:07:02.000Z</time>
      </trkpt>
      <trkpt lat="48.7013" lon="1.74726">
        <ele>174.80000305176</ele>
        <time>2014-03-07T11:07:06.000Z</time>
      </trkpt>
      <trkpt lat="48.70141" lon="1.7472">
        <ele>175</ele>
        <time>2014-03-07T11:07:14.000Z</time>
      </trkpt>
      <trkpt lat="48.70153" lon="1.74713">
        <ele>175</ele>
        <time>2014-03-07T11:07:21.000Z</time>
      </trkpt>
      <trkpt lat="48.70166" lon="1.74705">
        <ele>174.80000305176</ele>
        <time>2014-03-07T11:07:29.000Z</time>
      </trkpt>
      <trkpt lat="48.7017" lon="1.74704">
        <ele>174.60000610352</ele>
        <time>2014-03-07T11:07:32.000Z</time>
      </trkpt>
      <trkpt lat="48.70179" lon="1.74705">
        <ele>174</ele>
        <time>2014-03-07T11:07:39.000Z</time>
      </trkpt>
      <trkpt lat="48.70181" lon="1.74706">
        <ele>174</ele>
        <time>2014-03-07T11:07:40.000Z</time>
      </trkpt>
      <trkpt lat="48.7019" lon="1.74704">
        <ele>173.19999694824</ele>
        <time>2014-03-07T11:07:45.000Z</time>
      </trkpt>
      <trkpt lat="48.70201" lon="1.74699">
        <ele>172.39999389648</ele>
        <time>2014-03-07T11:07:53.000Z</time>
      </trkpt>
      <trkpt lat="48.70208" lon="1.74697">
        <ele>171.80000305176</ele>
        <time>2014-03-07T11:07:58.000Z</time>
      </trkpt>
      <trkpt lat="48.70219" lon="1.74693">
        <ele>171</ele>
        <time>2014-03-07T11:08:04.000Z</time>
      </trkpt>
      <trkpt lat="48.70228" lon="1.74688">
        <ele>170.19999694824</ele>
        <time>2014-03-07T11:08:10.000Z</time>
      </trkpt>
      <trkpt lat="48.70237" lon="1.74685">
        <ele>169.39999389648</ele>
        <time>2014-03-07T11:08:16.000Z</time>
      </trkpt>
      <trkpt lat="48.70245" lon="1.74682">
        <ele>168.80000305176</ele>
        <time>2014-03-07T11:08:21.000Z</time>
      </trkpt>
      <trkpt lat="48.70254" lon="1.74677">
        <ele>168.39999389648</ele>
        <time>2014-03-07T11:08:28.000Z</time>
      </trkpt>
      <trkpt lat="48.7026" lon="1.74675">
        <ele>168.39999389648</ele>
        <time>2014-03-07T11:08:32.000Z</time>
      </trkpt>
      <trkpt lat="48.7027" lon="1.74671">
        <ele>168.39999389648</ele>
        <time>2014-03-07T11:08:39.000Z</time>
      </trkpt>
      <trkpt lat="48.70276" lon="1.74668">
        <ele>168.39999389648</ele>
        <time>2014-03-07T11:08:42.000Z</time>
      </trkpt>
      <trkpt lat="48.70283" lon="1.74667">
        <ele>168.39999389648</ele>
        <time>2014-03-07T11:08:46.000Z</time>
      </trkpt>
      <trkpt lat="48.70285" lon="1.74671">
        <ele>168.39999389648</ele>
        <time>2014-03-07T11:08:50.000Z</time>
      </trkpt>
      <trkpt lat="48.70285" lon="1.74677">
        <ele>168.60000610352</ele>
        <time>2014-03-07T11:08:53.000Z</time>
      </trkpt>
      <trkpt lat="48.70284" lon="1.74688">
        <ele>168.80000305176</ele>
        <time>2014-03-07T11:09:00.000Z</time>
      </trkpt>
      <trkpt lat="48.7028" lon="1.74704">
        <ele>169</ele>
        <time>2014-03-07T11:09:07.000Z</time>
      </trkpt>
      <trkpt lat="48.70277" lon="1.74727">
        <ele>169.60000610352</ele>
        <time>2014-03-07T11:09:17.000Z</time>
      </trkpt>
      <trkpt lat="48.70273" lon="1.74745">
        <ele>170</ele>
        <time>2014-03-07T11:09:25.000Z</time>
      </trkpt>
      <trkpt lat="48.70272" lon="1.74747">
        <ele>170.19999694824</ele>
        <time>2014-03-07T11:09:26.000Z</time>
      </trkpt>
      <trkpt lat="48.7027" lon="1.74755">
        <ele>170.39999389648</ele>
        <time>2014-03-07T11:09:30.000Z</time>
      </trkpt>
      <trkpt lat="48.70268" lon="1.74766">
        <ele>170.60000610352</ele>
        <time>2014-03-07T11:09:35.000Z</time>
      </trkpt>
      <trkpt lat="48.70268" lon="1.74779">
        <ele>171</ele>
        <time>2014-03-07T11:09:41.000Z</time>
      </trkpt>
      <trkpt lat="48.70264" lon="1.74794">
        <ele>171.39999389648</ele>
        <time>2014-03-07T11:09:48.000Z</time>
      </trkpt>
      <trkpt lat="48.70264" lon="1.74804">
        <ele>171.60000610352</ele>
        <time>2014-03-07T11:09:53.000Z</time>
      </trkpt>
      <trkpt lat="48.70262" lon="1.74823">
        <ele>172.19999694824</ele>
        <time>2014-03-07T11:10:01.000Z</time>
      </trkpt>
      <trkpt lat="48.70259" lon="1.74845">
        <ele>172.60000610352</ele>
        <time>2014-03-07T11:10:11.000Z</time>
      </trkpt>
      <trkpt lat="48.70255" lon="1.74869">
        <ele>172.80000305176</ele>
        <time>2014-03-07T11:10:22.000Z</time>
      </trkpt>
      <trkpt lat="48.70253" lon="1.74883">
        <ele>172.80000305176</ele>
        <time>2014-03-07T11:10:29.000Z</time>
      </trkpt>
      <trkpt lat="48.70253" lon="1.74885">
        <ele>173</ele>
        <time>2014-03-07T11:10:30.000Z</time>
      </trkpt>
      <trkpt lat="48.70253" lon="1.74886">
        <ele>173</ele>
        <time>2014-03-07T11:10:33.000Z</time>
      </trkpt>
      <trkpt lat="48.70251" lon="1.74895">
        <ele>173</ele>
        <time>2014-03-07T11:10:41.000Z</time>
      </trkpt>
      <trkpt lat="48.70248" lon="1.74913">
        <ele>173</ele>
        <time>2014-03-07T11:10:48.000Z</time>
      </trkpt>
      <trkpt lat="48.70245" lon="1.74929">
        <ele>173.80000305176</ele>
        <time>2014-03-07T11:10:55.000Z</time>
      </trkpt>
      <trkpt lat="48.70243" lon="1.74939">
        <ele>174.19999694824</ele>
        <time>2014-03-07T11:10:59.000Z</time>
      </trkpt>
      <trkpt lat="48.70241" lon="1.74952">
        <ele>175</ele>
        <time>2014-03-07T11:11:05.000Z</time>
      </trkpt>
      <trkpt lat="48.70237" lon="1.74969">
        <ele>175.80000305176</ele>
        <time>2014-03-07T11:11:13.000Z</time>
      </trkpt>
      <trkpt lat="48.70235" lon="1.74985">
        <ele>176.60000610352</ele>
        <time>2014-03-07T11:11:20.000Z</time>
      </trkpt>
      <trkpt lat="48.70233" lon="1.75006">
        <ele>177.39999389648</ele>
        <time>2014-03-07T11:11:29.000Z</time>
      </trkpt>
      <trkpt lat="48.70231" lon="1.75017">
        <ele>177.60000610352</ele>
        <time>2014-03-07T11:11:34.000Z</time>
      </trkpt>
      <trkpt lat="48.70228" lon="1.75028">
        <ele>177.80000305176</ele>
        <time>2014-03-07T11:11:40.000Z</time>
      </trkpt>
      <trkpt lat="48.70227" lon="1.75035">
        <ele>177.80000305176</ele>
        <time>2014-03-07T11:11:43.000Z</time>
      </trkpt>
      <trkpt lat="48.70225" lon="1.75049">
        <ele>178.19999694824</ele>
        <time>2014-03-07T11:11:49.000Z</time>
      </trkpt>
      <trkpt lat="48.70225" lon="1.7506">
        <ele>178.39999389648</ele>
        <time>2014-03-07T11:11:54.000Z</time>
      </trkpt>
      <trkpt lat="48.70224" lon="1.75071">
        <ele>178.39999389648</ele>
        <time>2014-03-07T11:11:59.000Z</time>
      </trkpt>
      <trkpt lat="48.70221" lon="1.75083">
        <ele>178.60000610352</ele>
        <time>2014-03-07T11:12:04.000Z</time>
      </trkpt>
      <trkpt lat="48.70219" lon="1.75094">
        <ele>178.60000610352</ele>
        <time>2014-03-07T11:12:09.000Z</time>
      </trkpt>
      <trkpt lat="48.70217" lon="1.75105">
        <ele>178.39999389648</ele>
        <time>2014-03-07T11:12:14.000Z</time>
      </trkpt>
      <trkpt lat="48.70214" lon="1.75121">
        <ele>178.19999694824</ele>
        <time>2014-03-07T11:12:21.000Z</time>
      </trkpt>
      <trkpt lat="48.70211" lon="1.75131">
        <ele>178</ele>
        <time>2014-03-07T11:12:25.000Z</time>
      </trkpt>
      <trkpt lat="48.70209" lon="1.75148">
        <ele>177.80000305176</ele>
        <time>2014-03-07T11:12:32.000Z</time>
      </trkpt>
      <trkpt lat="48.70208" lon="1.75159">
        <ele>177.60000610352</ele>
        <time>2014-03-07T11:12:36.000Z</time>
      </trkpt>
      <trkpt lat="48.7021" lon="1.75168">
        <ele>177.60000610352</ele>
        <time>2014-03-07T11:12:41.000Z</time>
      </trkpt>
      <trkpt lat="48.70211" lon="1.7518">
        <ele>177.60000610352</ele>
        <time>2014-03-07T11:12:47.000Z</time>
      </trkpt>
      <trkpt lat="48.7021" lon="1.75189">
        <ele>177.60000610352</ele>
        <time>2014-03-07T11:12:51.000Z</time>
      </trkpt>
      <trkpt lat="48.7021" lon="1.75194">
        <ele>177.80000305176</ele>
        <time>2014-03-07T11:12:54.000Z</time>
      </trkpt>
      <trkpt lat="48.70211" lon="1.7519">
        <ele>177.80000305176</ele>
        <time>2014-03-07T11:12:58.000Z</time>
      </trkpt>
      <trkpt lat="48.70212" lon="1.75183">
        <ele>177.80000305176</ele>
        <time>2014-03-07T11:13:05.000Z</time>
      </trkpt>
      <trkpt lat="48.70211" lon="1.75182">
        <ele>177.80000305176</ele>
        <time>2014-03-07T11:13:06.000Z</time>
      </trkpt>
      <trkpt lat="48.7021" lon="1.75188">
        <ele>177.60000610352</ele>
        <time>2014-03-07T11:13:40.000Z</time>
      </trkpt>
      <trkpt lat="48.70207" lon="1.75196">
        <ele>177.60000610352</ele>
        <time>2014-03-07T11:13:44.000Z</time>
      </trkpt>
      <trkpt lat="48.70205" lon="1.75205">
        <ele>177.60000610352</ele>
        <time>2014-03-07T11:13:49.000Z</time>
      </trkpt>
      <trkpt lat="48.70202" lon="1.75224">
        <ele>177.60000610352</ele>
        <time>2014-03-07T11:13:56.000Z</time>
      </trkpt>
      <trkpt lat="48.70201" lon="1.75232">
        <ele>177.60000610352</ele>
        <time>2014-03-07T11:13:59.000Z</time>
      </trkpt>
      <trkpt lat="48.70205" lon="1.75241">
        <ele>177.80000305176</ele>
        <time>2014-03-07T11:14:06.000Z</time>
      </trkpt>
      <trkpt lat="48.70208" lon="1.75241">
        <ele>178</ele>
        <time>2014-03-07T11:14:08.000Z</time>
      </trkpt>
      <trkpt lat="48.70214" lon="1.75239">
        <ele>178.19999694824</ele>
        <time>2014-03-07T11:14:11.000Z</time>
      </trkpt>
      <trkpt lat="48.7022" lon="1.75239">
        <ele>178.39999389648</ele>
        <time>2014-03-07T11:14:17.000Z</time>
      </trkpt>
      <trkpt lat="48.7022" lon="1.7524">
        <ele>178.39999389648</ele>
        <time>2014-03-07T11:14:18.000Z</time>
      </trkpt>
      <trkpt lat="48.70227" lon="1.75245">
        <ele>178.80000305176</ele>
        <time>2014-03-07T11:14:23.000Z</time>
      </trkpt>
      <trkpt lat="48.70237" lon="1.7525">
        <ele>179.39999389648</ele>
        <time>2014-03-07T11:14:30.000Z</time>
      </trkpt>
      <trkpt lat="48.70243" lon="1.75254">
        <ele>179.60000610352</ele>
        <time>2014-03-07T11:14:34.000Z</time>
      </trkpt>
      <trkpt lat="48.70247" lon="1.75265">
        <ele>179.60000610352</ele>
        <time>2014-03-07T11:14:42.000Z</time>
      </trkpt>
      <trkpt lat="48.70254" lon="1.75269">
        <ele>179.80000305176</ele>
        <time>2014-03-07T11:14:46.000Z</time>
      </trkpt>
      <trkpt lat="48.70266" lon="1.75277">
        <ele>180</ele>
        <time>2014-03-07T11:14:53.000Z</time>
      </trkpt>
      <trkpt lat="48.70272" lon="1.75281">
        <ele>180.19999694824</ele>
        <time>2014-03-07T11:14:57.000Z</time>
      </trkpt>
      <trkpt lat="48.70282" lon="1.75287">
        <ele>180.39999389648</ele>
        <time>2014-03-07T11:15:03.000Z</time>
      </trkpt>
      <trkpt lat="48.70283" lon="1.75287">
        <ele>180.39999389648</ele>
        <time>2014-03-07T11:15:04.000Z</time>
      </trkpt>
      <trkpt lat="48.70291" lon="1.75293">
        <ele>180.39999389648</ele>
        <time>2014-03-07T11:15:10.000Z</time>
      </trkpt>
      <trkpt lat="48.70298" lon="1.75299">
        <ele>180.60000610352</ele>
        <time>2014-03-07T11:15:15.000Z</time>
      </trkpt>
      <trkpt lat="48.70304" lon="1.75311">
        <ele>180.60000610352</ele>
        <time>2014-03-07T11:15:22.000Z</time>
      </trkpt>
      <trkpt lat="48.70308" lon="1.7532">
        <ele>180.60000610352</ele>
        <time>2014-03-07T11:15:27.000Z</time>
      </trkpt>
      <trkpt lat="48.70311" lon="1.75334">
        <ele>180.39999389648</ele>
        <time>2014-03-07T11:15:34.000Z</time>
      </trkpt>
      <trkpt lat="48.70313" lon="1.75337">
        <ele>180.60000610352</ele>
        <time>2014-03-07T11:15:36.000Z</time>
      </trkpt>
      <trkpt lat="48.70318" lon="1.75343">
        <ele>180.60000610352</ele>
        <time>2014-03-07T11:15:40.000Z</time>
      </trkpt>
      <trkpt lat="48.70322" lon="1.75349">
        <ele>180.60000610352</ele>
        <time>2014-03-07T11:15:44.000Z</time>
      </trkpt>
      <trkpt lat="48.70333" lon="1.75356">
        <ele>181</ele>
        <time>2014-03-07T11:15:52.000Z</time>
      </trkpt>
      <trkpt lat="48.70341" lon="1.75363">
        <ele>180.80000305176</ele>
        <time>2014-03-07T11:15:58.000Z</time>
      </trkpt>
      <trkpt lat="48.70343" lon="1.75365">
        <ele>180.80000305176</ele>
        <time>2014-03-07T11:16:00.000Z</time>
      </trkpt>
      <trkpt lat="48.70346" lon="1.7537">
        <ele>180.80000305176</ele>
        <time>2014-03-07T11:16:04.000Z</time>
      </trkpt>
      <trkpt lat="48.70351" lon="1.75375">
        <ele>180.80000305176</ele>
        <time>2014-03-07T11:16:08.000Z</time>
      </trkpt>
      <trkpt lat="48.70356" lon="1.75379">
        <ele>180.80000305176</ele>
        <time>2014-03-07T11:16:12.000Z</time>
      </trkpt>
      <trkpt lat="48.70361" lon="1.75384">
        <ele>180.80000305176</ele>
        <time>2014-03-07T11:16:16.000Z</time>
      </trkpt>
      <trkpt lat="48.70371" lon="1.75393">
        <ele>181</ele>
        <time>2014-03-07T11:16:24.000Z</time>
      </trkpt>
      <trkpt lat="48.70377" lon="1.75398">
        <ele>181</ele>
        <time>2014-03-07T11:16:29.000Z</time>
      </trkpt>
      <trkpt lat="48.70381" lon="1.75401">
        <ele>181.19999694824</ele>
        <time>2014-03-07T11:16:32.000Z</time>
      </trkpt>
      <trkpt lat="48.7039" lon="1.75403">
        <ele>181.19999694824</ele>
        <time>2014-03-07T11:16:39.000Z</time>
      </trkpt>
      <trkpt lat="48.70396" lon="1.75407">
        <ele>181.39999389648</ele>
        <time>2014-03-07T11:16:45.000Z</time>
      </trkpt>
      <trkpt lat="48.70404" lon="1.75413">
        <ele>181.60000610352</ele>
        <time>2014-03-07T11:16:51.000Z</time>
      </trkpt>
      <trkpt lat="48.7041" lon="1.7542">
        <ele>182</ele>
        <time>2014-03-07T11:16:58.000Z</time>
      </trkpt>
      <trkpt lat="48.70414" lon="1.75423">
        <ele>182.19999694824</ele>
        <time>2014-03-07T11:17:02.000Z</time>
      </trkpt>
      <trkpt lat="48.70425" lon="1.7543">
        <ele>181.80000305176</ele>
        <time>2014-03-07T11:17:10.000Z</time>
      </trkpt>
      <trkpt lat="48.70427" lon="1.75432">
        <ele>181.60000610352</ele>
        <time>2014-03-07T11:17:12.000Z</time>
      </trkpt>
      <trkpt lat="48.70437" lon="1.7544">
        <ele>181.39999389648</ele>
        <time>2014-03-07T11:17:20.000Z</time>
      </trkpt>
      <trkpt lat="48.70448" lon="1.75447">
        <ele>180.80000305176</ele>
        <time>2014-03-07T11:17:27.000Z</time>
      </trkpt>
      <trkpt lat="48.70455" lon="1.75452">
        <ele>180.60000610352</ele>
        <time>2014-03-07T11:17:33.000Z</time>
      </trkpt>
      <trkpt lat="48.70464" lon="1.7546">
        <ele>180.60000610352</ele>
        <time>2014-03-07T11:17:40.000Z</time>
      </trkpt>
      <trkpt lat="48.7047" lon="1.75468">
        <ele>180.60000610352</ele>
        <time>2014-03-07T11:17:46.000Z</time>
      </trkpt>
      <trkpt lat="48.70477" lon="1.75479">
        <ele>180.80000305176</ele>
        <time>2014-03-07T11:17:54.000Z</time>
      </trkpt>
      <trkpt lat="48.7048" lon="1.75483">
        <ele>180.80000305176</ele>
        <time>2014-03-07T11:17:58.000Z</time>
      </trkpt>
      <trkpt lat="48.70491" lon="1.75495">
        <ele>181</ele>
        <time>2014-03-07T11:18:08.000Z</time>
      </trkpt>
      <trkpt lat="48.70502" lon="1.75503">
        <ele>181</ele>
        <time>2014-03-07T11:18:16.000Z</time>
      </trkpt>
      <trkpt lat="48.7051" lon="1.7551">
        <ele>180.60000610352</ele>
        <time>2014-03-07T11:18:22.000Z</time>
      </trkpt>
      <trkpt lat="48.70519" lon="1.75517">
        <ele>180.39999389648</ele>
        <time>2014-03-07T11:18:30.000Z</time>
      </trkpt>
      <trkpt lat="48.7052" lon="1.75518">
        <ele>180.60000610352</ele>
        <time>2014-03-07T11:18:31.000Z</time>
      </trkpt>
      <trkpt lat="48.70528" lon="1.75525">
        <ele>180.39999389648</ele>
        <time>2014-03-07T11:18:37.000Z</time>
      </trkpt>
      <trkpt lat="48.7053" lon="1.75528">
        <ele>180.39999389648</ele>
        <time>2014-03-07T11:18:40.000Z</time>
      </trkpt>
      <trkpt lat="48.70537" lon="1.75538">
        <ele>180.80000305176</ele>
        <time>2014-03-07T11:18:47.000Z</time>
      </trkpt>
      <trkpt lat="48.70544" lon="1.75546">
        <ele>181</ele>
        <time>2014-03-07T11:18:53.000Z</time>
      </trkpt>
      <trkpt lat="48.70554" lon="1.75556">
        <ele>181.39999389648</ele>
        <time>2014-03-07T11:19:00.000Z</time>
      </trkpt>
      <trkpt lat="48.70562" lon="1.75563">
        <ele>181.60000610352</ele>
        <time>2014-03-07T11:19:06.000Z</time>
      </trkpt>
      <trkpt lat="48.70569" lon="1.75571">
        <ele>182.19999694824</ele>
        <time>2014-03-07T11:19:12.000Z</time>
      </trkpt>
      <trkpt lat="48.70576" lon="1.7558">
        <ele>182.80000305176</ele>
        <time>2014-03-07T11:19:19.000Z</time>
      </trkpt>
      <trkpt lat="48.70586" lon="1.7559">
        <ele>182.80000305176</ele>
        <time>2014-03-07T11:19:27.000Z</time>
      </trkpt>
      <trkpt lat="48.70593" lon="1.75599">
        <ele>182.39999389648</ele>
        <time>2014-03-07T11:19:34.000Z</time>
      </trkpt>
      <trkpt lat="48.70594" lon="1.75601">
        <ele>182.39999389648</ele>
        <time>2014-03-07T11:19:35.000Z</time>
      </trkpt>
      <trkpt lat="48.70598" lon="1.75609">
        <ele>182</ele>
        <time>2014-03-07T11:19:40.000Z</time>
      </trkpt>
      <trkpt lat="48.70603" lon="1.75617">
        <ele>181.80000305176</ele>
        <time>2014-03-07T11:19:45.000Z</time>
      </trkpt>
      <trkpt lat="48.70609" lon="1.75626">
        <ele>181.19999694824</ele>
        <time>2014-03-07T11:19:51.000Z</time>
      </trkpt>
      <trkpt lat="48.70617" lon="1.75634">
        <ele>180.39999389648</ele>
        <time>2014-03-07T11:19:58.000Z</time>
      </trkpt>
      <trkpt lat="48.70624" lon="1.75645">
        <ele>179.80000305176</ele>
        <time>2014-03-07T11:20:06.000Z</time>
      </trkpt>
      <trkpt lat="48.70626" lon="1.75647">
        <ele>179.60000610352</ele>
        <time>2014-03-07T11:20:12.000Z</time>
      </trkpt>
      <trkpt lat="48.70634" lon="1.75645">
        <ele>178.80000305176</ele>
        <time>2014-03-07T11:21:02.000Z</time>
      </trkpt>
      <trkpt lat="48.70636" lon="1.75647">
        <ele>178.60000610352</ele>
        <time>2014-03-07T11:21:06.000Z</time>
      </trkpt>
      <trkpt lat="48.70636" lon="1.75646">
        <ele>178.39999389648</ele>
        <time>2014-03-07T11:21:10.000Z</time>
      </trkpt>
      <trkpt lat="48.70637" lon="1.75645">
        <ele>178.39999389648</ele>
        <time>2014-03-07T11:21:13.000Z</time>
      </trkpt>
      <trkpt lat="48.7064" lon="1.75635">
        <ele>178</ele>
        <time>2014-03-07T11:21:30.000Z</time>
      </trkpt>
      <trkpt lat="48.70643" lon="1.75624">
        <ele>177.60000610352</ele>
        <time>2014-03-07T11:21:33.000Z</time>
      </trkpt>
      <trkpt lat="48.70653" lon="1.75596">
        <ele>176.39999389648</ele>
        <time>2014-03-07T11:21:40.000Z</time>
      </trkpt>
      <trkpt lat="48.70662" lon="1.75578">
        <ele>175.39999389648</ele>
        <time>2014-03-07T11:21:45.000Z</time>
      </trkpt>
      <trkpt lat="48.70673" lon="1.75555">
        <ele>174.19999694824</ele>
        <time>2014-03-07T11:21:52.000Z</time>
      </trkpt>
      <trkpt lat="48.70679" lon="1.75545">
        <ele>173.80000305176</ele>
        <time>2014-03-07T11:21:55.000Z</time>
      </trkpt>
      <trkpt lat="48.70684" lon="1.75537">
        <ele>173.39999389648</ele>
        <time>2014-03-07T11:22:00.000Z</time>
      </trkpt>
      <trkpt lat="48.70688" lon="1.75527">
        <ele>173</ele>
        <time>2014-03-07T11:22:06.000Z</time>
      </trkpt>
      <trkpt lat="48.7069" lon="1.75522">
        <ele>172.80000305176</ele>
        <time>2014-03-07T11:22:09.000Z</time>
      </trkpt>
      <trkpt lat="48.70692" lon="1.75516">
        <ele>172.80000305176</ele>
        <time>2014-03-07T11:22:14.000Z</time>
      </trkpt>
      <trkpt lat="48.70692" lon="1.75515">
        <ele>172.60000610352</ele>
        <time>2014-03-07T11:22:15.000Z</time>
      </trkpt>
    </trkseg>
  </trk>
</gpx>